<?xml version="1.0" encoding="UTF-8" standalone="no" ?>
<gpx xmlns="http://www.topografix.com/GPX/1/1" xmlns:xsi="http://www.w3.org/2001/XMLSchema-instance" xsi:schemaLocation="http://www.topografix.com/GPX/1/1 http://www.topografix.com/GPX/1/1/gpx.xsd" version="1.1" creator="VisuGPX - https://www.visugpx.com">
  <metadata>
    <name>AZILLANET LA MIGNARDE</name>
  </metadata>
  <trk>
    <name><![CDATA[AZILLANET LA MIGNARDE]]></name>
    <trkseg>
      <trkpt lat="43.32258" lon="2.7351">
        <ele>82.33</ele>
        <time>2021-03-11T12:46:04Z</time>
      </trkpt>
      <trkpt lat="43.32259" lon="2.73512">
        <ele>82.81</ele>
        <time>2021-03-11T12:46:33Z</time>
      </trkpt>
      <trkpt lat="43.32258" lon="2.73512">
        <ele>80.89</ele>
        <time>2021-03-11T12:46:40Z</time>
      </trkpt>
      <trkpt lat="43.3226" lon="2.7351">
        <ele>82.33</ele>
        <time>2021-03-11T12:46:45Z</time>
      </trkpt>
      <trkpt lat="43.32258" lon="2.73512">
        <ele>82.81</ele>
        <time>2021-03-11T12:47:04Z</time>
      </trkpt>
      <trkpt lat="43.32259" lon="2.73513">
        <ele>83.29</ele>
        <time>2021-03-11T12:47:36Z</time>
      </trkpt>
      <trkpt lat="43.32258" lon="2.73513">
        <ele>83.29</ele>
        <time>2021-03-11T12:47:50Z</time>
      </trkpt>
      <trkpt lat="43.32258" lon="2.73517">
        <ele>83.29</ele>
        <time>2021-03-11T12:47:58Z</time>
      </trkpt>
      <trkpt lat="43.32262" lon="2.73509">
        <ele>83.29</ele>
        <time>2021-03-11T12:48:04Z</time>
      </trkpt>
      <trkpt lat="43.32276" lon="2.73502">
        <ele>83.29</ele>
        <time>2021-03-11T12:48:16Z</time>
      </trkpt>
      <trkpt lat="43.32281" lon="2.73504">
        <ele>83.29</ele>
        <time>2021-03-11T12:48:22Z</time>
      </trkpt>
      <trkpt lat="43.32284" lon="2.73505">
        <ele>83.29</ele>
        <time>2021-03-11T12:48:25Z</time>
      </trkpt>
      <trkpt lat="43.32291" lon="2.73506">
        <ele>83.77</ele>
        <time>2021-03-11T12:48:35Z</time>
      </trkpt>
      <trkpt lat="43.32296" lon="2.73507">
        <ele>83.77</ele>
        <time>2021-03-11T12:48:41Z</time>
      </trkpt>
      <trkpt lat="43.32298" lon="2.73508">
        <ele>83.77</ele>
        <time>2021-03-11T12:48:42Z</time>
      </trkpt>
      <trkpt lat="43.32301" lon="2.7351">
        <ele>83.77</ele>
        <time>2021-03-11T12:48:48Z</time>
      </trkpt>
      <trkpt lat="43.32302" lon="2.7351">
        <ele>83.77</ele>
        <time>2021-03-11T12:48:49Z</time>
      </trkpt>
      <trkpt lat="43.32304" lon="2.7351">
        <ele>83.77</ele>
        <time>2021-03-11T12:48:50Z</time>
      </trkpt>
      <trkpt lat="43.32318" lon="2.73514">
        <ele>83.77</ele>
        <time>2021-03-11T12:49:02Z</time>
      </trkpt>
      <trkpt lat="43.32326" lon="2.73514">
        <ele>83.77</ele>
        <time>2021-03-11T12:49:09Z</time>
      </trkpt>
      <trkpt lat="43.32328" lon="2.73514">
        <ele>83.77</ele>
        <time>2021-03-11T12:49:10Z</time>
      </trkpt>
      <trkpt lat="43.32332" lon="2.73515">
        <ele>84.25</ele>
        <time>2021-03-11T12:49:21Z</time>
      </trkpt>
      <trkpt lat="43.32336" lon="2.73516">
        <ele>84.25</ele>
        <time>2021-03-11T12:49:37Z</time>
      </trkpt>
      <trkpt lat="43.32345" lon="2.73521">
        <ele>85.21</ele>
        <time>2021-03-11T12:49:59Z</time>
      </trkpt>
      <trkpt lat="43.32348" lon="2.73523">
        <ele>85.21</ele>
        <time>2021-03-11T12:50:01Z</time>
      </trkpt>
      <trkpt lat="43.32368" lon="2.73537">
        <ele>86.18</ele>
        <time>2021-03-11T12:50:17Z</time>
      </trkpt>
      <trkpt lat="43.3238" lon="2.7355">
        <ele>87.62</ele>
        <time>2021-03-11T12:50:27Z</time>
      </trkpt>
      <trkpt lat="43.32396" lon="2.73563">
        <ele>88.58</ele>
        <time>2021-03-11T12:50:40Z</time>
      </trkpt>
      <trkpt lat="43.32408" lon="2.73574">
        <ele>90.02</ele>
        <time>2021-03-11T12:50:50Z</time>
      </trkpt>
      <trkpt lat="43.32411" lon="2.73576">
        <ele>90.5</ele>
        <time>2021-03-11T12:50:55Z</time>
      </trkpt>
      <trkpt lat="43.32415" lon="2.7358">
        <ele>92.42</ele>
        <time>2021-03-11T12:51:01Z</time>
      </trkpt>
      <trkpt lat="43.3242" lon="2.73585">
        <ele>92.42</ele>
        <time>2021-03-11T12:51:06Z</time>
      </trkpt>
      <trkpt lat="43.32431" lon="2.73597">
        <ele>93.87</ele>
        <time>2021-03-11T12:51:17Z</time>
      </trkpt>
      <trkpt lat="43.32439" lon="2.73602">
        <ele>94.83</ele>
        <time>2021-03-11T12:51:25Z</time>
      </trkpt>
      <trkpt lat="43.32446" lon="2.73604">
        <ele>96.27</ele>
        <time>2021-03-11T12:51:35Z</time>
      </trkpt>
      <trkpt lat="43.32447" lon="2.73605">
        <ele>96.27</ele>
        <time>2021-03-11T12:51:37Z</time>
      </trkpt>
      <trkpt lat="43.32448" lon="2.73606">
        <ele>96.27</ele>
        <time>2021-03-11T12:51:38Z</time>
      </trkpt>
      <trkpt lat="43.32462" lon="2.73613">
        <ele>97.71</ele>
        <time>2021-03-11T12:51:51Z</time>
      </trkpt>
      <trkpt lat="43.32467" lon="2.73608">
        <ele>98.67</ele>
        <time>2021-03-11T12:52:01Z</time>
      </trkpt>
      <trkpt lat="43.32467" lon="2.73607">
        <ele>98.67</ele>
        <time>2021-03-11T12:52:02Z</time>
      </trkpt>
      <trkpt lat="43.32466" lon="2.73601">
        <ele>99.15</ele>
        <time>2021-03-11T12:52:06Z</time>
      </trkpt>
      <trkpt lat="43.32466" lon="2.73599">
        <ele>99.15</ele>
        <time>2021-03-11T12:52:07Z</time>
      </trkpt>
      <trkpt lat="43.32466" lon="2.73598">
        <ele>99.15</ele>
        <time>2021-03-11T12:52:08Z</time>
      </trkpt>
      <trkpt lat="43.32467" lon="2.73596">
        <ele>99.15</ele>
        <time>2021-03-11T12:52:09Z</time>
      </trkpt>
      <trkpt lat="43.32467" lon="2.73594">
        <ele>99.15</ele>
        <time>2021-03-11T12:52:10Z</time>
      </trkpt>
      <trkpt lat="43.32466" lon="2.73593">
        <ele>99.15</ele>
        <time>2021-03-11T12:52:11Z</time>
      </trkpt>
      <trkpt lat="43.32467" lon="2.73592">
        <ele>99.15</ele>
        <time>2021-03-11T12:52:12Z</time>
      </trkpt>
      <trkpt lat="43.32466" lon="2.73576">
        <ele>99.15</ele>
        <time>2021-03-11T12:52:22Z</time>
      </trkpt>
      <trkpt lat="43.32472" lon="2.73558">
        <ele>99.63</ele>
        <time>2021-03-11T12:52:32Z</time>
      </trkpt>
      <trkpt lat="43.32475" lon="2.73549">
        <ele>98.19</ele>
        <time>2021-03-11T12:52:39Z</time>
      </trkpt>
      <trkpt lat="43.32477" lon="2.73544">
        <ele>97.71</ele>
        <time>2021-03-11T12:52:43Z</time>
      </trkpt>
      <trkpt lat="43.32482" lon="2.73525">
        <ele>96.27</ele>
        <time>2021-03-11T12:52:53Z</time>
      </trkpt>
      <trkpt lat="43.32484" lon="2.73515">
        <ele>95.79</ele>
        <time>2021-03-11T12:53:02Z</time>
      </trkpt>
      <trkpt lat="43.32485" lon="2.73512">
        <ele>95.31</ele>
        <time>2021-03-11T12:53:06Z</time>
      </trkpt>
      <trkpt lat="43.32485" lon="2.7351">
        <ele>95.31</ele>
        <time>2021-03-11T12:53:07Z</time>
      </trkpt>
      <trkpt lat="43.32486" lon="2.73502">
        <ele>95.31</ele>
        <time>2021-03-11T12:53:18Z</time>
      </trkpt>
      <trkpt lat="43.3249" lon="2.73504">
        <ele>95.31</ele>
        <time>2021-03-11T12:53:33Z</time>
      </trkpt>
      <trkpt lat="43.3249" lon="2.73504">
        <ele>91.46</ele>
        <time>2021-03-11T12:53:36Z</time>
      </trkpt>
      <trkpt lat="43.3249" lon="2.73504">
        <ele>96.27</ele>
        <time>2021-03-11T12:53:37Z</time>
      </trkpt>
      <trkpt lat="43.32491" lon="2.73503">
        <ele>98.19</ele>
        <time>2021-03-11T12:53:40Z</time>
      </trkpt>
      <trkpt lat="43.3249" lon="2.73503">
        <ele>96.27</ele>
        <time>2021-03-11T12:53:42Z</time>
      </trkpt>
      <trkpt lat="43.32489" lon="2.73502">
        <ele>96.27</ele>
        <time>2021-03-11T12:53:43Z</time>
      </trkpt>
      <trkpt lat="43.32488" lon="2.73501">
        <ele>96.27</ele>
        <time>2021-03-11T12:53:44Z</time>
      </trkpt>
      <trkpt lat="43.32488" lon="2.73499">
        <ele>96.27</ele>
        <time>2021-03-11T12:53:45Z</time>
      </trkpt>
      <trkpt lat="43.3248" lon="2.73477">
        <ele>95.79</ele>
        <time>2021-03-11T12:53:56Z</time>
      </trkpt>
      <trkpt lat="43.3248" lon="2.73475">
        <ele>95.79</ele>
        <time>2021-03-11T12:53:57Z</time>
      </trkpt>
      <trkpt lat="43.3248" lon="2.73472">
        <ele>95.79</ele>
        <time>2021-03-11T12:53:58Z</time>
      </trkpt>
      <trkpt lat="43.32479" lon="2.73465">
        <ele>97.23</ele>
        <time>2021-03-11T12:54:01Z</time>
      </trkpt>
      <trkpt lat="43.32483" lon="2.73444">
        <ele>98.67</ele>
        <time>2021-03-11T12:54:13Z</time>
      </trkpt>
      <trkpt lat="43.3249" lon="2.73425">
        <ele>99.15</ele>
        <time>2021-03-11T12:54:28Z</time>
      </trkpt>
      <trkpt lat="43.32499" lon="2.73408">
        <ele>101.08</ele>
        <time>2021-03-11T12:54:40Z</time>
      </trkpt>
      <trkpt lat="43.32504" lon="2.73397">
        <ele>102.04</ele>
        <time>2021-03-11T12:54:49Z</time>
      </trkpt>
      <trkpt lat="43.32511" lon="2.73387">
        <ele>103.48</ele>
        <time>2021-03-11T12:54:59Z</time>
      </trkpt>
      <trkpt lat="43.32514" lon="2.73384">
        <ele>103.96</ele>
        <time>2021-03-11T12:55:04Z</time>
      </trkpt>
      <trkpt lat="43.32515" lon="2.73382">
        <ele>103.96</ele>
        <time>2021-03-11T12:55:05Z</time>
      </trkpt>
      <trkpt lat="43.32524" lon="2.73371">
        <ele>105.4</ele>
        <time>2021-03-11T12:55:15Z</time>
      </trkpt>
      <trkpt lat="43.32525" lon="2.73368">
        <ele>105.4</ele>
        <time>2021-03-11T12:55:18Z</time>
      </trkpt>
      <trkpt lat="43.32526" lon="2.73367">
        <ele>105.4</ele>
        <time>2021-03-11T12:55:19Z</time>
      </trkpt>
      <trkpt lat="43.32534" lon="2.7336">
        <ele>105.88</ele>
        <time>2021-03-11T12:55:29Z</time>
      </trkpt>
      <trkpt lat="43.32542" lon="2.73351">
        <ele>106.36</ele>
        <time>2021-03-11T12:55:40Z</time>
      </trkpt>
      <trkpt lat="43.32553" lon="2.73338">
        <ele>107.32</ele>
        <time>2021-03-11T12:55:53Z</time>
      </trkpt>
      <trkpt lat="43.32555" lon="2.73336">
        <ele>107.32</ele>
        <time>2021-03-11T12:55:55Z</time>
      </trkpt>
      <trkpt lat="43.32556" lon="2.73334">
        <ele>107.32</ele>
        <time>2021-03-11T12:55:56Z</time>
      </trkpt>
      <trkpt lat="43.32557" lon="2.73332">
        <ele>107.32</ele>
        <time>2021-03-11T12:55:57Z</time>
      </trkpt>
      <trkpt lat="43.32559" lon="2.73331">
        <ele>107.32</ele>
        <time>2021-03-11T12:55:58Z</time>
      </trkpt>
      <trkpt lat="43.3256" lon="2.73329">
        <ele>107.32</ele>
        <time>2021-03-11T12:55:59Z</time>
      </trkpt>
      <trkpt lat="43.32561" lon="2.73327">
        <ele>107.32</ele>
        <time>2021-03-11T12:56:00Z</time>
      </trkpt>
      <trkpt lat="43.32562" lon="2.73326">
        <ele>107.32</ele>
        <time>2021-03-11T12:56:01Z</time>
      </trkpt>
      <trkpt lat="43.32564" lon="2.73325">
        <ele>107.32</ele>
        <time>2021-03-11T12:56:02Z</time>
      </trkpt>
      <trkpt lat="43.32565" lon="2.73323">
        <ele>107.32</ele>
        <time>2021-03-11T12:56:03Z</time>
      </trkpt>
      <trkpt lat="43.32566" lon="2.73321">
        <ele>107.32</ele>
        <time>2021-03-11T12:56:05Z</time>
      </trkpt>
      <trkpt lat="43.32567" lon="2.73318">
        <ele>107.32</ele>
        <time>2021-03-11T12:56:10Z</time>
      </trkpt>
      <trkpt lat="43.32568" lon="2.73317">
        <ele>107.32</ele>
        <time>2021-03-11T12:56:11Z</time>
      </trkpt>
      <trkpt lat="43.32582" lon="2.73296">
        <ele>108.29</ele>
        <time>2021-03-11T12:56:29Z</time>
      </trkpt>
      <trkpt lat="43.32591" lon="2.73274">
        <ele>108.77</ele>
        <time>2021-03-11T12:56:45Z</time>
      </trkpt>
      <trkpt lat="43.32595" lon="2.7327">
        <ele>109.25</ele>
        <time>2021-03-11T12:56:57Z</time>
      </trkpt>
      <trkpt lat="43.32598" lon="2.7327">
        <ele>109.25</ele>
        <time>2021-03-11T12:57:06Z</time>
      </trkpt>
      <trkpt lat="43.32598" lon="2.73269">
        <ele>109.73</ele>
        <time>2021-03-11T12:57:14Z</time>
      </trkpt>
      <trkpt lat="43.32597" lon="2.73268">
        <ele>109.73</ele>
        <time>2021-03-11T12:57:15Z</time>
      </trkpt>
      <trkpt lat="43.32597" lon="2.73266">
        <ele>109.73</ele>
        <time>2021-03-11T12:57:16Z</time>
      </trkpt>
      <trkpt lat="43.32597" lon="2.73264">
        <ele>109.73</ele>
        <time>2021-03-11T12:57:17Z</time>
      </trkpt>
      <trkpt lat="43.32598" lon="2.73262">
        <ele>109.73</ele>
        <time>2021-03-11T12:57:18Z</time>
      </trkpt>
      <trkpt lat="43.32598" lon="2.7326">
        <ele>108.29</ele>
        <time>2021-03-11T12:57:20Z</time>
      </trkpt>
      <trkpt lat="43.32604" lon="2.73232">
        <ele>108.29</ele>
        <time>2021-03-11T12:57:39Z</time>
      </trkpt>
      <trkpt lat="43.32609" lon="2.73215">
        <ele>109.25</ele>
        <time>2021-03-11T12:57:57Z</time>
      </trkpt>
      <trkpt lat="43.3261" lon="2.73205">
        <ele>109.25</ele>
        <time>2021-03-11T12:58:03Z</time>
      </trkpt>
      <trkpt lat="43.3261" lon="2.73204">
        <ele>109.25</ele>
        <time>2021-03-11T12:58:04Z</time>
      </trkpt>
      <trkpt lat="43.3261" lon="2.73202">
        <ele>109.25</ele>
        <time>2021-03-11T12:58:05Z</time>
      </trkpt>
      <trkpt lat="43.3261" lon="2.732">
        <ele>109.25</ele>
        <time>2021-03-11T12:58:06Z</time>
      </trkpt>
      <trkpt lat="43.3261" lon="2.73198">
        <ele>109.25</ele>
        <time>2021-03-11T12:58:07Z</time>
      </trkpt>
      <trkpt lat="43.3261" lon="2.73196">
        <ele>109.25</ele>
        <time>2021-03-11T12:58:08Z</time>
      </trkpt>
      <trkpt lat="43.32608" lon="2.73177">
        <ele>109.73</ele>
        <time>2021-03-11T12:58:18Z</time>
      </trkpt>
      <trkpt lat="43.32611" lon="2.73175">
        <ele>109.73</ele>
        <time>2021-03-11T12:58:24Z</time>
      </trkpt>
      <trkpt lat="43.32612" lon="2.73174">
        <ele>109.73</ele>
        <time>2021-03-11T12:58:25Z</time>
      </trkpt>
      <trkpt lat="43.32614" lon="2.73173">
        <ele>109.73</ele>
        <time>2021-03-11T12:58:26Z</time>
      </trkpt>
      <trkpt lat="43.32615" lon="2.73172">
        <ele>109.73</ele>
        <time>2021-03-11T12:58:27Z</time>
      </trkpt>
      <trkpt lat="43.32616" lon="2.73171">
        <ele>109.73</ele>
        <time>2021-03-11T12:58:28Z</time>
      </trkpt>
      <trkpt lat="43.32617" lon="2.73171">
        <ele>109.73</ele>
        <time>2021-03-11T12:58:29Z</time>
      </trkpt>
      <trkpt lat="43.32623" lon="2.73163">
        <ele>109.73</ele>
        <time>2021-03-11T12:58:37Z</time>
      </trkpt>
      <trkpt lat="43.32632" lon="2.7315">
        <ele>109.73</ele>
        <time>2021-03-11T12:58:49Z</time>
      </trkpt>
      <trkpt lat="43.32639" lon="2.73131">
        <ele>109.73</ele>
        <time>2021-03-11T12:58:59Z</time>
      </trkpt>
      <trkpt lat="43.32641" lon="2.73119">
        <ele>108.77</ele>
        <time>2021-03-11T12:59:11Z</time>
      </trkpt>
      <trkpt lat="43.3265" lon="2.73097">
        <ele>108.77</ele>
        <time>2021-03-11T12:59:24Z</time>
      </trkpt>
      <trkpt lat="43.32652" lon="2.73091">
        <ele>108.77</ele>
        <time>2021-03-11T12:59:30Z</time>
      </trkpt>
      <trkpt lat="43.32655" lon="2.7308">
        <ele>108.77</ele>
        <time>2021-03-11T12:59:36Z</time>
      </trkpt>
      <trkpt lat="43.32658" lon="2.73071">
        <ele>108.77</ele>
        <time>2021-03-11T12:59:41Z</time>
      </trkpt>
      <trkpt lat="43.32659" lon="2.7307">
        <ele>108.77</ele>
        <time>2021-03-11T12:59:42Z</time>
      </trkpt>
      <trkpt lat="43.32662" lon="2.73057">
        <ele>108.77</ele>
        <time>2021-03-11T12:59:49Z</time>
      </trkpt>
      <trkpt lat="43.32663" lon="2.73055">
        <ele>108.77</ele>
        <time>2021-03-11T12:59:50Z</time>
      </trkpt>
      <trkpt lat="43.32668" lon="2.73034">
        <ele>110.69</ele>
        <time>2021-03-11T13:00:02Z</time>
      </trkpt>
      <trkpt lat="43.32669" lon="2.73032">
        <ele>110.69</ele>
        <time>2021-03-11T13:00:03Z</time>
      </trkpt>
      <trkpt lat="43.32671" lon="2.73012">
        <ele>110.69</ele>
        <time>2021-03-11T13:00:15Z</time>
      </trkpt>
      <trkpt lat="43.32671" lon="2.72984">
        <ele>110.69</ele>
        <time>2021-03-11T13:00:29Z</time>
      </trkpt>
      <trkpt lat="43.32669" lon="2.72968">
        <ele>111.65</ele>
        <time>2021-03-11T13:00:40Z</time>
      </trkpt>
      <trkpt lat="43.32668" lon="2.72961">
        <ele>112.13</ele>
        <time>2021-03-11T13:00:45Z</time>
      </trkpt>
      <trkpt lat="43.32667" lon="2.72958">
        <ele>112.13</ele>
        <time>2021-03-11T13:00:47Z</time>
      </trkpt>
      <trkpt lat="43.32664" lon="2.7295">
        <ele>112.13</ele>
        <time>2021-03-11T13:00:53Z</time>
      </trkpt>
      <trkpt lat="43.32663" lon="2.72948">
        <ele>112.13</ele>
        <time>2021-03-11T13:00:54Z</time>
      </trkpt>
      <trkpt lat="43.32658" lon="2.72932">
        <ele>110.69</ele>
        <time>2021-03-11T13:01:06Z</time>
      </trkpt>
      <trkpt lat="43.32657" lon="2.7293">
        <ele>110.69</ele>
        <time>2021-03-11T13:01:07Z</time>
      </trkpt>
      <trkpt lat="43.32656" lon="2.72926">
        <ele>110.21</ele>
        <time>2021-03-11T13:01:10Z</time>
      </trkpt>
      <trkpt lat="43.32655" lon="2.72921">
        <ele>110.21</ele>
        <time>2021-03-11T13:01:13Z</time>
      </trkpt>
      <trkpt lat="43.32654" lon="2.72914">
        <ele>110.21</ele>
        <time>2021-03-11T13:01:18Z</time>
      </trkpt>
      <trkpt lat="43.32653" lon="2.72903">
        <ele>110.21</ele>
        <time>2021-03-11T13:01:26Z</time>
      </trkpt>
      <trkpt lat="43.32661" lon="2.7288">
        <ele>109.73</ele>
        <time>2021-03-11T13:01:37Z</time>
      </trkpt>
      <trkpt lat="43.32662" lon="2.7288">
        <ele>109.73</ele>
        <time>2021-03-11T13:01:38Z</time>
      </trkpt>
      <trkpt lat="43.32663" lon="2.72879">
        <ele>109.73</ele>
        <time>2021-03-11T13:01:39Z</time>
      </trkpt>
      <trkpt lat="43.32664" lon="2.72876">
        <ele>109.73</ele>
        <time>2021-03-11T13:01:43Z</time>
      </trkpt>
      <trkpt lat="43.32666" lon="2.72873">
        <ele>109.73</ele>
        <time>2021-03-11T13:01:45Z</time>
      </trkpt>
      <trkpt lat="43.3268" lon="2.72859">
        <ele>109.73</ele>
        <time>2021-03-11T13:01:57Z</time>
      </trkpt>
      <trkpt lat="43.32683" lon="2.72851">
        <ele>111.17</ele>
        <time>2021-03-11T13:02:05Z</time>
      </trkpt>
      <trkpt lat="43.32684" lon="2.72849">
        <ele>111.17</ele>
        <time>2021-03-11T13:02:06Z</time>
      </trkpt>
      <trkpt lat="43.32689" lon="2.7283">
        <ele>112.13</ele>
        <time>2021-03-11T13:02:18Z</time>
      </trkpt>
      <trkpt lat="43.32689" lon="2.72829">
        <ele>112.13</ele>
        <time>2021-03-11T13:02:19Z</time>
      </trkpt>
      <trkpt lat="43.32682" lon="2.7281">
        <ele>112.13</ele>
        <time>2021-03-11T13:02:31Z</time>
      </trkpt>
      <trkpt lat="43.32681" lon="2.72807">
        <ele>112.13</ele>
        <time>2021-03-11T13:02:34Z</time>
      </trkpt>
      <trkpt lat="43.32679" lon="2.72804">
        <ele>112.13</ele>
        <time>2021-03-11T13:02:44Z</time>
      </trkpt>
      <trkpt lat="43.32682" lon="2.7281">
        <ele>111.17</ele>
        <time>2021-03-11T13:02:56Z</time>
      </trkpt>
      <trkpt lat="43.32685" lon="2.72812">
        <ele>111.17</ele>
        <time>2021-03-11T13:03:03Z</time>
      </trkpt>
      <trkpt lat="43.32682" lon="2.7281">
        <ele>111.65</ele>
        <time>2021-03-11T13:03:11Z</time>
      </trkpt>
      <trkpt lat="43.32682" lon="2.72809">
        <ele>111.65</ele>
        <time>2021-03-11T13:03:12Z</time>
      </trkpt>
      <trkpt lat="43.32675" lon="2.72793">
        <ele>110.69</ele>
        <time>2021-03-11T13:03:21Z</time>
      </trkpt>
      <trkpt lat="43.32672" lon="2.72789">
        <ele>112.61</ele>
        <time>2021-03-11T13:03:24Z</time>
      </trkpt>
      <trkpt lat="43.3267" lon="2.72786">
        <ele>111.17</ele>
        <time>2021-03-11T13:03:26Z</time>
      </trkpt>
      <trkpt lat="43.32663" lon="2.72765">
        <ele>110.69</ele>
        <time>2021-03-11T13:03:38Z</time>
      </trkpt>
      <trkpt lat="43.32669" lon="2.7275">
        <ele>110.21</ele>
        <time>2021-03-11T13:03:52Z</time>
      </trkpt>
      <trkpt lat="43.32677" lon="2.72732">
        <ele>109.73</ele>
        <time>2021-03-11T13:04:07Z</time>
      </trkpt>
      <trkpt lat="43.32684" lon="2.72725">
        <ele>114.05</ele>
        <time>2021-03-11T13:04:11Z</time>
      </trkpt>
      <trkpt lat="43.32699" lon="2.72714">
        <ele>111.65</ele>
        <time>2021-03-11T13:04:22Z</time>
      </trkpt>
      <trkpt lat="43.32722" lon="2.72696">
        <ele>112.61</ele>
        <time>2021-03-11T13:04:38Z</time>
      </trkpt>
      <trkpt lat="43.32732" lon="2.72674">
        <ele>112.61</ele>
        <time>2021-03-11T13:04:53Z</time>
      </trkpt>
      <trkpt lat="43.32733" lon="2.72666">
        <ele>113.09</ele>
        <time>2021-03-11T13:05:03Z</time>
      </trkpt>
      <trkpt lat="43.32734" lon="2.72658">
        <ele>113.09</ele>
        <time>2021-03-11T13:05:11Z</time>
      </trkpt>
      <trkpt lat="43.32741" lon="2.72632">
        <ele>113.09</ele>
        <time>2021-03-11T13:05:24Z</time>
      </trkpt>
      <trkpt lat="43.32741" lon="2.72616">
        <ele>113.09</ele>
        <time>2021-03-11T13:05:36Z</time>
      </trkpt>
      <trkpt lat="43.32735" lon="2.72598">
        <ele>113.09</ele>
        <time>2021-03-11T13:05:47Z</time>
      </trkpt>
      <trkpt lat="43.32734" lon="2.72592">
        <ele>113.57</ele>
        <time>2021-03-11T13:05:52Z</time>
      </trkpt>
      <trkpt lat="43.32741" lon="2.7257">
        <ele>114.05</ele>
        <time>2021-03-11T13:06:03Z</time>
      </trkpt>
      <trkpt lat="43.32745" lon="2.72549">
        <ele>114.53</ele>
        <time>2021-03-11T13:06:16Z</time>
      </trkpt>
      <trkpt lat="43.32747" lon="2.7254">
        <ele>114.53</ele>
        <time>2021-03-11T13:06:24Z</time>
      </trkpt>
      <trkpt lat="43.32748" lon="2.72538">
        <ele>114.53</ele>
        <time>2021-03-11T13:06:25Z</time>
      </trkpt>
      <trkpt lat="43.3275" lon="2.72537">
        <ele>114.53</ele>
        <time>2021-03-11T13:06:26Z</time>
      </trkpt>
      <trkpt lat="43.32751" lon="2.72537">
        <ele>114.53</ele>
        <time>2021-03-11T13:06:27Z</time>
      </trkpt>
      <trkpt lat="43.32752" lon="2.72537">
        <ele>115.01</ele>
        <time>2021-03-11T13:06:28Z</time>
      </trkpt>
      <trkpt lat="43.32753" lon="2.72537">
        <ele>115.01</ele>
        <time>2021-03-11T13:06:29Z</time>
      </trkpt>
      <trkpt lat="43.32767" lon="2.72539">
        <ele>116.94</ele>
        <time>2021-03-11T13:06:41Z</time>
      </trkpt>
      <trkpt lat="43.32769" lon="2.72539">
        <ele>116.94</ele>
        <time>2021-03-11T13:06:44Z</time>
      </trkpt>
      <trkpt lat="43.3277" lon="2.72539">
        <ele>116.94</ele>
        <time>2021-03-11T13:06:45Z</time>
      </trkpt>
      <trkpt lat="43.32775" lon="2.72537">
        <ele>116.94</ele>
        <time>2021-03-11T13:06:50Z</time>
      </trkpt>
      <trkpt lat="43.32776" lon="2.72537">
        <ele>117.42</ele>
        <time>2021-03-11T13:06:51Z</time>
      </trkpt>
      <trkpt lat="43.32778" lon="2.72538">
        <ele>117.42</ele>
        <time>2021-03-11T13:06:52Z</time>
      </trkpt>
      <trkpt lat="43.32779" lon="2.72539">
        <ele>117.42</ele>
        <time>2021-03-11T13:06:53Z</time>
      </trkpt>
      <trkpt lat="43.3278" lon="2.7254">
        <ele>117.42</ele>
        <time>2021-03-11T13:06:54Z</time>
      </trkpt>
      <trkpt lat="43.3279" lon="2.72546">
        <ele>118.38</ele>
        <time>2021-03-11T13:07:04Z</time>
      </trkpt>
      <trkpt lat="43.32792" lon="2.72545">
        <ele>118.38</ele>
        <time>2021-03-11T13:07:05Z</time>
      </trkpt>
      <trkpt lat="43.32794" lon="2.72544">
        <ele>118.38</ele>
        <time>2021-03-11T13:07:06Z</time>
      </trkpt>
      <trkpt lat="43.32795" lon="2.72543">
        <ele>118.38</ele>
        <time>2021-03-11T13:07:07Z</time>
      </trkpt>
      <trkpt lat="43.32807" lon="2.72537">
        <ele>119.34</ele>
        <time>2021-03-11T13:07:20Z</time>
      </trkpt>
      <trkpt lat="43.3282" lon="2.72535">
        <ele>119.82</ele>
        <time>2021-03-11T13:07:31Z</time>
      </trkpt>
      <trkpt lat="43.32833" lon="2.72533">
        <ele>120.3</ele>
        <time>2021-03-11T13:07:40Z</time>
      </trkpt>
      <trkpt lat="43.32849" lon="2.72532">
        <ele>120.78</ele>
        <time>2021-03-11T13:07:53Z</time>
      </trkpt>
      <trkpt lat="43.32861" lon="2.72532">
        <ele>121.26</ele>
        <time>2021-03-11T13:08:03Z</time>
      </trkpt>
      <trkpt lat="43.32875" lon="2.72532">
        <ele>121.74</ele>
        <time>2021-03-11T13:08:13Z</time>
      </trkpt>
      <trkpt lat="43.32889" lon="2.72535">
        <ele>122.71</ele>
        <time>2021-03-11T13:08:24Z</time>
      </trkpt>
      <trkpt lat="43.32889" lon="2.72535">
        <ele>122.71</ele>
        <time>2021-03-11T13:08:25Z</time>
      </trkpt>
      <trkpt lat="43.32902" lon="2.72541">
        <ele>123.67</ele>
        <time>2021-03-11T13:08:37Z</time>
      </trkpt>
      <trkpt lat="43.32911" lon="2.72527">
        <ele>125.11</ele>
        <time>2021-03-11T13:08:50Z</time>
      </trkpt>
      <trkpt lat="43.32916" lon="2.72509">
        <ele>126.07</ele>
        <time>2021-03-11T13:09:02Z</time>
      </trkpt>
      <trkpt lat="43.32917" lon="2.72504">
        <ele>126.07</ele>
        <time>2021-03-11T13:09:07Z</time>
      </trkpt>
      <trkpt lat="43.32917" lon="2.72483">
        <ele>126.07</ele>
        <time>2021-03-11T13:09:17Z</time>
      </trkpt>
      <trkpt lat="43.32916" lon="2.72481">
        <ele>126.07</ele>
        <time>2021-03-11T13:09:18Z</time>
      </trkpt>
      <trkpt lat="43.32917" lon="2.72474">
        <ele>126.07</ele>
        <time>2021-03-11T13:09:22Z</time>
      </trkpt>
      <trkpt lat="43.32921" lon="2.72451">
        <ele>126.55</ele>
        <time>2021-03-11T13:09:37Z</time>
      </trkpt>
      <trkpt lat="43.32922" lon="2.72449">
        <ele>126.55</ele>
        <time>2021-03-11T13:09:39Z</time>
      </trkpt>
      <trkpt lat="43.32922" lon="2.72446">
        <ele>127.51</ele>
        <time>2021-03-11T13:09:42Z</time>
      </trkpt>
      <trkpt lat="43.32926" lon="2.72431">
        <ele>127.51</ele>
        <time>2021-03-11T13:09:55Z</time>
      </trkpt>
      <trkpt lat="43.32928" lon="2.72424">
        <ele>127.51</ele>
        <time>2021-03-11T13:09:59Z</time>
      </trkpt>
      <trkpt lat="43.32933" lon="2.72392">
        <ele>126.07</ele>
        <time>2021-03-11T13:10:11Z</time>
      </trkpt>
      <trkpt lat="43.32931" lon="2.72384">
        <ele>125.59</ele>
        <time>2021-03-11T13:10:21Z</time>
      </trkpt>
      <trkpt lat="43.32931" lon="2.72382">
        <ele>125.59</ele>
        <time>2021-03-11T13:10:22Z</time>
      </trkpt>
      <trkpt lat="43.3293" lon="2.7238">
        <ele>125.59</ele>
        <time>2021-03-11T13:10:23Z</time>
      </trkpt>
      <trkpt lat="43.32929" lon="2.72378">
        <ele>125.59</ele>
        <time>2021-03-11T13:10:24Z</time>
      </trkpt>
      <trkpt lat="43.32928" lon="2.72365">
        <ele>125.11</ele>
        <time>2021-03-11T13:10:32Z</time>
      </trkpt>
      <trkpt lat="43.32927" lon="2.72363">
        <ele>125.11</ele>
        <time>2021-03-11T13:10:34Z</time>
      </trkpt>
      <trkpt lat="43.32927" lon="2.7236">
        <ele>125.11</ele>
        <time>2021-03-11T13:10:36Z</time>
      </trkpt>
      <trkpt lat="43.32927" lon="2.72358">
        <ele>125.11</ele>
        <time>2021-03-11T13:10:37Z</time>
      </trkpt>
      <trkpt lat="43.32927" lon="2.72356">
        <ele>124.63</ele>
        <time>2021-03-11T13:10:38Z</time>
      </trkpt>
      <trkpt lat="43.32928" lon="2.72353">
        <ele>124.63</ele>
        <time>2021-03-11T13:10:39Z</time>
      </trkpt>
      <trkpt lat="43.32929" lon="2.72351">
        <ele>124.63</ele>
        <time>2021-03-11T13:10:40Z</time>
      </trkpt>
      <trkpt lat="43.32929" lon="2.72349">
        <ele>124.63</ele>
        <time>2021-03-11T13:10:41Z</time>
      </trkpt>
      <trkpt lat="43.32934" lon="2.72331">
        <ele>124.15</ele>
        <time>2021-03-11T13:10:50Z</time>
      </trkpt>
      <trkpt lat="43.32934" lon="2.72329">
        <ele>124.15</ele>
        <time>2021-03-11T13:10:51Z</time>
      </trkpt>
      <trkpt lat="43.32935" lon="2.72327">
        <ele>124.15</ele>
        <time>2021-03-11T13:10:52Z</time>
      </trkpt>
      <trkpt lat="43.32935" lon="2.72324">
        <ele>124.15</ele>
        <time>2021-03-11T13:10:53Z</time>
      </trkpt>
      <trkpt lat="43.32936" lon="2.72322">
        <ele>124.15</ele>
        <time>2021-03-11T13:10:54Z</time>
      </trkpt>
      <trkpt lat="43.32936" lon="2.72319">
        <ele>124.15</ele>
        <time>2021-03-11T13:10:55Z</time>
      </trkpt>
      <trkpt lat="43.32937" lon="2.72317">
        <ele>124.15</ele>
        <time>2021-03-11T13:10:56Z</time>
      </trkpt>
      <trkpt lat="43.32937" lon="2.72316">
        <ele>123.67</ele>
        <time>2021-03-11T13:10:57Z</time>
      </trkpt>
      <trkpt lat="43.32934" lon="2.72312">
        <ele>123.67</ele>
        <time>2021-03-11T13:11:06Z</time>
      </trkpt>
      <trkpt lat="43.32934" lon="2.7231">
        <ele>123.67</ele>
        <time>2021-03-11T13:11:07Z</time>
      </trkpt>
      <trkpt lat="43.32934" lon="2.72307">
        <ele>123.67</ele>
        <time>2021-03-11T13:11:08Z</time>
      </trkpt>
      <trkpt lat="43.32934" lon="2.72305">
        <ele>123.67</ele>
        <time>2021-03-11T13:11:09Z</time>
      </trkpt>
      <trkpt lat="43.32934" lon="2.72303">
        <ele>123.67</ele>
        <time>2021-03-11T13:11:10Z</time>
      </trkpt>
      <trkpt lat="43.32935" lon="2.72301">
        <ele>123.67</ele>
        <time>2021-03-11T13:11:11Z</time>
      </trkpt>
      <trkpt lat="43.32937" lon="2.72288">
        <ele>123.67</ele>
        <time>2021-03-11T13:11:20Z</time>
      </trkpt>
      <trkpt lat="43.32936" lon="2.7228">
        <ele>123.19</ele>
        <time>2021-03-11T13:11:28Z</time>
      </trkpt>
      <trkpt lat="43.32937" lon="2.72256">
        <ele>121.74</ele>
        <time>2021-03-11T13:11:39Z</time>
      </trkpt>
      <trkpt lat="43.32936" lon="2.72246">
        <ele>120.78</ele>
        <time>2021-03-11T13:11:48Z</time>
      </trkpt>
      <trkpt lat="43.32936" lon="2.72244">
        <ele>120.78</ele>
        <time>2021-03-11T13:11:49Z</time>
      </trkpt>
      <trkpt lat="43.32935" lon="2.72217">
        <ele>119.34</ele>
        <time>2021-03-11T13:12:01Z</time>
      </trkpt>
      <trkpt lat="43.32934" lon="2.72215">
        <ele>118.86</ele>
        <time>2021-03-11T13:12:04Z</time>
      </trkpt>
      <trkpt lat="43.32934" lon="2.72213">
        <ele>118.86</ele>
        <time>2021-03-11T13:12:05Z</time>
      </trkpt>
      <trkpt lat="43.32934" lon="2.72211">
        <ele>118.86</ele>
        <time>2021-03-11T13:12:06Z</time>
      </trkpt>
      <trkpt lat="43.32933" lon="2.72203">
        <ele>117.42</ele>
        <time>2021-03-11T13:12:18Z</time>
      </trkpt>
      <trkpt lat="43.3293" lon="2.72187">
        <ele>116.46</ele>
        <time>2021-03-11T13:12:29Z</time>
      </trkpt>
      <trkpt lat="43.3293" lon="2.72183">
        <ele>115.98</ele>
        <time>2021-03-11T13:12:30Z</time>
      </trkpt>
      <trkpt lat="43.3293" lon="2.7218">
        <ele>115.98</ele>
        <time>2021-03-11T13:12:31Z</time>
      </trkpt>
      <trkpt lat="43.3293" lon="2.72177">
        <ele>115.98</ele>
        <time>2021-03-11T13:12:32Z</time>
      </trkpt>
      <trkpt lat="43.3293" lon="2.72175">
        <ele>115.98</ele>
        <time>2021-03-11T13:12:33Z</time>
      </trkpt>
      <trkpt lat="43.3293" lon="2.72172">
        <ele>115.98</ele>
        <time>2021-03-11T13:12:34Z</time>
      </trkpt>
      <trkpt lat="43.3293" lon="2.72159">
        <ele>115.01</ele>
        <time>2021-03-11T13:12:43Z</time>
      </trkpt>
      <trkpt lat="43.32928" lon="2.72139">
        <ele>114.05</ele>
        <time>2021-03-11T13:12:54Z</time>
      </trkpt>
      <trkpt lat="43.32928" lon="2.72135">
        <ele>114.05</ele>
        <time>2021-03-11T13:12:56Z</time>
      </trkpt>
      <trkpt lat="43.32927" lon="2.72133">
        <ele>114.05</ele>
        <time>2021-03-11T13:12:57Z</time>
      </trkpt>
      <trkpt lat="43.32924" lon="2.72123">
        <ele>113.57</ele>
        <time>2021-03-11T13:13:06Z</time>
      </trkpt>
      <trkpt lat="43.32923" lon="2.72122">
        <ele>113.09</ele>
        <time>2021-03-11T13:13:07Z</time>
      </trkpt>
      <trkpt lat="43.32922" lon="2.7212">
        <ele>113.09</ele>
        <time>2021-03-11T13:13:08Z</time>
      </trkpt>
      <trkpt lat="43.32921" lon="2.72119">
        <ele>113.09</ele>
        <time>2021-03-11T13:13:09Z</time>
      </trkpt>
      <trkpt lat="43.3292" lon="2.72116">
        <ele>112.61</ele>
        <time>2021-03-11T13:13:10Z</time>
      </trkpt>
      <trkpt lat="43.3292" lon="2.72114">
        <ele>112.61</ele>
        <time>2021-03-11T13:13:11Z</time>
      </trkpt>
      <trkpt lat="43.32912" lon="2.72097">
        <ele>114.05</ele>
        <time>2021-03-11T13:13:22Z</time>
      </trkpt>
      <trkpt lat="43.32906" lon="2.72086">
        <ele>115.01</ele>
        <time>2021-03-11T13:13:31Z</time>
      </trkpt>
      <trkpt lat="43.32906" lon="2.72084">
        <ele>115.01</ele>
        <time>2021-03-11T13:13:32Z</time>
      </trkpt>
      <trkpt lat="43.32898" lon="2.72066">
        <ele>116.94</ele>
        <time>2021-03-11T13:13:44Z</time>
      </trkpt>
      <trkpt lat="43.32892" lon="2.72053">
        <ele>118.38</ele>
        <time>2021-03-11T13:13:54Z</time>
      </trkpt>
      <trkpt lat="43.32886" lon="2.72039">
        <ele>118.86</ele>
        <time>2021-03-11T13:14:04Z</time>
      </trkpt>
      <trkpt lat="43.32879" lon="2.72021">
        <ele>118.86</ele>
        <time>2021-03-11T13:14:15Z</time>
      </trkpt>
      <trkpt lat="43.32877" lon="2.72019">
        <ele>118.86</ele>
        <time>2021-03-11T13:14:18Z</time>
      </trkpt>
      <trkpt lat="43.32877" lon="2.72017">
        <ele>118.86</ele>
        <time>2021-03-11T13:14:19Z</time>
      </trkpt>
      <trkpt lat="43.32868" lon="2.72001">
        <ele>119.82</ele>
        <time>2021-03-11T13:14:30Z</time>
      </trkpt>
      <trkpt lat="43.32867" lon="2.72">
        <ele>119.82</ele>
        <time>2021-03-11T13:14:31Z</time>
      </trkpt>
      <trkpt lat="43.32866" lon="2.71999">
        <ele>119.82</ele>
        <time>2021-03-11T13:14:32Z</time>
      </trkpt>
      <trkpt lat="43.32865" lon="2.71998">
        <ele>119.82</ele>
        <time>2021-03-11T13:14:33Z</time>
      </trkpt>
      <trkpt lat="43.32863" lon="2.71997">
        <ele>119.82</ele>
        <time>2021-03-11T13:14:34Z</time>
      </trkpt>
      <trkpt lat="43.32862" lon="2.71995">
        <ele>119.82</ele>
        <time>2021-03-11T13:14:35Z</time>
      </trkpt>
      <trkpt lat="43.32852" lon="2.71988">
        <ele>119.82</ele>
        <time>2021-03-11T13:14:45Z</time>
      </trkpt>
      <trkpt lat="43.32852" lon="2.71988">
        <ele>119.82</ele>
        <time>2021-03-11T13:14:46Z</time>
      </trkpt>
      <trkpt lat="43.3285" lon="2.71987">
        <ele>120.3</ele>
        <time>2021-03-11T13:14:48Z</time>
      </trkpt>
      <trkpt lat="43.32848" lon="2.71986">
        <ele>120.3</ele>
        <time>2021-03-11T13:14:49Z</time>
      </trkpt>
      <trkpt lat="43.32847" lon="2.71984">
        <ele>120.3</ele>
        <time>2021-03-11T13:14:50Z</time>
      </trkpt>
      <trkpt lat="43.32842" lon="2.71977">
        <ele>120.3</ele>
        <time>2021-03-11T13:14:56Z</time>
      </trkpt>
      <trkpt lat="43.32841" lon="2.71976">
        <ele>120.3</ele>
        <time>2021-03-11T13:14:57Z</time>
      </trkpt>
      <trkpt lat="43.32833" lon="2.7197">
        <ele>120.3</ele>
        <time>2021-03-11T13:15:07Z</time>
      </trkpt>
      <trkpt lat="43.32831" lon="2.71969">
        <ele>120.3</ele>
        <time>2021-03-11T13:15:08Z</time>
      </trkpt>
      <trkpt lat="43.32829" lon="2.71968">
        <ele>120.3</ele>
        <time>2021-03-11T13:15:09Z</time>
      </trkpt>
      <trkpt lat="43.32827" lon="2.71967">
        <ele>120.3</ele>
        <time>2021-03-11T13:15:10Z</time>
      </trkpt>
      <trkpt lat="43.32825" lon="2.71965">
        <ele>120.3</ele>
        <time>2021-03-11T13:15:11Z</time>
      </trkpt>
      <trkpt lat="43.32823" lon="2.71964">
        <ele>120.3</ele>
        <time>2021-03-11T13:15:12Z</time>
      </trkpt>
      <trkpt lat="43.32814" lon="2.71958">
        <ele>120.3</ele>
        <time>2021-03-11T13:15:23Z</time>
      </trkpt>
      <trkpt lat="43.32799" lon="2.71946">
        <ele>120.3</ele>
        <time>2021-03-11T13:15:34Z</time>
      </trkpt>
      <trkpt lat="43.32784" lon="2.71934">
        <ele>120.3</ele>
        <time>2021-03-11T13:15:46Z</time>
      </trkpt>
      <trkpt lat="43.32773" lon="2.71918">
        <ele>120.3</ele>
        <time>2021-03-11T13:15:59Z</time>
      </trkpt>
      <trkpt lat="43.32771" lon="2.71914">
        <ele>120.3</ele>
        <time>2021-03-11T13:16:03Z</time>
      </trkpt>
      <trkpt lat="43.3277" lon="2.71912">
        <ele>120.3</ele>
        <time>2021-03-11T13:16:04Z</time>
      </trkpt>
      <trkpt lat="43.32769" lon="2.7191">
        <ele>120.3</ele>
        <time>2021-03-11T13:16:05Z</time>
      </trkpt>
      <trkpt lat="43.32768" lon="2.71908">
        <ele>120.3</ele>
        <time>2021-03-11T13:16:06Z</time>
      </trkpt>
      <trkpt lat="43.32767" lon="2.71907">
        <ele>120.3</ele>
        <time>2021-03-11T13:16:07Z</time>
      </trkpt>
      <trkpt lat="43.32759" lon="2.71896">
        <ele>120.3</ele>
        <time>2021-03-11T13:16:17Z</time>
      </trkpt>
      <trkpt lat="43.32755" lon="2.71892">
        <ele>120.3</ele>
        <time>2021-03-11T13:16:22Z</time>
      </trkpt>
      <trkpt lat="43.32751" lon="2.71888">
        <ele>116.46</ele>
        <time>2021-03-11T13:16:29Z</time>
      </trkpt>
      <trkpt lat="43.32751" lon="2.71888">
        <ele>119.82</ele>
        <time>2021-03-11T13:16:30Z</time>
      </trkpt>
      <trkpt lat="43.3275" lon="2.7189">
        <ele>119.34</ele>
        <time>2021-03-11T13:16:54Z</time>
      </trkpt>
      <trkpt lat="43.3275" lon="2.71887">
        <ele>118.86</ele>
        <time>2021-03-11T13:17:30Z</time>
      </trkpt>
      <trkpt lat="43.32751" lon="2.71887">
        <ele>120.3</ele>
        <time>2021-03-11T13:17:36Z</time>
      </trkpt>
      <trkpt lat="43.32749" lon="2.71883">
        <ele>120.3</ele>
        <time>2021-03-11T13:17:58Z</time>
      </trkpt>
      <trkpt lat="43.32749" lon="2.7188">
        <ele>120.3</ele>
        <time>2021-03-11T13:18:15Z</time>
      </trkpt>
      <trkpt lat="43.32749" lon="2.71879">
        <ele>120.3</ele>
        <time>2021-03-11T13:18:16Z</time>
      </trkpt>
      <trkpt lat="43.32748" lon="2.71877">
        <ele>120.3</ele>
        <time>2021-03-11T13:18:17Z</time>
      </trkpt>
      <trkpt lat="43.32739" lon="2.71856">
        <ele>118.86</ele>
        <time>2021-03-11T13:18:34Z</time>
      </trkpt>
      <trkpt lat="43.32738" lon="2.71848">
        <ele>118.86</ele>
        <time>2021-03-11T13:18:40Z</time>
      </trkpt>
      <trkpt lat="43.32737" lon="2.71843">
        <ele>118.38</ele>
        <time>2021-03-11T13:18:45Z</time>
      </trkpt>
      <trkpt lat="43.32735" lon="2.71819">
        <ele>118.38</ele>
        <time>2021-03-11T13:19:01Z</time>
      </trkpt>
      <trkpt lat="43.32734" lon="2.71795">
        <ele>117.9</ele>
        <time>2021-03-11T13:19:12Z</time>
      </trkpt>
      <trkpt lat="43.32734" lon="2.7178">
        <ele>117.42</ele>
        <time>2021-03-11T13:19:20Z</time>
      </trkpt>
      <trkpt lat="43.32732" lon="2.71767">
        <ele>117.42</ele>
        <time>2021-03-11T13:19:29Z</time>
      </trkpt>
      <trkpt lat="43.3273" lon="2.71762">
        <ele>116.94</ele>
        <time>2021-03-11T13:19:32Z</time>
      </trkpt>
      <trkpt lat="43.32726" lon="2.71749">
        <ele>115.98</ele>
        <time>2021-03-11T13:19:44Z</time>
      </trkpt>
      <trkpt lat="43.32722" lon="2.7174">
        <ele>115.01</ele>
        <time>2021-03-11T13:19:49Z</time>
      </trkpt>
      <trkpt lat="43.32721" lon="2.71738">
        <ele>115.01</ele>
        <time>2021-03-11T13:19:50Z</time>
      </trkpt>
      <trkpt lat="43.3272" lon="2.71735">
        <ele>114.53</ele>
        <time>2021-03-11T13:19:55Z</time>
      </trkpt>
      <trkpt lat="43.32719" lon="2.71733">
        <ele>114.53</ele>
        <time>2021-03-11T13:19:56Z</time>
      </trkpt>
      <trkpt lat="43.32717" lon="2.71732">
        <ele>114.53</ele>
        <time>2021-03-11T13:19:57Z</time>
      </trkpt>
      <trkpt lat="43.32716" lon="2.71732">
        <ele>114.53</ele>
        <time>2021-03-11T13:19:58Z</time>
      </trkpt>
      <trkpt lat="43.32715" lon="2.7173">
        <ele>114.53</ele>
        <time>2021-03-11T13:19:59Z</time>
      </trkpt>
      <trkpt lat="43.32714" lon="2.71729">
        <ele>114.53</ele>
        <time>2021-03-11T13:20:00Z</time>
      </trkpt>
      <trkpt lat="43.32713" lon="2.71728">
        <ele>114.53</ele>
        <time>2021-03-11T13:20:01Z</time>
      </trkpt>
      <trkpt lat="43.32711" lon="2.71727">
        <ele>114.53</ele>
        <time>2021-03-11T13:20:02Z</time>
      </trkpt>
      <trkpt lat="43.32704" lon="2.71717">
        <ele>113.57</ele>
        <time>2021-03-11T13:20:13Z</time>
      </trkpt>
      <trkpt lat="43.32699" lon="2.71713">
        <ele>113.09</ele>
        <time>2021-03-11T13:20:19Z</time>
      </trkpt>
      <trkpt lat="43.3268" lon="2.71696">
        <ele>112.13</ele>
        <time>2021-03-11T13:20:34Z</time>
      </trkpt>
      <trkpt lat="43.32665" lon="2.71684">
        <ele>112.13</ele>
        <time>2021-03-11T13:20:46Z</time>
      </trkpt>
      <trkpt lat="43.32659" lon="2.71676">
        <ele>111.65</ele>
        <time>2021-03-11T13:20:51Z</time>
      </trkpt>
      <trkpt lat="43.32658" lon="2.71675">
        <ele>111.65</ele>
        <time>2021-03-11T13:20:52Z</time>
      </trkpt>
      <trkpt lat="43.32657" lon="2.71673">
        <ele>111.65</ele>
        <time>2021-03-11T13:20:53Z</time>
      </trkpt>
      <trkpt lat="43.32655" lon="2.71673">
        <ele>111.65</ele>
        <time>2021-03-11T13:20:54Z</time>
      </trkpt>
      <trkpt lat="43.32654" lon="2.71669">
        <ele>111.17</ele>
        <time>2021-03-11T13:20:59Z</time>
      </trkpt>
      <trkpt lat="43.32653" lon="2.71668">
        <ele>111.17</ele>
        <time>2021-03-11T13:21:00Z</time>
      </trkpt>
      <trkpt lat="43.32653" lon="2.71666">
        <ele>111.17</ele>
        <time>2021-03-11T13:21:01Z</time>
      </trkpt>
      <trkpt lat="43.32652" lon="2.71665">
        <ele>111.17</ele>
        <time>2021-03-11T13:21:02Z</time>
      </trkpt>
      <trkpt lat="43.32651" lon="2.71664">
        <ele>111.17</ele>
        <time>2021-03-11T13:21:03Z</time>
      </trkpt>
      <trkpt lat="43.32639" lon="2.7164">
        <ele>111.17</ele>
        <time>2021-03-11T13:21:15Z</time>
      </trkpt>
      <trkpt lat="43.32631" lon="2.71625">
        <ele>110.69</ele>
        <time>2021-03-11T13:21:27Z</time>
      </trkpt>
      <trkpt lat="43.32627" lon="2.7162">
        <ele>109.73</ele>
        <time>2021-03-11T13:21:36Z</time>
      </trkpt>
      <trkpt lat="43.32626" lon="2.71619">
        <ele>109.73</ele>
        <time>2021-03-11T13:21:37Z</time>
      </trkpt>
      <trkpt lat="43.32625" lon="2.71617">
        <ele>109.73</ele>
        <time>2021-03-11T13:21:38Z</time>
      </trkpt>
      <trkpt lat="43.32623" lon="2.71616">
        <ele>109.73</ele>
        <time>2021-03-11T13:21:39Z</time>
      </trkpt>
      <trkpt lat="43.32622" lon="2.71615">
        <ele>109.73</ele>
        <time>2021-03-11T13:21:40Z</time>
      </trkpt>
      <trkpt lat="43.32621" lon="2.71614">
        <ele>109.73</ele>
        <time>2021-03-11T13:21:41Z</time>
      </trkpt>
      <trkpt lat="43.32619" lon="2.71612">
        <ele>109.73</ele>
        <time>2021-03-11T13:21:42Z</time>
      </trkpt>
      <trkpt lat="43.32618" lon="2.71611">
        <ele>109.73</ele>
        <time>2021-03-11T13:21:43Z</time>
      </trkpt>
      <trkpt lat="43.32618" lon="2.71609">
        <ele>109.73</ele>
        <time>2021-03-11T13:21:44Z</time>
      </trkpt>
      <trkpt lat="43.3261" lon="2.71595">
        <ele>108.77</ele>
        <time>2021-03-11T13:21:56Z</time>
      </trkpt>
      <trkpt lat="43.32601" lon="2.71575">
        <ele>108.29</ele>
        <time>2021-03-11T13:22:06Z</time>
      </trkpt>
      <trkpt lat="43.32599" lon="2.7156">
        <ele>106.36</ele>
        <time>2021-03-11T13:22:20Z</time>
      </trkpt>
      <trkpt lat="43.32596" lon="2.71541">
        <ele>105.4</ele>
        <time>2021-03-11T13:22:32Z</time>
      </trkpt>
      <trkpt lat="43.32597" lon="2.71535">
        <ele>104.92</ele>
        <time>2021-03-11T13:22:35Z</time>
      </trkpt>
      <trkpt lat="43.32597" lon="2.71533">
        <ele>104.92</ele>
        <time>2021-03-11T13:22:36Z</time>
      </trkpt>
      <trkpt lat="43.32597" lon="2.71531">
        <ele>104.92</ele>
        <time>2021-03-11T13:22:37Z</time>
      </trkpt>
      <trkpt lat="43.32598" lon="2.71525">
        <ele>104.44</ele>
        <time>2021-03-11T13:22:39Z</time>
      </trkpt>
      <trkpt lat="43.32598" lon="2.7152">
        <ele>104.44</ele>
        <time>2021-03-11T13:22:41Z</time>
      </trkpt>
      <trkpt lat="43.32598" lon="2.71518">
        <ele>104.44</ele>
        <time>2021-03-11T13:22:42Z</time>
      </trkpt>
      <trkpt lat="43.326" lon="2.7151">
        <ele>104.44</ele>
        <time>2021-03-11T13:22:48Z</time>
      </trkpt>
      <trkpt lat="43.326" lon="2.71509">
        <ele>103.96</ele>
        <time>2021-03-11T13:22:49Z</time>
      </trkpt>
      <trkpt lat="43.326" lon="2.71507">
        <ele>103.96</ele>
        <time>2021-03-11T13:22:50Z</time>
      </trkpt>
      <trkpt lat="43.326" lon="2.71504">
        <ele>103.96</ele>
        <time>2021-03-11T13:22:51Z</time>
      </trkpt>
      <trkpt lat="43.326" lon="2.71501">
        <ele>103.48</ele>
        <time>2021-03-11T13:22:52Z</time>
      </trkpt>
      <trkpt lat="43.326" lon="2.71499">
        <ele>103.48</ele>
        <time>2021-03-11T13:22:53Z</time>
      </trkpt>
      <trkpt lat="43.32601" lon="2.71496">
        <ele>103.48</ele>
        <time>2021-03-11T13:22:54Z</time>
      </trkpt>
      <trkpt lat="43.32601" lon="2.71479">
        <ele>103</ele>
        <time>2021-03-11T13:23:03Z</time>
      </trkpt>
      <trkpt lat="43.32601" lon="2.71475">
        <ele>103</ele>
        <time>2021-03-11T13:23:05Z</time>
      </trkpt>
      <trkpt lat="43.32601" lon="2.71473">
        <ele>103</ele>
        <time>2021-03-11T13:23:06Z</time>
      </trkpt>
      <trkpt lat="43.326" lon="2.71451">
        <ele>101.08</ele>
        <time>2021-03-11T13:23:18Z</time>
      </trkpt>
      <trkpt lat="43.326" lon="2.71448">
        <ele>100.6</ele>
        <time>2021-03-11T13:23:21Z</time>
      </trkpt>
      <trkpt lat="43.326" lon="2.71447">
        <ele>100.6</ele>
        <time>2021-03-11T13:23:22Z</time>
      </trkpt>
      <trkpt lat="43.32601" lon="2.71445">
        <ele>100.6</ele>
        <time>2021-03-11T13:23:23Z</time>
      </trkpt>
      <trkpt lat="43.32601" lon="2.71443">
        <ele>100.6</ele>
        <time>2021-03-11T13:23:24Z</time>
      </trkpt>
      <trkpt lat="43.32602" lon="2.7144">
        <ele>100.6</ele>
        <time>2021-03-11T13:23:25Z</time>
      </trkpt>
      <trkpt lat="43.32603" lon="2.71438">
        <ele>100.6</ele>
        <time>2021-03-11T13:23:26Z</time>
      </trkpt>
      <trkpt lat="43.32604" lon="2.71436">
        <ele>100.11</ele>
        <time>2021-03-11T13:23:27Z</time>
      </trkpt>
      <trkpt lat="43.32606" lon="2.71424">
        <ele>98.67</ele>
        <time>2021-03-11T13:23:39Z</time>
      </trkpt>
      <trkpt lat="43.32606" lon="2.71422">
        <ele>98.67</ele>
        <time>2021-03-11T13:23:40Z</time>
      </trkpt>
      <trkpt lat="43.32607" lon="2.7142">
        <ele>98.67</ele>
        <time>2021-03-11T13:23:41Z</time>
      </trkpt>
      <trkpt lat="43.32608" lon="2.71416">
        <ele>98.19</ele>
        <time>2021-03-11T13:23:44Z</time>
      </trkpt>
      <trkpt lat="43.32608" lon="2.71412">
        <ele>97.71</ele>
        <time>2021-03-11T13:23:47Z</time>
      </trkpt>
      <trkpt lat="43.32609" lon="2.71409">
        <ele>97.23</ele>
        <time>2021-03-11T13:23:49Z</time>
      </trkpt>
      <trkpt lat="43.32609" lon="2.71407">
        <ele>97.23</ele>
        <time>2021-03-11T13:23:50Z</time>
      </trkpt>
      <trkpt lat="43.32608" lon="2.71406">
        <ele>96.75</ele>
        <time>2021-03-11T13:23:51Z</time>
      </trkpt>
      <trkpt lat="43.32607" lon="2.71404">
        <ele>96.75</ele>
        <time>2021-03-11T13:23:52Z</time>
      </trkpt>
      <trkpt lat="43.32606" lon="2.71404">
        <ele>96.75</ele>
        <time>2021-03-11T13:23:53Z</time>
      </trkpt>
      <trkpt lat="43.3259" lon="2.71398">
        <ele>95.79</ele>
        <time>2021-03-11T13:24:05Z</time>
      </trkpt>
      <trkpt lat="43.32584" lon="2.71394">
        <ele>95.79</ele>
        <time>2021-03-11T13:24:17Z</time>
      </trkpt>
      <trkpt lat="43.32583" lon="2.71395">
        <ele>95.79</ele>
        <time>2021-03-11T13:24:18Z</time>
      </trkpt>
      <trkpt lat="43.32583" lon="2.71397">
        <ele>95.79</ele>
        <time>2021-03-11T13:24:19Z</time>
      </trkpt>
      <trkpt lat="43.3258" lon="2.71406">
        <ele>95.79</ele>
        <time>2021-03-11T13:24:32Z</time>
      </trkpt>
      <trkpt lat="43.32582" lon="2.71419">
        <ele>97.23</ele>
        <time>2021-03-11T13:24:47Z</time>
      </trkpt>
      <trkpt lat="43.32584" lon="2.71429">
        <ele>97.23</ele>
        <time>2021-03-11T13:25:04Z</time>
      </trkpt>
      <trkpt lat="43.32583" lon="2.71436">
        <ele>95.31</ele>
        <time>2021-03-11T13:25:25Z</time>
      </trkpt>
      <trkpt lat="43.32567" lon="2.71434">
        <ele>96.75</ele>
        <time>2021-03-11T13:25:44Z</time>
      </trkpt>
      <trkpt lat="43.32561" lon="2.71438">
        <ele>95.31</ele>
        <time>2021-03-11T13:25:59Z</time>
      </trkpt>
      <trkpt lat="43.32556" lon="2.71441">
        <ele>93.87</ele>
        <time>2021-03-11T13:26:08Z</time>
      </trkpt>
      <trkpt lat="43.3255" lon="2.71437">
        <ele>93.39</ele>
        <time>2021-03-11T13:26:13Z</time>
      </trkpt>
      <trkpt lat="43.32532" lon="2.71436">
        <ele>91.94</ele>
        <time>2021-03-11T13:26:33Z</time>
      </trkpt>
      <trkpt lat="43.32512" lon="2.71436">
        <ele>90.98</ele>
        <time>2021-03-11T13:26:53Z</time>
      </trkpt>
      <trkpt lat="43.32513" lon="2.71424">
        <ele>89.54</ele>
        <time>2021-03-11T13:27:10Z</time>
      </trkpt>
      <trkpt lat="43.32512" lon="2.71428">
        <ele>89.54</ele>
        <time>2021-03-11T13:27:32Z</time>
      </trkpt>
      <trkpt lat="43.32503" lon="2.71445">
        <ele>89.06</ele>
        <time>2021-03-11T13:27:46Z</time>
      </trkpt>
      <trkpt lat="43.32497" lon="2.71462">
        <ele>89.06</ele>
        <time>2021-03-11T13:28:00Z</time>
      </trkpt>
      <trkpt lat="43.32488" lon="2.71476">
        <ele>88.58</ele>
        <time>2021-03-11T13:28:16Z</time>
      </trkpt>
      <trkpt lat="43.32487" lon="2.71478">
        <ele>88.58</ele>
        <time>2021-03-11T13:28:17Z</time>
      </trkpt>
      <trkpt lat="43.32486" lon="2.7148">
        <ele>88.58</ele>
        <time>2021-03-11T13:28:18Z</time>
      </trkpt>
      <trkpt lat="43.32485" lon="2.71481">
        <ele>88.58</ele>
        <time>2021-03-11T13:28:19Z</time>
      </trkpt>
      <trkpt lat="43.32483" lon="2.71483">
        <ele>88.58</ele>
        <time>2021-03-11T13:28:21Z</time>
      </trkpt>
      <trkpt lat="43.32477" lon="2.71486">
        <ele>88.58</ele>
        <time>2021-03-11T13:28:25Z</time>
      </trkpt>
      <trkpt lat="43.32476" lon="2.71487">
        <ele>88.1</ele>
        <time>2021-03-11T13:28:26Z</time>
      </trkpt>
      <trkpt lat="43.32475" lon="2.71488">
        <ele>88.1</ele>
        <time>2021-03-11T13:28:27Z</time>
      </trkpt>
      <trkpt lat="43.32473" lon="2.71489">
        <ele>88.1</ele>
        <time>2021-03-11T13:28:28Z</time>
      </trkpt>
      <trkpt lat="43.32471" lon="2.71489">
        <ele>88.1</ele>
        <time>2021-03-11T13:28:29Z</time>
      </trkpt>
      <trkpt lat="43.32461" lon="2.71492">
        <ele>88.1</ele>
        <time>2021-03-11T13:28:38Z</time>
      </trkpt>
      <trkpt lat="43.3246" lon="2.71493">
        <ele>88.1</ele>
        <time>2021-03-11T13:28:39Z</time>
      </trkpt>
      <trkpt lat="43.32459" lon="2.71494">
        <ele>88.1</ele>
        <time>2021-03-11T13:28:40Z</time>
      </trkpt>
      <trkpt lat="43.32458" lon="2.71495">
        <ele>88.1</ele>
        <time>2021-03-11T13:28:41Z</time>
      </trkpt>
      <trkpt lat="43.32457" lon="2.71496">
        <ele>87.62</ele>
        <time>2021-03-11T13:28:42Z</time>
      </trkpt>
      <trkpt lat="43.32446" lon="2.71501">
        <ele>87.14</ele>
        <time>2021-03-11T13:28:53Z</time>
      </trkpt>
      <trkpt lat="43.32433" lon="2.71506">
        <ele>86.66</ele>
        <time>2021-03-11T13:29:06Z</time>
      </trkpt>
      <trkpt lat="43.32425" lon="2.71507">
        <ele>86.66</ele>
        <time>2021-03-11T13:29:21Z</time>
      </trkpt>
      <trkpt lat="43.32419" lon="2.71507">
        <ele>85.69</ele>
        <time>2021-03-11T13:29:29Z</time>
      </trkpt>
      <trkpt lat="43.32418" lon="2.71507">
        <ele>85.69</ele>
        <time>2021-03-11T13:29:30Z</time>
      </trkpt>
      <trkpt lat="43.32416" lon="2.71507">
        <ele>85.69</ele>
        <time>2021-03-11T13:29:31Z</time>
      </trkpt>
      <trkpt lat="43.32415" lon="2.71507">
        <ele>85.69</ele>
        <time>2021-03-11T13:29:32Z</time>
      </trkpt>
      <trkpt lat="43.32414" lon="2.71508">
        <ele>85.69</ele>
        <time>2021-03-11T13:29:33Z</time>
      </trkpt>
      <trkpt lat="43.32397" lon="2.71511">
        <ele>84.73</ele>
        <time>2021-03-11T13:29:46Z</time>
      </trkpt>
      <trkpt lat="43.32392" lon="2.71506">
        <ele>84.73</ele>
        <time>2021-03-11T13:29:57Z</time>
      </trkpt>
      <trkpt lat="43.32391" lon="2.71503">
        <ele>84.73</ele>
        <time>2021-03-11T13:29:58Z</time>
      </trkpt>
      <trkpt lat="43.32391" lon="2.71501">
        <ele>84.73</ele>
        <time>2021-03-11T13:29:59Z</time>
      </trkpt>
      <trkpt lat="43.32391" lon="2.71498">
        <ele>84.73</ele>
        <time>2021-03-11T13:30:00Z</time>
      </trkpt>
      <trkpt lat="43.32391" lon="2.71496">
        <ele>84.73</ele>
        <time>2021-03-11T13:30:01Z</time>
      </trkpt>
      <trkpt lat="43.32391" lon="2.71494">
        <ele>84.73</ele>
        <time>2021-03-11T13:30:02Z</time>
      </trkpt>
      <trkpt lat="43.32391" lon="2.71491">
        <ele>84.73</ele>
        <time>2021-03-11T13:30:03Z</time>
      </trkpt>
      <trkpt lat="43.32391" lon="2.7149">
        <ele>84.73</ele>
        <time>2021-03-11T13:30:04Z</time>
      </trkpt>
      <trkpt lat="43.3239" lon="2.71482">
        <ele>84.73</ele>
        <time>2021-03-11T13:30:08Z</time>
      </trkpt>
      <trkpt lat="43.32391" lon="2.7148">
        <ele>84.73</ele>
        <time>2021-03-11T13:30:09Z</time>
      </trkpt>
      <trkpt lat="43.3239" lon="2.71477">
        <ele>84.73</ele>
        <time>2021-03-11T13:30:10Z</time>
      </trkpt>
      <trkpt lat="43.3239" lon="2.71475">
        <ele>84.73</ele>
        <time>2021-03-11T13:30:11Z</time>
      </trkpt>
      <trkpt lat="43.3239" lon="2.71472">
        <ele>84.73</ele>
        <time>2021-03-11T13:30:12Z</time>
      </trkpt>
      <trkpt lat="43.32389" lon="2.71468">
        <ele>84.73</ele>
        <time>2021-03-11T13:30:15Z</time>
      </trkpt>
      <trkpt lat="43.32387" lon="2.7146">
        <ele>84.73</ele>
        <time>2021-03-11T13:30:25Z</time>
      </trkpt>
      <trkpt lat="43.32386" lon="2.71445">
        <ele>84.73</ele>
        <time>2021-03-11T13:30:33Z</time>
      </trkpt>
      <trkpt lat="43.32385" lon="2.71437">
        <ele>84.73</ele>
        <time>2021-03-11T13:30:42Z</time>
      </trkpt>
      <trkpt lat="43.32385" lon="2.71435">
        <ele>84.73</ele>
        <time>2021-03-11T13:30:43Z</time>
      </trkpt>
      <trkpt lat="43.32382" lon="2.71407">
        <ele>84.73</ele>
        <time>2021-03-11T13:30:55Z</time>
      </trkpt>
      <trkpt lat="43.32377" lon="2.71394">
        <ele>84.73</ele>
        <time>2021-03-11T13:31:05Z</time>
      </trkpt>
      <trkpt lat="43.32377" lon="2.71392">
        <ele>84.73</ele>
        <time>2021-03-11T13:31:06Z</time>
      </trkpt>
      <trkpt lat="43.32376" lon="2.7139">
        <ele>84.73</ele>
        <time>2021-03-11T13:31:07Z</time>
      </trkpt>
      <trkpt lat="43.32373" lon="2.71374">
        <ele>84.73</ele>
        <time>2021-03-11T13:31:18Z</time>
      </trkpt>
      <trkpt lat="43.32374" lon="2.71364">
        <ele>84.73</ele>
        <time>2021-03-11T13:31:23Z</time>
      </trkpt>
      <trkpt lat="43.32373" lon="2.71358">
        <ele>85.69</ele>
        <time>2021-03-11T13:31:30Z</time>
      </trkpt>
      <trkpt lat="43.32373" lon="2.71354">
        <ele>85.69</ele>
        <time>2021-03-11T13:31:37Z</time>
      </trkpt>
      <trkpt lat="43.32373" lon="2.71352">
        <ele>85.69</ele>
        <time>2021-03-11T13:31:38Z</time>
      </trkpt>
      <trkpt lat="43.32373" lon="2.7135">
        <ele>85.69</ele>
        <time>2021-03-11T13:31:39Z</time>
      </trkpt>
      <trkpt lat="43.32373" lon="2.71348">
        <ele>85.69</ele>
        <time>2021-03-11T13:31:40Z</time>
      </trkpt>
      <trkpt lat="43.32372" lon="2.71345">
        <ele>85.69</ele>
        <time>2021-03-11T13:31:41Z</time>
      </trkpt>
      <trkpt lat="43.32372" lon="2.71343">
        <ele>85.69</ele>
        <time>2021-03-11T13:31:42Z</time>
      </trkpt>
      <trkpt lat="43.32373" lon="2.71328">
        <ele>86.18</ele>
        <time>2021-03-11T13:31:51Z</time>
      </trkpt>
      <trkpt lat="43.32373" lon="2.71323">
        <ele>86.18</ele>
        <time>2021-03-11T13:31:53Z</time>
      </trkpt>
      <trkpt lat="43.32374" lon="2.71321">
        <ele>86.18</ele>
        <time>2021-03-11T13:31:54Z</time>
      </trkpt>
      <trkpt lat="43.32374" lon="2.71319">
        <ele>86.18</ele>
        <time>2021-03-11T13:31:55Z</time>
      </trkpt>
      <trkpt lat="43.32374" lon="2.71317">
        <ele>86.18</ele>
        <time>2021-03-11T13:31:56Z</time>
      </trkpt>
      <trkpt lat="43.32374" lon="2.71304">
        <ele>86.66</ele>
        <time>2021-03-11T13:32:06Z</time>
      </trkpt>
      <trkpt lat="43.32377" lon="2.71284">
        <ele>87.62</ele>
        <time>2021-03-11T13:32:16Z</time>
      </trkpt>
      <trkpt lat="43.32379" lon="2.7127">
        <ele>88.58</ele>
        <time>2021-03-11T13:32:26Z</time>
      </trkpt>
      <trkpt lat="43.32381" lon="2.7126">
        <ele>89.54</ele>
        <time>2021-03-11T13:32:35Z</time>
      </trkpt>
      <trkpt lat="43.32383" lon="2.71247">
        <ele>90.98</ele>
        <time>2021-03-11T13:32:44Z</time>
      </trkpt>
      <trkpt lat="43.32385" lon="2.7124">
        <ele>90.98</ele>
        <time>2021-03-11T13:32:49Z</time>
      </trkpt>
      <trkpt lat="43.32384" lon="2.71238">
        <ele>91.46</ele>
        <time>2021-03-11T13:32:50Z</time>
      </trkpt>
      <trkpt lat="43.32385" lon="2.71236">
        <ele>91.46</ele>
        <time>2021-03-11T13:32:51Z</time>
      </trkpt>
      <trkpt lat="43.32385" lon="2.71232">
        <ele>91.46</ele>
        <time>2021-03-11T13:32:54Z</time>
      </trkpt>
      <trkpt lat="43.32385" lon="2.7123">
        <ele>91.46</ele>
        <time>2021-03-11T13:32:55Z</time>
      </trkpt>
      <trkpt lat="43.32385" lon="2.71228">
        <ele>91.46</ele>
        <time>2021-03-11T13:32:56Z</time>
      </trkpt>
      <trkpt lat="43.32385" lon="2.71226">
        <ele>91.46</ele>
        <time>2021-03-11T13:32:57Z</time>
      </trkpt>
      <trkpt lat="43.32386" lon="2.71224">
        <ele>91.94</ele>
        <time>2021-03-11T13:32:58Z</time>
      </trkpt>
      <trkpt lat="43.32386" lon="2.71219">
        <ele>92.9</ele>
        <time>2021-03-11T13:33:06Z</time>
      </trkpt>
      <trkpt lat="43.32386" lon="2.71218">
        <ele>92.9</ele>
        <time>2021-03-11T13:33:07Z</time>
      </trkpt>
      <trkpt lat="43.32388" lon="2.71202">
        <ele>94.35</ele>
        <time>2021-03-11T13:33:19Z</time>
      </trkpt>
      <trkpt lat="43.32392" lon="2.71192">
        <ele>94.83</ele>
        <time>2021-03-11T13:33:29Z</time>
      </trkpt>
      <trkpt lat="43.32398" lon="2.71186">
        <ele>95.79</ele>
        <time>2021-03-11T13:33:35Z</time>
      </trkpt>
      <trkpt lat="43.32399" lon="2.71185">
        <ele>95.31</ele>
        <time>2021-03-11T13:33:36Z</time>
      </trkpt>
      <trkpt lat="43.3241" lon="2.71174">
        <ele>96.75</ele>
        <time>2021-03-11T13:33:48Z</time>
      </trkpt>
      <trkpt lat="43.32415" lon="2.71169">
        <ele>97.23</ele>
        <time>2021-03-11T13:33:53Z</time>
      </trkpt>
      <trkpt lat="43.32416" lon="2.71168">
        <ele>97.71</ele>
        <time>2021-03-11T13:33:54Z</time>
      </trkpt>
      <trkpt lat="43.32417" lon="2.71166">
        <ele>97.71</ele>
        <time>2021-03-11T13:33:55Z</time>
      </trkpt>
      <trkpt lat="43.32418" lon="2.71163">
        <ele>98.19</ele>
        <time>2021-03-11T13:33:58Z</time>
      </trkpt>
      <trkpt lat="43.32421" lon="2.71157">
        <ele>98.19</ele>
        <time>2021-03-11T13:34:04Z</time>
      </trkpt>
      <trkpt lat="43.32422" lon="2.71155">
        <ele>98.67</ele>
        <time>2021-03-11T13:34:05Z</time>
      </trkpt>
      <trkpt lat="43.32422" lon="2.71153">
        <ele>98.67</ele>
        <time>2021-03-11T13:34:06Z</time>
      </trkpt>
      <trkpt lat="43.32422" lon="2.71151">
        <ele>98.67</ele>
        <time>2021-03-11T13:34:07Z</time>
      </trkpt>
      <trkpt lat="43.32423" lon="2.71149">
        <ele>98.67</ele>
        <time>2021-03-11T13:34:08Z</time>
      </trkpt>
      <trkpt lat="43.32423" lon="2.71145">
        <ele>98.67</ele>
        <time>2021-03-11T13:34:12Z</time>
      </trkpt>
      <trkpt lat="43.32422" lon="2.71133">
        <ele>98.67</ele>
        <time>2021-03-11T13:34:20Z</time>
      </trkpt>
      <trkpt lat="43.32422" lon="2.71131">
        <ele>98.67</ele>
        <time>2021-03-11T13:34:21Z</time>
      </trkpt>
      <trkpt lat="43.32422" lon="2.71128">
        <ele>98.67</ele>
        <time>2021-03-11T13:34:22Z</time>
      </trkpt>
      <trkpt lat="43.32422" lon="2.71126">
        <ele>98.67</ele>
        <time>2021-03-11T13:34:23Z</time>
      </trkpt>
      <trkpt lat="43.32423" lon="2.71124">
        <ele>98.67</ele>
        <time>2021-03-11T13:34:24Z</time>
      </trkpt>
      <trkpt lat="43.32423" lon="2.71111">
        <ele>98.67</ele>
        <time>2021-03-11T13:34:35Z</time>
      </trkpt>
      <trkpt lat="43.32431" lon="2.71086">
        <ele>98.67</ele>
        <time>2021-03-11T13:34:44Z</time>
      </trkpt>
      <trkpt lat="43.32434" lon="2.71072">
        <ele>98.67</ele>
        <time>2021-03-11T13:34:55Z</time>
      </trkpt>
      <trkpt lat="43.32435" lon="2.71063">
        <ele>98.67</ele>
        <time>2021-03-11T13:35:03Z</time>
      </trkpt>
      <trkpt lat="43.32434" lon="2.71046">
        <ele>99.15</ele>
        <time>2021-03-11T13:35:13Z</time>
      </trkpt>
      <trkpt lat="43.32434" lon="2.71044">
        <ele>99.15</ele>
        <time>2021-03-11T13:35:14Z</time>
      </trkpt>
      <trkpt lat="43.32434" lon="2.71042">
        <ele>99.15</ele>
        <time>2021-03-11T13:35:15Z</time>
      </trkpt>
      <trkpt lat="43.32433" lon="2.7104">
        <ele>99.15</ele>
        <time>2021-03-11T13:35:16Z</time>
      </trkpt>
      <trkpt lat="43.32433" lon="2.7101">
        <ele>99.15</ele>
        <time>2021-03-11T13:35:28Z</time>
      </trkpt>
      <trkpt lat="43.32431" lon="2.71">
        <ele>99.15</ele>
        <time>2021-03-11T13:35:40Z</time>
      </trkpt>
      <trkpt lat="43.3243" lon="2.70998">
        <ele>99.15</ele>
        <time>2021-03-11T13:35:41Z</time>
      </trkpt>
      <trkpt lat="43.32428" lon="2.70985">
        <ele>99.15</ele>
        <time>2021-03-11T13:35:50Z</time>
      </trkpt>
      <trkpt lat="43.32428" lon="2.70982">
        <ele>99.15</ele>
        <time>2021-03-11T13:35:52Z</time>
      </trkpt>
      <trkpt lat="43.32427" lon="2.7098">
        <ele>99.15</ele>
        <time>2021-03-11T13:35:53Z</time>
      </trkpt>
      <trkpt lat="43.32425" lon="2.70961">
        <ele>99.63</ele>
        <time>2021-03-11T13:36:04Z</time>
      </trkpt>
      <trkpt lat="43.32424" lon="2.70954">
        <ele>99.63</ele>
        <time>2021-03-11T13:36:10Z</time>
      </trkpt>
      <trkpt lat="43.32424" lon="2.70952">
        <ele>99.63</ele>
        <time>2021-03-11T13:36:11Z</time>
      </trkpt>
      <trkpt lat="43.32422" lon="2.70935">
        <ele>99.63</ele>
        <time>2021-03-11T13:36:22Z</time>
      </trkpt>
      <trkpt lat="43.32422" lon="2.70933">
        <ele>99.63</ele>
        <time>2021-03-11T13:36:23Z</time>
      </trkpt>
      <trkpt lat="43.32422" lon="2.70931">
        <ele>99.63</ele>
        <time>2021-03-11T13:36:24Z</time>
      </trkpt>
      <trkpt lat="43.32421" lon="2.70928">
        <ele>99.63</ele>
        <time>2021-03-11T13:36:25Z</time>
      </trkpt>
      <trkpt lat="43.3242" lon="2.70925">
        <ele>99.63</ele>
        <time>2021-03-11T13:36:26Z</time>
      </trkpt>
      <trkpt lat="43.3242" lon="2.70923">
        <ele>99.63</ele>
        <time>2021-03-11T13:36:27Z</time>
      </trkpt>
      <trkpt lat="43.32419" lon="2.7092">
        <ele>99.63</ele>
        <time>2021-03-11T13:36:28Z</time>
      </trkpt>
      <trkpt lat="43.32417" lon="2.70907">
        <ele>99.63</ele>
        <time>2021-03-11T13:36:38Z</time>
      </trkpt>
      <trkpt lat="43.32414" lon="2.70897">
        <ele>99.63</ele>
        <time>2021-03-11T13:36:48Z</time>
      </trkpt>
      <trkpt lat="43.32414" lon="2.70894">
        <ele>98.67</ele>
        <time>2021-03-11T13:36:50Z</time>
      </trkpt>
      <trkpt lat="43.32413" lon="2.70891">
        <ele>98.67</ele>
        <time>2021-03-11T13:36:51Z</time>
      </trkpt>
      <trkpt lat="43.32413" lon="2.70887">
        <ele>98.67</ele>
        <time>2021-03-11T13:36:52Z</time>
      </trkpt>
      <trkpt lat="43.32412" lon="2.70884">
        <ele>98.67</ele>
        <time>2021-03-11T13:36:53Z</time>
      </trkpt>
      <trkpt lat="43.32412" lon="2.70881">
        <ele>98.67</ele>
        <time>2021-03-11T13:36:54Z</time>
      </trkpt>
      <trkpt lat="43.32411" lon="2.70879">
        <ele>98.67</ele>
        <time>2021-03-11T13:36:55Z</time>
      </trkpt>
      <trkpt lat="43.32411" lon="2.70876">
        <ele>98.67</ele>
        <time>2021-03-11T13:36:56Z</time>
      </trkpt>
      <trkpt lat="43.32411" lon="2.70874">
        <ele>98.19</ele>
        <time>2021-03-11T13:36:57Z</time>
      </trkpt>
      <trkpt lat="43.32411" lon="2.70854">
        <ele>98.19</ele>
        <time>2021-03-11T13:37:10Z</time>
      </trkpt>
      <trkpt lat="43.32412" lon="2.70833">
        <ele>97.71</ele>
        <time>2021-03-11T13:37:21Z</time>
      </trkpt>
      <trkpt lat="43.32412" lon="2.70831">
        <ele>97.71</ele>
        <time>2021-03-11T13:37:23Z</time>
      </trkpt>
      <trkpt lat="43.32411" lon="2.70829">
        <ele>97.71</ele>
        <time>2021-03-11T13:37:24Z</time>
      </trkpt>
      <trkpt lat="43.32411" lon="2.70827">
        <ele>97.71</ele>
        <time>2021-03-11T13:37:25Z</time>
      </trkpt>
      <trkpt lat="43.32411" lon="2.70825">
        <ele>97.71</ele>
        <time>2021-03-11T13:37:26Z</time>
      </trkpt>
      <trkpt lat="43.32411" lon="2.70823">
        <ele>97.71</ele>
        <time>2021-03-11T13:37:27Z</time>
      </trkpt>
      <trkpt lat="43.3241" lon="2.70806">
        <ele>97.71</ele>
        <time>2021-03-11T13:37:36Z</time>
      </trkpt>
      <trkpt lat="43.3241" lon="2.70805">
        <ele>97.71</ele>
        <time>2021-03-11T13:37:37Z</time>
      </trkpt>
      <trkpt lat="43.3241" lon="2.70802">
        <ele>97.71</ele>
        <time>2021-03-11T13:37:39Z</time>
      </trkpt>
      <trkpt lat="43.3241" lon="2.708">
        <ele>97.71</ele>
        <time>2021-03-11T13:37:40Z</time>
      </trkpt>
      <trkpt lat="43.3241" lon="2.70798">
        <ele>97.71</ele>
        <time>2021-03-11T13:37:41Z</time>
      </trkpt>
      <trkpt lat="43.3241" lon="2.70796">
        <ele>97.71</ele>
        <time>2021-03-11T13:37:42Z</time>
      </trkpt>
      <trkpt lat="43.3241" lon="2.70793">
        <ele>97.71</ele>
        <time>2021-03-11T13:37:43Z</time>
      </trkpt>
      <trkpt lat="43.3241" lon="2.7079">
        <ele>97.23</ele>
        <time>2021-03-11T13:37:44Z</time>
      </trkpt>
      <trkpt lat="43.32411" lon="2.70787">
        <ele>97.23</ele>
        <time>2021-03-11T13:37:45Z</time>
      </trkpt>
      <trkpt lat="43.32411" lon="2.70785">
        <ele>97.23</ele>
        <time>2021-03-11T13:37:46Z</time>
      </trkpt>
      <trkpt lat="43.32411" lon="2.70783">
        <ele>97.23</ele>
        <time>2021-03-11T13:37:47Z</time>
      </trkpt>
      <trkpt lat="43.32411" lon="2.70781">
        <ele>97.23</ele>
        <time>2021-03-11T13:37:48Z</time>
      </trkpt>
      <trkpt lat="43.32415" lon="2.70768">
        <ele>96.75</ele>
        <time>2021-03-11T13:37:58Z</time>
      </trkpt>
      <trkpt lat="43.32423" lon="2.70753">
        <ele>96.27</ele>
        <time>2021-03-11T13:38:09Z</time>
      </trkpt>
      <trkpt lat="43.32423" lon="2.70751">
        <ele>96.27</ele>
        <time>2021-03-11T13:38:11Z</time>
      </trkpt>
      <trkpt lat="43.32424" lon="2.70749">
        <ele>95.79</ele>
        <time>2021-03-11T13:38:12Z</time>
      </trkpt>
      <trkpt lat="43.32425" lon="2.70747">
        <ele>95.79</ele>
        <time>2021-03-11T13:38:13Z</time>
      </trkpt>
      <trkpt lat="43.32426" lon="2.70745">
        <ele>95.79</ele>
        <time>2021-03-11T13:38:14Z</time>
      </trkpt>
      <trkpt lat="43.32427" lon="2.70743">
        <ele>95.79</ele>
        <time>2021-03-11T13:38:15Z</time>
      </trkpt>
      <trkpt lat="43.32429" lon="2.7074">
        <ele>95.79</ele>
        <time>2021-03-11T13:38:16Z</time>
      </trkpt>
      <trkpt lat="43.32431" lon="2.70739">
        <ele>95.79</ele>
        <time>2021-03-11T13:38:17Z</time>
      </trkpt>
      <trkpt lat="43.32432" lon="2.70737">
        <ele>95.79</ele>
        <time>2021-03-11T13:38:18Z</time>
      </trkpt>
      <trkpt lat="43.32434" lon="2.70735">
        <ele>95.79</ele>
        <time>2021-03-11T13:38:19Z</time>
      </trkpt>
      <trkpt lat="43.32437" lon="2.70728">
        <ele>95.79</ele>
        <time>2021-03-11T13:38:28Z</time>
      </trkpt>
      <trkpt lat="43.32438" lon="2.70726">
        <ele>95.79</ele>
        <time>2021-03-11T13:38:29Z</time>
      </trkpt>
      <trkpt lat="43.32439" lon="2.70725">
        <ele>95.79</ele>
        <time>2021-03-11T13:38:30Z</time>
      </trkpt>
      <trkpt lat="43.32441" lon="2.70724">
        <ele>95.79</ele>
        <time>2021-03-11T13:38:31Z</time>
      </trkpt>
      <trkpt lat="43.32442" lon="2.70722">
        <ele>95.79</ele>
        <time>2021-03-11T13:38:32Z</time>
      </trkpt>
      <trkpt lat="43.32449" lon="2.70714">
        <ele>95.79</ele>
        <time>2021-03-11T13:38:40Z</time>
      </trkpt>
      <trkpt lat="43.32451" lon="2.70712">
        <ele>95.79</ele>
        <time>2021-03-11T13:38:42Z</time>
      </trkpt>
      <trkpt lat="43.32452" lon="2.7071">
        <ele>95.79</ele>
        <time>2021-03-11T13:38:43Z</time>
      </trkpt>
      <trkpt lat="43.32458" lon="2.70698">
        <ele>95.79</ele>
        <time>2021-03-11T13:38:52Z</time>
      </trkpt>
      <trkpt lat="43.32459" lon="2.70696">
        <ele>95.79</ele>
        <time>2021-03-11T13:38:53Z</time>
      </trkpt>
      <trkpt lat="43.32463" lon="2.70675">
        <ele>96.75</ele>
        <time>2021-03-11T13:39:04Z</time>
      </trkpt>
      <trkpt lat="43.32463" lon="2.70673">
        <ele>96.75</ele>
        <time>2021-03-11T13:39:07Z</time>
      </trkpt>
      <trkpt lat="43.32463" lon="2.7067">
        <ele>96.75</ele>
        <time>2021-03-11T13:39:08Z</time>
      </trkpt>
      <trkpt lat="43.32464" lon="2.70668">
        <ele>96.75</ele>
        <time>2021-03-11T13:39:09Z</time>
      </trkpt>
      <trkpt lat="43.32464" lon="2.70666">
        <ele>96.75</ele>
        <time>2021-03-11T13:39:10Z</time>
      </trkpt>
      <trkpt lat="43.32465" lon="2.70664">
        <ele>96.75</ele>
        <time>2021-03-11T13:39:11Z</time>
      </trkpt>
      <trkpt lat="43.32466" lon="2.70662">
        <ele>97.23</ele>
        <time>2021-03-11T13:39:12Z</time>
      </trkpt>
      <trkpt lat="43.32468" lon="2.7065">
        <ele>97.23</ele>
        <time>2021-03-11T13:39:20Z</time>
      </trkpt>
      <trkpt lat="43.32469" lon="2.70649">
        <ele>97.23</ele>
        <time>2021-03-11T13:39:21Z</time>
      </trkpt>
      <trkpt lat="43.32471" lon="2.70633">
        <ele>97.71</ele>
        <time>2021-03-11T13:39:32Z</time>
      </trkpt>
      <trkpt lat="43.32471" lon="2.7063">
        <ele>97.71</ele>
        <time>2021-03-11T13:39:34Z</time>
      </trkpt>
      <trkpt lat="43.32471" lon="2.70628">
        <ele>97.71</ele>
        <time>2021-03-11T13:39:35Z</time>
      </trkpt>
      <trkpt lat="43.32471" lon="2.70625">
        <ele>97.71</ele>
        <time>2021-03-11T13:39:36Z</time>
      </trkpt>
      <trkpt lat="43.32472" lon="2.70622">
        <ele>98.19</ele>
        <time>2021-03-11T13:39:37Z</time>
      </trkpt>
      <trkpt lat="43.32472" lon="2.70619">
        <ele>98.19</ele>
        <time>2021-03-11T13:39:38Z</time>
      </trkpt>
      <trkpt lat="43.32472" lon="2.70618">
        <ele>98.19</ele>
        <time>2021-03-11T13:39:39Z</time>
      </trkpt>
      <trkpt lat="43.32472" lon="2.70614">
        <ele>98.67</ele>
        <time>2021-03-11T13:39:42Z</time>
      </trkpt>
      <trkpt lat="43.3247" lon="2.70607">
        <ele>98.67</ele>
        <time>2021-03-11T13:39:47Z</time>
      </trkpt>
      <trkpt lat="43.32469" lon="2.70592">
        <ele>100.11</ele>
        <time>2021-03-11T13:39:57Z</time>
      </trkpt>
      <trkpt lat="43.32468" lon="2.7059">
        <ele>100.11</ele>
        <time>2021-03-11T13:39:58Z</time>
      </trkpt>
      <trkpt lat="43.32468" lon="2.70587">
        <ele>100.11</ele>
        <time>2021-03-11T13:39:59Z</time>
      </trkpt>
      <trkpt lat="43.32465" lon="2.7058">
        <ele>101.08</ele>
        <time>2021-03-11T13:40:05Z</time>
      </trkpt>
      <trkpt lat="43.32465" lon="2.70578">
        <ele>101.08</ele>
        <time>2021-03-11T13:40:06Z</time>
      </trkpt>
      <trkpt lat="43.32464" lon="2.70576">
        <ele>101.08</ele>
        <time>2021-03-11T13:40:07Z</time>
      </trkpt>
      <trkpt lat="43.32462" lon="2.70568">
        <ele>102.04</ele>
        <time>2021-03-11T13:40:13Z</time>
      </trkpt>
      <trkpt lat="43.32461" lon="2.70566">
        <ele>102.04</ele>
        <time>2021-03-11T13:40:14Z</time>
      </trkpt>
      <trkpt lat="43.32459" lon="2.70556">
        <ele>102.52</ele>
        <time>2021-03-11T13:40:21Z</time>
      </trkpt>
      <trkpt lat="43.32458" lon="2.70553">
        <ele>102.52</ele>
        <time>2021-03-11T13:40:22Z</time>
      </trkpt>
      <trkpt lat="43.32459" lon="2.70551">
        <ele>103</ele>
        <time>2021-03-11T13:40:23Z</time>
      </trkpt>
      <trkpt lat="43.3246" lon="2.70541">
        <ele>103</ele>
        <time>2021-03-11T13:40:32Z</time>
      </trkpt>
      <trkpt lat="43.32464" lon="2.70522">
        <ele>103.48</ele>
        <time>2021-03-11T13:40:42Z</time>
      </trkpt>
      <trkpt lat="43.32465" lon="2.7052">
        <ele>103.48</ele>
        <time>2021-03-11T13:40:43Z</time>
      </trkpt>
      <trkpt lat="43.32466" lon="2.70518">
        <ele>103.48</ele>
        <time>2021-03-11T13:40:44Z</time>
      </trkpt>
      <trkpt lat="43.32471" lon="2.70502">
        <ele>103.48</ele>
        <time>2021-03-11T13:40:55Z</time>
      </trkpt>
      <trkpt lat="43.32473" lon="2.70496">
        <ele>103.48</ele>
        <time>2021-03-11T13:40:58Z</time>
      </trkpt>
      <trkpt lat="43.32474" lon="2.70494">
        <ele>103.48</ele>
        <time>2021-03-11T13:40:59Z</time>
      </trkpt>
      <trkpt lat="43.32476" lon="2.70489">
        <ele>103.48</ele>
        <time>2021-03-11T13:41:05Z</time>
      </trkpt>
      <trkpt lat="43.32477" lon="2.70487">
        <ele>103.48</ele>
        <time>2021-03-11T13:41:06Z</time>
      </trkpt>
      <trkpt lat="43.32478" lon="2.70484">
        <ele>103.48</ele>
        <time>2021-03-11T13:41:07Z</time>
      </trkpt>
      <trkpt lat="43.32479" lon="2.70482">
        <ele>103.48</ele>
        <time>2021-03-11T13:41:08Z</time>
      </trkpt>
      <trkpt lat="43.32479" lon="2.70479">
        <ele>103.48</ele>
        <time>2021-03-11T13:41:09Z</time>
      </trkpt>
      <trkpt lat="43.3248" lon="2.70477">
        <ele>103.48</ele>
        <time>2021-03-11T13:41:10Z</time>
      </trkpt>
      <trkpt lat="43.32481" lon="2.70475">
        <ele>103.48</ele>
        <time>2021-03-11T13:41:11Z</time>
      </trkpt>
      <trkpt lat="43.32482" lon="2.70473">
        <ele>103.48</ele>
        <time>2021-03-11T13:41:12Z</time>
      </trkpt>
      <trkpt lat="43.32482" lon="2.70471">
        <ele>103.48</ele>
        <time>2021-03-11T13:41:13Z</time>
      </trkpt>
      <trkpt lat="43.32482" lon="2.70469">
        <ele>103.48</ele>
        <time>2021-03-11T13:41:14Z</time>
      </trkpt>
      <trkpt lat="43.32485" lon="2.7045">
        <ele>103.48</ele>
        <time>2021-03-11T13:41:27Z</time>
      </trkpt>
      <trkpt lat="43.32487" lon="2.70431">
        <ele>103.96</ele>
        <time>2021-03-11T13:41:39Z</time>
      </trkpt>
      <trkpt lat="43.32488" lon="2.7041">
        <ele>103.96</ele>
        <time>2021-03-11T13:41:50Z</time>
      </trkpt>
      <trkpt lat="43.32488" lon="2.70405">
        <ele>103.96</ele>
        <time>2021-03-11T13:41:53Z</time>
      </trkpt>
      <trkpt lat="43.32488" lon="2.70403">
        <ele>103.96</ele>
        <time>2021-03-11T13:41:54Z</time>
      </trkpt>
      <trkpt lat="43.32488" lon="2.70401">
        <ele>103.96</ele>
        <time>2021-03-11T13:41:55Z</time>
      </trkpt>
      <trkpt lat="43.32489" lon="2.70399">
        <ele>103.96</ele>
        <time>2021-03-11T13:41:56Z</time>
      </trkpt>
      <trkpt lat="43.32489" lon="2.70397">
        <ele>103.96</ele>
        <time>2021-03-11T13:41:57Z</time>
      </trkpt>
      <trkpt lat="43.32489" lon="2.70393">
        <ele>103.96</ele>
        <time>2021-03-11T13:42:00Z</time>
      </trkpt>
      <trkpt lat="43.32489" lon="2.70392">
        <ele>103.96</ele>
        <time>2021-03-11T13:42:01Z</time>
      </trkpt>
      <trkpt lat="43.32491" lon="2.70374">
        <ele>104.44</ele>
        <time>2021-03-11T13:42:12Z</time>
      </trkpt>
      <trkpt lat="43.32495" lon="2.70357">
        <ele>104.44</ele>
        <time>2021-03-11T13:42:23Z</time>
      </trkpt>
      <trkpt lat="43.32495" lon="2.70354">
        <ele>104.44</ele>
        <time>2021-03-11T13:42:24Z</time>
      </trkpt>
      <trkpt lat="43.32496" lon="2.70352">
        <ele>104.44</ele>
        <time>2021-03-11T13:42:25Z</time>
      </trkpt>
      <trkpt lat="43.32497" lon="2.7035">
        <ele>104.44</ele>
        <time>2021-03-11T13:42:26Z</time>
      </trkpt>
      <trkpt lat="43.32498" lon="2.70347">
        <ele>104.44</ele>
        <time>2021-03-11T13:42:27Z</time>
      </trkpt>
      <trkpt lat="43.32503" lon="2.70333">
        <ele>104.92</ele>
        <time>2021-03-11T13:42:38Z</time>
      </trkpt>
      <trkpt lat="43.32508" lon="2.70319">
        <ele>105.4</ele>
        <time>2021-03-11T13:42:48Z</time>
      </trkpt>
      <trkpt lat="43.32513" lon="2.70304">
        <ele>105.88</ele>
        <time>2021-03-11T13:42:54Z</time>
      </trkpt>
      <trkpt lat="43.32513" lon="2.70302">
        <ele>105.88</ele>
        <time>2021-03-11T13:42:55Z</time>
      </trkpt>
      <trkpt lat="43.32513" lon="2.70292">
        <ele>105.88</ele>
        <time>2021-03-11T13:43:05Z</time>
      </trkpt>
      <trkpt lat="43.32513" lon="2.70269">
        <ele>105.88</ele>
        <time>2021-03-11T13:43:16Z</time>
      </trkpt>
      <trkpt lat="43.32511" lon="2.70257">
        <ele>106.36</ele>
        <time>2021-03-11T13:43:24Z</time>
      </trkpt>
      <trkpt lat="43.32512" lon="2.70255">
        <ele>106.36</ele>
        <time>2021-03-11T13:43:25Z</time>
      </trkpt>
      <trkpt lat="43.32513" lon="2.70254">
        <ele>106.36</ele>
        <time>2021-03-11T13:43:26Z</time>
      </trkpt>
      <trkpt lat="43.32513" lon="2.70253">
        <ele>106.36</ele>
        <time>2021-03-11T13:43:27Z</time>
      </trkpt>
      <trkpt lat="43.32514" lon="2.70252">
        <ele>106.36</ele>
        <time>2021-03-11T13:43:28Z</time>
      </trkpt>
      <trkpt lat="43.32516" lon="2.70251">
        <ele>106.36</ele>
        <time>2021-03-11T13:43:29Z</time>
      </trkpt>
      <trkpt lat="43.32517" lon="2.70251">
        <ele>106.36</ele>
        <time>2021-03-11T13:43:30Z</time>
      </trkpt>
      <trkpt lat="43.32525" lon="2.7025">
        <ele>106.36</ele>
        <time>2021-03-11T13:43:40Z</time>
      </trkpt>
      <trkpt lat="43.32526" lon="2.7025">
        <ele>106.36</ele>
        <time>2021-03-11T13:43:45Z</time>
      </trkpt>
      <trkpt lat="43.32529" lon="2.7025">
        <ele>107.32</ele>
        <time>2021-03-11T13:43:49Z</time>
      </trkpt>
      <trkpt lat="43.32541" lon="2.70249">
        <ele>107.32</ele>
        <time>2021-03-11T13:43:58Z</time>
      </trkpt>
      <trkpt lat="43.32543" lon="2.70249">
        <ele>107.32</ele>
        <time>2021-03-11T13:44:00Z</time>
      </trkpt>
      <trkpt lat="43.32544" lon="2.70249">
        <ele>107.32</ele>
        <time>2021-03-11T13:44:01Z</time>
      </trkpt>
      <trkpt lat="43.32546" lon="2.70248">
        <ele>107.32</ele>
        <time>2021-03-11T13:44:02Z</time>
      </trkpt>
      <trkpt lat="43.32549" lon="2.70248">
        <ele>107.32</ele>
        <time>2021-03-11T13:44:03Z</time>
      </trkpt>
      <trkpt lat="43.32551" lon="2.70248">
        <ele>107.32</ele>
        <time>2021-03-11T13:44:04Z</time>
      </trkpt>
      <trkpt lat="43.32553" lon="2.70249">
        <ele>107.32</ele>
        <time>2021-03-11T13:44:05Z</time>
      </trkpt>
      <trkpt lat="43.32554" lon="2.70249">
        <ele>107.32</ele>
        <time>2021-03-11T13:44:06Z</time>
      </trkpt>
      <trkpt lat="43.32555" lon="2.70249">
        <ele>107.32</ele>
        <time>2021-03-11T13:44:07Z</time>
      </trkpt>
      <trkpt lat="43.32561" lon="2.70249">
        <ele>107.32</ele>
        <time>2021-03-11T13:44:15Z</time>
      </trkpt>
      <trkpt lat="43.32563" lon="2.70249">
        <ele>107.32</ele>
        <time>2021-03-11T13:44:16Z</time>
      </trkpt>
      <trkpt lat="43.32565" lon="2.7025">
        <ele>107.32</ele>
        <time>2021-03-11T13:44:17Z</time>
      </trkpt>
      <trkpt lat="43.32566" lon="2.70251">
        <ele>107.32</ele>
        <time>2021-03-11T13:44:18Z</time>
      </trkpt>
      <trkpt lat="43.32568" lon="2.70252">
        <ele>107.32</ele>
        <time>2021-03-11T13:44:19Z</time>
      </trkpt>
      <trkpt lat="43.32573" lon="2.70253">
        <ele>107.81</ele>
        <time>2021-03-11T13:44:25Z</time>
      </trkpt>
      <trkpt lat="43.32574" lon="2.70254">
        <ele>107.81</ele>
        <time>2021-03-11T13:44:26Z</time>
      </trkpt>
      <trkpt lat="43.32576" lon="2.70256">
        <ele>107.81</ele>
        <time>2021-03-11T13:44:27Z</time>
      </trkpt>
      <trkpt lat="43.32578" lon="2.70258">
        <ele>107.81</ele>
        <time>2021-03-11T13:44:28Z</time>
      </trkpt>
      <trkpt lat="43.32579" lon="2.70259">
        <ele>107.81</ele>
        <time>2021-03-11T13:44:29Z</time>
      </trkpt>
      <trkpt lat="43.32584" lon="2.70264">
        <ele>107.81</ele>
        <time>2021-03-11T13:44:34Z</time>
      </trkpt>
      <trkpt lat="43.32585" lon="2.70263">
        <ele>108.77</ele>
        <time>2021-03-11T13:44:35Z</time>
      </trkpt>
      <trkpt lat="43.32587" lon="2.70264">
        <ele>108.77</ele>
        <time>2021-03-11T13:44:37Z</time>
      </trkpt>
      <trkpt lat="43.32588" lon="2.70265">
        <ele>108.77</ele>
        <time>2021-03-11T13:44:38Z</time>
      </trkpt>
      <trkpt lat="43.32597" lon="2.70271">
        <ele>108.77</ele>
        <time>2021-03-11T13:44:47Z</time>
      </trkpt>
      <trkpt lat="43.32598" lon="2.70272">
        <ele>108.77</ele>
        <time>2021-03-11T13:44:48Z</time>
      </trkpt>
      <trkpt lat="43.32599" lon="2.70273">
        <ele>108.77</ele>
        <time>2021-03-11T13:44:49Z</time>
      </trkpt>
      <trkpt lat="43.32611" lon="2.70284">
        <ele>109.73</ele>
        <time>2021-03-11T13:45:01Z</time>
      </trkpt>
      <trkpt lat="43.32622" lon="2.70293">
        <ele>109.73</ele>
        <time>2021-03-11T13:45:12Z</time>
      </trkpt>
      <trkpt lat="43.32628" lon="2.70298">
        <ele>110.21</ele>
        <time>2021-03-11T13:45:22Z</time>
      </trkpt>
      <trkpt lat="43.32631" lon="2.70299">
        <ele>110.21</ele>
        <time>2021-03-11T13:45:33Z</time>
      </trkpt>
      <trkpt lat="43.32629" lon="2.70301">
        <ele>110.21</ele>
        <time>2021-03-11T13:45:57Z</time>
      </trkpt>
      <trkpt lat="43.32631" lon="2.70293">
        <ele>108.77</ele>
        <time>2021-03-11T13:46:22Z</time>
      </trkpt>
      <trkpt lat="43.32631" lon="2.70293">
        <ele>110.21</ele>
        <time>2021-03-11T13:46:25Z</time>
      </trkpt>
      <trkpt lat="43.32634" lon="2.70296">
        <ele>110.69</ele>
        <time>2021-03-11T13:46:58Z</time>
      </trkpt>
      <trkpt lat="43.32645" lon="2.70302">
        <ele>111.65</ele>
        <time>2021-03-11T13:47:11Z</time>
      </trkpt>
      <trkpt lat="43.32659" lon="2.703">
        <ele>111.65</ele>
        <time>2021-03-11T13:47:22Z</time>
      </trkpt>
      <trkpt lat="43.32662" lon="2.703">
        <ele>111.65</ele>
        <time>2021-03-11T13:47:25Z</time>
      </trkpt>
      <trkpt lat="43.32665" lon="2.70299">
        <ele>111.65</ele>
        <time>2021-03-11T13:47:27Z</time>
      </trkpt>
      <trkpt lat="43.32668" lon="2.70299">
        <ele>111.65</ele>
        <time>2021-03-11T13:47:28Z</time>
      </trkpt>
      <trkpt lat="43.3267" lon="2.70299">
        <ele>112.61</ele>
        <time>2021-03-11T13:47:29Z</time>
      </trkpt>
      <trkpt lat="43.32674" lon="2.70301">
        <ele>112.61</ele>
        <time>2021-03-11T13:47:38Z</time>
      </trkpt>
      <trkpt lat="43.32676" lon="2.70301">
        <ele>112.61</ele>
        <time>2021-03-11T13:47:40Z</time>
      </trkpt>
      <trkpt lat="43.32678" lon="2.70301">
        <ele>113.09</ele>
        <time>2021-03-11T13:47:41Z</time>
      </trkpt>
      <trkpt lat="43.32695" lon="2.70299">
        <ele>114.05</ele>
        <time>2021-03-11T13:47:55Z</time>
      </trkpt>
      <trkpt lat="43.32706" lon="2.70298">
        <ele>113.09</ele>
        <time>2021-03-11T13:48:06Z</time>
      </trkpt>
      <trkpt lat="43.32708" lon="2.70298">
        <ele>113.09</ele>
        <time>2021-03-11T13:48:07Z</time>
      </trkpt>
      <trkpt lat="43.3272" lon="2.70298">
        <ele>113.09</ele>
        <time>2021-03-11T13:48:17Z</time>
      </trkpt>
      <trkpt lat="43.32732" lon="2.70288">
        <ele>114.53</ele>
        <time>2021-03-11T13:48:28Z</time>
      </trkpt>
      <trkpt lat="43.32732" lon="2.70285">
        <ele>114.53</ele>
        <time>2021-03-11T13:48:30Z</time>
      </trkpt>
      <trkpt lat="43.32732" lon="2.70283">
        <ele>114.53</ele>
        <time>2021-03-11T13:48:31Z</time>
      </trkpt>
      <trkpt lat="43.32733" lon="2.7028">
        <ele>114.53</ele>
        <time>2021-03-11T13:48:32Z</time>
      </trkpt>
      <trkpt lat="43.32732" lon="2.70264">
        <ele>114.53</ele>
        <time>2021-03-11T13:48:43Z</time>
      </trkpt>
      <trkpt lat="43.32733" lon="2.70249">
        <ele>114.53</ele>
        <time>2021-03-11T13:48:52Z</time>
      </trkpt>
      <trkpt lat="43.32733" lon="2.70248">
        <ele>114.53</ele>
        <time>2021-03-11T13:48:53Z</time>
      </trkpt>
      <trkpt lat="43.32733" lon="2.70246">
        <ele>114.53</ele>
        <time>2021-03-11T13:48:54Z</time>
      </trkpt>
      <trkpt lat="43.32733" lon="2.70244">
        <ele>114.53</ele>
        <time>2021-03-11T13:48:55Z</time>
      </trkpt>
      <trkpt lat="43.32733" lon="2.70242">
        <ele>114.53</ele>
        <time>2021-03-11T13:48:56Z</time>
      </trkpt>
      <trkpt lat="43.32733" lon="2.70232">
        <ele>115.01</ele>
        <time>2021-03-11T13:49:01Z</time>
      </trkpt>
      <trkpt lat="43.32733" lon="2.70229">
        <ele>115.01</ele>
        <time>2021-03-11T13:49:02Z</time>
      </trkpt>
      <trkpt lat="43.32736" lon="2.70204">
        <ele>115.5</ele>
        <time>2021-03-11T13:49:17Z</time>
      </trkpt>
      <trkpt lat="43.32742" lon="2.7018">
        <ele>116.94</ele>
        <time>2021-03-11T13:49:33Z</time>
      </trkpt>
      <trkpt lat="43.32748" lon="2.70159">
        <ele>117.42</ele>
        <time>2021-03-11T13:49:45Z</time>
      </trkpt>
      <trkpt lat="43.32757" lon="2.70135">
        <ele>117.42</ele>
        <time>2021-03-11T13:49:58Z</time>
      </trkpt>
      <trkpt lat="43.3276" lon="2.70127">
        <ele>117.42</ele>
        <time>2021-03-11T13:50:07Z</time>
      </trkpt>
      <trkpt lat="43.32761" lon="2.70125">
        <ele>117.42</ele>
        <time>2021-03-11T13:50:08Z</time>
      </trkpt>
      <trkpt lat="43.32769" lon="2.70099">
        <ele>117.42</ele>
        <time>2021-03-11T13:50:22Z</time>
      </trkpt>
      <trkpt lat="43.32771" lon="2.7008">
        <ele>117.42</ele>
        <time>2021-03-11T13:50:33Z</time>
      </trkpt>
      <trkpt lat="43.32771" lon="2.70075">
        <ele>117.42</ele>
        <time>2021-03-11T13:50:39Z</time>
      </trkpt>
      <trkpt lat="43.32771" lon="2.70072">
        <ele>117.42</ele>
        <time>2021-03-11T13:50:40Z</time>
      </trkpt>
      <trkpt lat="43.32772" lon="2.70048">
        <ele>117.42</ele>
        <time>2021-03-11T13:50:53Z</time>
      </trkpt>
      <trkpt lat="43.32773" lon="2.70025">
        <ele>117.42</ele>
        <time>2021-03-11T13:51:03Z</time>
      </trkpt>
      <trkpt lat="43.32773" lon="2.70008">
        <ele>117.42</ele>
        <time>2021-03-11T13:51:16Z</time>
      </trkpt>
      <trkpt lat="43.32772" lon="2.69983">
        <ele>117.42</ele>
        <time>2021-03-11T13:51:28Z</time>
      </trkpt>
      <trkpt lat="43.32775" lon="2.69961">
        <ele>117.9</ele>
        <time>2021-03-11T13:51:40Z</time>
      </trkpt>
      <trkpt lat="43.32776" lon="2.69945">
        <ele>117.9</ele>
        <time>2021-03-11T13:51:51Z</time>
      </trkpt>
      <trkpt lat="43.32778" lon="2.69923">
        <ele>117.9</ele>
        <time>2021-03-11T13:52:05Z</time>
      </trkpt>
      <trkpt lat="43.32782" lon="2.69898">
        <ele>117.9</ele>
        <time>2021-03-11T13:52:18Z</time>
      </trkpt>
      <trkpt lat="43.32784" lon="2.69876">
        <ele>117.9</ele>
        <time>2021-03-11T13:52:28Z</time>
      </trkpt>
      <trkpt lat="43.32788" lon="2.69845">
        <ele>117.9</ele>
        <time>2021-03-11T13:52:46Z</time>
      </trkpt>
      <trkpt lat="43.32793" lon="2.6982">
        <ele>117.9</ele>
        <time>2021-03-11T13:52:59Z</time>
      </trkpt>
      <trkpt lat="43.32794" lon="2.69815">
        <ele>118.38</ele>
        <time>2021-03-11T13:53:05Z</time>
      </trkpt>
      <trkpt lat="43.32794" lon="2.69813">
        <ele>118.38</ele>
        <time>2021-03-11T13:53:06Z</time>
      </trkpt>
      <trkpt lat="43.32794" lon="2.69812">
        <ele>118.38</ele>
        <time>2021-03-11T13:53:07Z</time>
      </trkpt>
      <trkpt lat="43.32795" lon="2.6981">
        <ele>118.38</ele>
        <time>2021-03-11T13:53:08Z</time>
      </trkpt>
      <trkpt lat="43.32795" lon="2.69808">
        <ele>118.38</ele>
        <time>2021-03-11T13:53:09Z</time>
      </trkpt>
      <trkpt lat="43.32795" lon="2.69805">
        <ele>118.38</ele>
        <time>2021-03-11T13:53:10Z</time>
      </trkpt>
      <trkpt lat="43.32797" lon="2.69782">
        <ele>117.9</ele>
        <time>2021-03-11T13:53:24Z</time>
      </trkpt>
      <trkpt lat="43.32796" lon="2.69778">
        <ele>117.9</ele>
        <time>2021-03-11T13:53:27Z</time>
      </trkpt>
      <trkpt lat="43.32796" lon="2.69777">
        <ele>117.9</ele>
        <time>2021-03-11T13:53:28Z</time>
      </trkpt>
      <trkpt lat="43.32786" lon="2.69758">
        <ele>118.38</ele>
        <time>2021-03-11T13:53:41Z</time>
      </trkpt>
      <trkpt lat="43.32786" lon="2.69754">
        <ele>118.38</ele>
        <time>2021-03-11T13:53:44Z</time>
      </trkpt>
      <trkpt lat="43.32791" lon="2.69732">
        <ele>118.86</ele>
        <time>2021-03-11T13:53:56Z</time>
      </trkpt>
      <trkpt lat="43.32799" lon="2.6971">
        <ele>120.3</ele>
        <time>2021-03-11T13:54:10Z</time>
      </trkpt>
      <trkpt lat="43.32806" lon="2.69688">
        <ele>120.3</ele>
        <time>2021-03-11T13:54:20Z</time>
      </trkpt>
      <trkpt lat="43.32809" lon="2.69672">
        <ele>120.3</ele>
        <time>2021-03-11T13:54:31Z</time>
      </trkpt>
      <trkpt lat="43.3281" lon="2.69656">
        <ele>120.78</ele>
        <time>2021-03-11T13:54:42Z</time>
      </trkpt>
      <trkpt lat="43.32811" lon="2.69654">
        <ele>120.78</ele>
        <time>2021-03-11T13:54:43Z</time>
      </trkpt>
      <trkpt lat="43.32811" lon="2.69653">
        <ele>121.26</ele>
        <time>2021-03-11T13:54:44Z</time>
      </trkpt>
      <trkpt lat="43.32811" lon="2.69651">
        <ele>121.26</ele>
        <time>2021-03-11T13:54:45Z</time>
      </trkpt>
      <trkpt lat="43.32811" lon="2.69648">
        <ele>121.26</ele>
        <time>2021-03-11T13:54:46Z</time>
      </trkpt>
      <trkpt lat="43.3281" lon="2.69629">
        <ele>121.74</ele>
        <time>2021-03-11T13:54:58Z</time>
      </trkpt>
      <trkpt lat="43.32811" lon="2.69606">
        <ele>121.26</ele>
        <time>2021-03-11T13:55:09Z</time>
      </trkpt>
      <trkpt lat="43.32811" lon="2.69601">
        <ele>121.26</ele>
        <time>2021-03-11T13:55:15Z</time>
      </trkpt>
      <trkpt lat="43.32811" lon="2.69599">
        <ele>121.26</ele>
        <time>2021-03-11T13:55:16Z</time>
      </trkpt>
      <trkpt lat="43.32811" lon="2.69592">
        <ele>121.26</ele>
        <time>2021-03-11T13:55:19Z</time>
      </trkpt>
      <trkpt lat="43.3281" lon="2.6959">
        <ele>121.26</ele>
        <time>2021-03-11T13:55:20Z</time>
      </trkpt>
      <trkpt lat="43.32809" lon="2.69587">
        <ele>121.26</ele>
        <time>2021-03-11T13:55:21Z</time>
      </trkpt>
      <trkpt lat="43.32807" lon="2.69585">
        <ele>121.26</ele>
        <time>2021-03-11T13:55:22Z</time>
      </trkpt>
      <trkpt lat="43.32806" lon="2.69584">
        <ele>121.26</ele>
        <time>2021-03-11T13:55:23Z</time>
      </trkpt>
      <trkpt lat="43.32803" lon="2.69582">
        <ele>121.26</ele>
        <time>2021-03-11T13:55:25Z</time>
      </trkpt>
      <trkpt lat="43.32793" lon="2.69581">
        <ele>121.26</ele>
        <time>2021-03-11T13:55:36Z</time>
      </trkpt>
      <trkpt lat="43.32777" lon="2.69579">
        <ele>119.82</ele>
        <time>2021-03-11T13:55:48Z</time>
      </trkpt>
      <trkpt lat="43.32763" lon="2.69577">
        <ele>119.34</ele>
        <time>2021-03-11T13:55:57Z</time>
      </trkpt>
      <trkpt lat="43.32762" lon="2.69577">
        <ele>119.34</ele>
        <time>2021-03-11T13:55:58Z</time>
      </trkpt>
      <trkpt lat="43.3276" lon="2.69576">
        <ele>118.86</ele>
        <time>2021-03-11T13:56:02Z</time>
      </trkpt>
      <trkpt lat="43.32758" lon="2.69576">
        <ele>118.86</ele>
        <time>2021-03-11T13:56:03Z</time>
      </trkpt>
      <trkpt lat="43.32757" lon="2.69576">
        <ele>118.86</ele>
        <time>2021-03-11T13:56:04Z</time>
      </trkpt>
      <trkpt lat="43.32755" lon="2.69576">
        <ele>118.86</ele>
        <time>2021-03-11T13:56:05Z</time>
      </trkpt>
      <trkpt lat="43.32753" lon="2.69576">
        <ele>118.86</ele>
        <time>2021-03-11T13:56:06Z</time>
      </trkpt>
      <trkpt lat="43.32736" lon="2.69574">
        <ele>118.38</ele>
        <time>2021-03-11T13:56:15Z</time>
      </trkpt>
      <trkpt lat="43.32728" lon="2.69573">
        <ele>117.42</ele>
        <time>2021-03-11T13:56:26Z</time>
      </trkpt>
      <trkpt lat="43.32712" lon="2.69571">
        <ele>117.42</ele>
        <time>2021-03-11T13:56:34Z</time>
      </trkpt>
      <trkpt lat="43.32702" lon="2.6957">
        <ele>117.42</ele>
        <time>2021-03-11T13:56:44Z</time>
      </trkpt>
      <trkpt lat="43.32694" lon="2.69568">
        <ele>116.46</ele>
        <time>2021-03-11T13:56:54Z</time>
      </trkpt>
      <trkpt lat="43.32688" lon="2.69563">
        <ele>116.46</ele>
        <time>2021-03-11T13:56:59Z</time>
      </trkpt>
      <trkpt lat="43.32687" lon="2.6956">
        <ele>116.46</ele>
        <time>2021-03-11T13:57:00Z</time>
      </trkpt>
      <trkpt lat="43.32685" lon="2.69558">
        <ele>116.46</ele>
        <time>2021-03-11T13:57:01Z</time>
      </trkpt>
      <trkpt lat="43.32684" lon="2.69557">
        <ele>116.46</ele>
        <time>2021-03-11T13:57:02Z</time>
      </trkpt>
      <trkpt lat="43.32683" lon="2.69555">
        <ele>115.98</ele>
        <time>2021-03-11T13:57:03Z</time>
      </trkpt>
      <trkpt lat="43.32675" lon="2.69537">
        <ele>115.01</ele>
        <time>2021-03-11T13:57:17Z</time>
      </trkpt>
      <trkpt lat="43.32666" lon="2.69514">
        <ele>114.05</ele>
        <time>2021-03-11T13:57:31Z</time>
      </trkpt>
      <trkpt lat="43.32665" lon="2.69511">
        <ele>114.05</ele>
        <time>2021-03-11T13:57:35Z</time>
      </trkpt>
      <trkpt lat="43.32665" lon="2.69509">
        <ele>114.05</ele>
        <time>2021-03-11T13:57:36Z</time>
      </trkpt>
      <trkpt lat="43.32664" lon="2.69507">
        <ele>114.05</ele>
        <time>2021-03-11T13:57:37Z</time>
      </trkpt>
      <trkpt lat="43.32649" lon="2.69481">
        <ele>112.61</ele>
        <time>2021-03-11T13:57:50Z</time>
      </trkpt>
      <trkpt lat="43.32638" lon="2.69473">
        <ele>111.65</ele>
        <time>2021-03-11T13:58:03Z</time>
      </trkpt>
      <trkpt lat="43.32633" lon="2.69468">
        <ele>111.17</ele>
        <time>2021-03-11T13:58:09Z</time>
      </trkpt>
      <trkpt lat="43.32631" lon="2.69465">
        <ele>111.17</ele>
        <time>2021-03-11T13:58:11Z</time>
      </trkpt>
      <trkpt lat="43.32629" lon="2.69464">
        <ele>111.17</ele>
        <time>2021-03-11T13:58:12Z</time>
      </trkpt>
      <trkpt lat="43.32628" lon="2.69463">
        <ele>111.17</ele>
        <time>2021-03-11T13:58:13Z</time>
      </trkpt>
      <trkpt lat="43.32622" lon="2.69453">
        <ele>110.69</ele>
        <time>2021-03-11T13:58:27Z</time>
      </trkpt>
      <trkpt lat="43.32617" lon="2.69446">
        <ele>109.73</ele>
        <time>2021-03-11T13:58:38Z</time>
      </trkpt>
      <trkpt lat="43.3261" lon="2.69433">
        <ele>109.73</ele>
        <time>2021-03-11T13:58:57Z</time>
      </trkpt>
      <trkpt lat="43.32604" lon="2.69428">
        <ele>108.77</ele>
        <time>2021-03-11T13:59:04Z</time>
      </trkpt>
      <trkpt lat="43.32603" lon="2.69427">
        <ele>108.77</ele>
        <time>2021-03-11T13:59:05Z</time>
      </trkpt>
      <trkpt lat="43.32597" lon="2.69427">
        <ele>108.77</ele>
        <time>2021-03-11T13:59:12Z</time>
      </trkpt>
      <trkpt lat="43.32596" lon="2.69427">
        <ele>108.77</ele>
        <time>2021-03-11T13:59:13Z</time>
      </trkpt>
      <trkpt lat="43.32595" lon="2.69428">
        <ele>108.29</ele>
        <time>2021-03-11T13:59:14Z</time>
      </trkpt>
      <trkpt lat="43.32594" lon="2.69428">
        <ele>108.29</ele>
        <time>2021-03-11T13:59:15Z</time>
      </trkpt>
      <trkpt lat="43.32589" lon="2.69433">
        <ele>107.81</ele>
        <time>2021-03-11T13:59:26Z</time>
      </trkpt>
      <trkpt lat="43.32587" lon="2.69436">
        <ele>107.81</ele>
        <time>2021-03-11T13:59:30Z</time>
      </trkpt>
      <trkpt lat="43.32586" lon="2.69438">
        <ele>107.81</ele>
        <time>2021-03-11T13:59:32Z</time>
      </trkpt>
      <trkpt lat="43.32585" lon="2.6944">
        <ele>107.81</ele>
        <time>2021-03-11T13:59:33Z</time>
      </trkpt>
      <trkpt lat="43.32583" lon="2.69441">
        <ele>107.81</ele>
        <time>2021-03-11T13:59:34Z</time>
      </trkpt>
      <trkpt lat="43.32582" lon="2.69442">
        <ele>107.81</ele>
        <time>2021-03-11T13:59:35Z</time>
      </trkpt>
      <trkpt lat="43.32581" lon="2.69443">
        <ele>107.32</ele>
        <time>2021-03-11T13:59:36Z</time>
      </trkpt>
      <trkpt lat="43.32569" lon="2.69459">
        <ele>106.84</ele>
        <time>2021-03-11T13:59:49Z</time>
      </trkpt>
      <trkpt lat="43.32559" lon="2.69474">
        <ele>106.36</ele>
        <time>2021-03-11T14:00:02Z</time>
      </trkpt>
      <trkpt lat="43.32545" lon="2.6949">
        <ele>105.88</ele>
        <time>2021-03-11T14:00:16Z</time>
      </trkpt>
      <trkpt lat="43.32542" lon="2.69493">
        <ele>105.88</ele>
        <time>2021-03-11T14:00:19Z</time>
      </trkpt>
      <trkpt lat="43.3254" lon="2.69494">
        <ele>105.88</ele>
        <time>2021-03-11T14:00:20Z</time>
      </trkpt>
      <trkpt lat="43.32528" lon="2.69493">
        <ele>105.88</ele>
        <time>2021-03-11T14:00:32Z</time>
      </trkpt>
      <trkpt lat="43.32521" lon="2.69493">
        <ele>106.84</ele>
        <time>2021-03-11T14:00:38Z</time>
      </trkpt>
      <trkpt lat="43.32515" lon="2.69488">
        <ele>104.44</ele>
        <time>2021-03-11T14:00:59Z</time>
      </trkpt>
      <trkpt lat="43.32502" lon="2.69479">
        <ele>103</ele>
        <time>2021-03-11T14:01:15Z</time>
      </trkpt>
      <trkpt lat="43.32478" lon="2.69454">
        <ele>100.11</ele>
        <time>2021-03-11T14:01:37Z</time>
      </trkpt>
      <trkpt lat="43.32461" lon="2.69439">
        <ele>99.63</ele>
        <time>2021-03-11T14:01:57Z</time>
      </trkpt>
      <trkpt lat="43.32459" lon="2.69445">
        <ele>99.63</ele>
        <time>2021-03-11T14:02:13Z</time>
      </trkpt>
      <trkpt lat="43.32465" lon="2.69439">
        <ele>100.11</ele>
        <time>2021-03-11T14:02:31Z</time>
      </trkpt>
      <trkpt lat="43.32468" lon="2.69425">
        <ele>101.08</ele>
        <time>2021-03-11T14:02:45Z</time>
      </trkpt>
      <trkpt lat="43.32469" lon="2.6942">
        <ele>101.08</ele>
        <time>2021-03-11T14:02:48Z</time>
      </trkpt>
      <trkpt lat="43.32474" lon="2.69405">
        <ele>99.63</ele>
        <time>2021-03-11T14:03:03Z</time>
      </trkpt>
      <trkpt lat="43.32469" lon="2.694">
        <ele>99.63</ele>
        <time>2021-03-11T14:03:19Z</time>
      </trkpt>
      <trkpt lat="43.32469" lon="2.69413">
        <ele>100.6</ele>
        <time>2021-03-11T14:03:39Z</time>
      </trkpt>
      <trkpt lat="43.32464" lon="2.69416">
        <ele>98.67</ele>
        <time>2021-03-11T14:03:53Z</time>
      </trkpt>
      <trkpt lat="43.32453" lon="2.69409">
        <ele>97.71</ele>
        <time>2021-03-11T14:04:07Z</time>
      </trkpt>
      <trkpt lat="43.32454" lon="2.6941">
        <ele>99.15</ele>
        <time>2021-03-11T14:04:19Z</time>
      </trkpt>
      <trkpt lat="43.32456" lon="2.69415">
        <ele>98.19</ele>
        <time>2021-03-11T14:04:24Z</time>
      </trkpt>
      <trkpt lat="43.32453" lon="2.69429">
        <ele>98.67</ele>
        <time>2021-03-11T14:04:47Z</time>
      </trkpt>
      <trkpt lat="43.32449" lon="2.69417">
        <ele>96.75</ele>
        <time>2021-03-11T14:04:59Z</time>
      </trkpt>
      <trkpt lat="43.3244" lon="2.69396">
        <ele>95.79</ele>
        <time>2021-03-11T14:05:21Z</time>
      </trkpt>
      <trkpt lat="43.32434" lon="2.69376">
        <ele>95.31</ele>
        <time>2021-03-11T14:05:41Z</time>
      </trkpt>
      <trkpt lat="43.32433" lon="2.69374">
        <ele>95.31</ele>
        <time>2021-03-11T14:05:42Z</time>
      </trkpt>
      <trkpt lat="43.32432" lon="2.69372">
        <ele>95.31</ele>
        <time>2021-03-11T14:05:43Z</time>
      </trkpt>
      <trkpt lat="43.32427" lon="2.69353">
        <ele>95.31</ele>
        <time>2021-03-11T14:05:53Z</time>
      </trkpt>
      <trkpt lat="43.32426" lon="2.69353">
        <ele>95.31</ele>
        <time>2021-03-11T14:05:54Z</time>
      </trkpt>
      <trkpt lat="43.32425" lon="2.69352">
        <ele>95.31</ele>
        <time>2021-03-11T14:05:55Z</time>
      </trkpt>
      <trkpt lat="43.32423" lon="2.69352">
        <ele>95.31</ele>
        <time>2021-03-11T14:05:56Z</time>
      </trkpt>
      <trkpt lat="43.32423" lon="2.69351">
        <ele>95.31</ele>
        <time>2021-03-11T14:05:57Z</time>
      </trkpt>
      <trkpt lat="43.32422" lon="2.6935">
        <ele>95.31</ele>
        <time>2021-03-11T14:05:58Z</time>
      </trkpt>
      <trkpt lat="43.32415" lon="2.69346">
        <ele>95.31</ele>
        <time>2021-03-11T14:06:05Z</time>
      </trkpt>
      <trkpt lat="43.32413" lon="2.69346">
        <ele>95.31</ele>
        <time>2021-03-11T14:06:06Z</time>
      </trkpt>
      <trkpt lat="43.32412" lon="2.69345">
        <ele>95.31</ele>
        <time>2021-03-11T14:06:07Z</time>
      </trkpt>
      <trkpt lat="43.32398" lon="2.69328">
        <ele>95.31</ele>
        <time>2021-03-11T14:06:19Z</time>
      </trkpt>
      <trkpt lat="43.32397" lon="2.69327">
        <ele>95.31</ele>
        <time>2021-03-11T14:06:20Z</time>
      </trkpt>
      <trkpt lat="43.32397" lon="2.69324">
        <ele>95.31</ele>
        <time>2021-03-11T14:06:22Z</time>
      </trkpt>
      <trkpt lat="43.32396" lon="2.69323">
        <ele>95.31</ele>
        <time>2021-03-11T14:06:23Z</time>
      </trkpt>
      <trkpt lat="43.32395" lon="2.69322">
        <ele>95.31</ele>
        <time>2021-03-11T14:06:24Z</time>
      </trkpt>
      <trkpt lat="43.3239" lon="2.69312">
        <ele>95.31</ele>
        <time>2021-03-11T14:06:31Z</time>
      </trkpt>
      <trkpt lat="43.32389" lon="2.69311">
        <ele>95.31</ele>
        <time>2021-03-11T14:06:32Z</time>
      </trkpt>
      <trkpt lat="43.32389" lon="2.6931">
        <ele>95.31</ele>
        <time>2021-03-11T14:06:33Z</time>
      </trkpt>
      <trkpt lat="43.32388" lon="2.69309">
        <ele>95.31</ele>
        <time>2021-03-11T14:06:34Z</time>
      </trkpt>
      <trkpt lat="43.32387" lon="2.69308">
        <ele>95.31</ele>
        <time>2021-03-11T14:06:35Z</time>
      </trkpt>
      <trkpt lat="43.32386" lon="2.69305">
        <ele>95.31</ele>
        <time>2021-03-11T14:06:37Z</time>
      </trkpt>
      <trkpt lat="43.32384" lon="2.69303">
        <ele>95.31</ele>
        <time>2021-03-11T14:06:39Z</time>
      </trkpt>
      <trkpt lat="43.32383" lon="2.69302">
        <ele>95.31</ele>
        <time>2021-03-11T14:06:40Z</time>
      </trkpt>
      <trkpt lat="43.32383" lon="2.693">
        <ele>95.31</ele>
        <time>2021-03-11T14:06:41Z</time>
      </trkpt>
      <trkpt lat="43.32381" lon="2.69298">
        <ele>94.35</ele>
        <time>2021-03-11T14:06:42Z</time>
      </trkpt>
      <trkpt lat="43.32379" lon="2.69296">
        <ele>94.35</ele>
        <time>2021-03-11T14:06:43Z</time>
      </trkpt>
      <trkpt lat="43.32371" lon="2.69284">
        <ele>94.83</ele>
        <time>2021-03-11T14:06:53Z</time>
      </trkpt>
      <trkpt lat="43.32359" lon="2.69271">
        <ele>94.35</ele>
        <time>2021-03-11T14:07:03Z</time>
      </trkpt>
      <trkpt lat="43.32354" lon="2.69263">
        <ele>93.39</ele>
        <time>2021-03-11T14:07:13Z</time>
      </trkpt>
      <trkpt lat="43.3234" lon="2.69247">
        <ele>93.39</ele>
        <time>2021-03-11T14:07:24Z</time>
      </trkpt>
      <trkpt lat="43.32335" lon="2.69241">
        <ele>93.39</ele>
        <time>2021-03-11T14:07:33Z</time>
      </trkpt>
      <trkpt lat="43.32333" lon="2.69238">
        <ele>92.9</ele>
        <time>2021-03-11T14:07:35Z</time>
      </trkpt>
      <trkpt lat="43.32331" lon="2.69238">
        <ele>92.9</ele>
        <time>2021-03-11T14:07:36Z</time>
      </trkpt>
      <trkpt lat="43.3233" lon="2.69237">
        <ele>92.9</ele>
        <time>2021-03-11T14:07:37Z</time>
      </trkpt>
      <trkpt lat="43.32314" lon="2.6923">
        <ele>92.9</ele>
        <time>2021-03-11T14:07:49Z</time>
      </trkpt>
      <trkpt lat="43.32298" lon="2.69226">
        <ele>92.9</ele>
        <time>2021-03-11T14:08:00Z</time>
      </trkpt>
      <trkpt lat="43.32296" lon="2.69226">
        <ele>92.9</ele>
        <time>2021-03-11T14:08:05Z</time>
      </trkpt>
      <trkpt lat="43.32294" lon="2.69225">
        <ele>92.9</ele>
        <time>2021-03-11T14:08:06Z</time>
      </trkpt>
      <trkpt lat="43.32279" lon="2.69225">
        <ele>92.9</ele>
        <time>2021-03-11T14:08:18Z</time>
      </trkpt>
      <trkpt lat="43.32265" lon="2.69223">
        <ele>92.42</ele>
        <time>2021-03-11T14:08:30Z</time>
      </trkpt>
      <trkpt lat="43.3226" lon="2.69224">
        <ele>92.9</ele>
        <time>2021-03-11T14:08:33Z</time>
      </trkpt>
      <trkpt lat="43.3225" lon="2.69221">
        <ele>92.42</ele>
        <time>2021-03-11T14:08:39Z</time>
      </trkpt>
      <trkpt lat="43.32243" lon="2.6922">
        <ele>91.46</ele>
        <time>2021-03-11T14:08:46Z</time>
      </trkpt>
      <trkpt lat="43.32242" lon="2.6922">
        <ele>91.46</ele>
        <time>2021-03-11T14:08:47Z</time>
      </trkpt>
      <trkpt lat="43.32239" lon="2.69219">
        <ele>91.46</ele>
        <time>2021-03-11T14:08:49Z</time>
      </trkpt>
      <trkpt lat="43.32231" lon="2.69218">
        <ele>90.98</ele>
        <time>2021-03-11T14:08:57Z</time>
      </trkpt>
      <trkpt lat="43.32214" lon="2.6921">
        <ele>89.54</ele>
        <time>2021-03-11T14:09:11Z</time>
      </trkpt>
      <trkpt lat="43.32197" lon="2.69203">
        <ele>88.1</ele>
        <time>2021-03-11T14:09:27Z</time>
      </trkpt>
      <trkpt lat="43.32179" lon="2.69202">
        <ele>87.62</ele>
        <time>2021-03-11T14:09:39Z</time>
      </trkpt>
      <trkpt lat="43.32178" lon="2.69202">
        <ele>86.66</ele>
        <time>2021-03-11T14:09:40Z</time>
      </trkpt>
      <trkpt lat="43.32163" lon="2.69201">
        <ele>86.18</ele>
        <time>2021-03-11T14:09:52Z</time>
      </trkpt>
      <trkpt lat="43.32158" lon="2.69204">
        <ele>86.18</ele>
        <time>2021-03-11T14:09:58Z</time>
      </trkpt>
      <trkpt lat="43.32156" lon="2.69204">
        <ele>86.18</ele>
        <time>2021-03-11T14:09:59Z</time>
      </trkpt>
      <trkpt lat="43.32155" lon="2.69203">
        <ele>86.18</ele>
        <time>2021-03-11T14:10:00Z</time>
      </trkpt>
      <trkpt lat="43.32154" lon="2.69203">
        <ele>85.69</ele>
        <time>2021-03-11T14:10:01Z</time>
      </trkpt>
      <trkpt lat="43.32153" lon="2.69203">
        <ele>85.69</ele>
        <time>2021-03-11T14:10:02Z</time>
      </trkpt>
      <trkpt lat="43.32139" lon="2.692">
        <ele>85.69</ele>
        <time>2021-03-11T14:10:13Z</time>
      </trkpt>
      <trkpt lat="43.32123" lon="2.692">
        <ele>85.69</ele>
        <time>2021-03-11T14:10:26Z</time>
      </trkpt>
      <trkpt lat="43.32112" lon="2.69198">
        <ele>87.14</ele>
        <time>2021-03-11T14:10:33Z</time>
      </trkpt>
      <trkpt lat="43.32096" lon="2.69198">
        <ele>87.14</ele>
        <time>2021-03-11T14:10:45Z</time>
      </trkpt>
      <trkpt lat="43.32091" lon="2.69198">
        <ele>87.62</ele>
        <time>2021-03-11T14:10:52Z</time>
      </trkpt>
      <trkpt lat="43.32089" lon="2.69197">
        <ele>87.62</ele>
        <time>2021-03-11T14:10:53Z</time>
      </trkpt>
      <trkpt lat="43.32087" lon="2.69197">
        <ele>87.62</ele>
        <time>2021-03-11T14:10:54Z</time>
      </trkpt>
      <trkpt lat="43.32084" lon="2.69197">
        <ele>87.62</ele>
        <time>2021-03-11T14:10:55Z</time>
      </trkpt>
      <trkpt lat="43.32082" lon="2.69197">
        <ele>87.62</ele>
        <time>2021-03-11T14:10:56Z</time>
      </trkpt>
      <trkpt lat="43.32071" lon="2.69199">
        <ele>88.58</ele>
        <time>2021-03-11T14:11:06Z</time>
      </trkpt>
      <trkpt lat="43.32059" lon="2.69204">
        <ele>89.06</ele>
        <time>2021-03-11T14:11:18Z</time>
      </trkpt>
      <trkpt lat="43.32054" lon="2.69208">
        <ele>89.06</ele>
        <time>2021-03-11T14:11:30Z</time>
      </trkpt>
      <trkpt lat="43.32053" lon="2.69207">
        <ele>89.54</ele>
        <time>2021-03-11T14:11:43Z</time>
      </trkpt>
      <trkpt lat="43.32045" lon="2.69208">
        <ele>88.1</ele>
        <time>2021-03-11T14:11:54Z</time>
      </trkpt>
      <trkpt lat="43.32044" lon="2.69211">
        <ele>88.1</ele>
        <time>2021-03-11T14:11:56Z</time>
      </trkpt>
      <trkpt lat="43.32045" lon="2.69213">
        <ele>88.1</ele>
        <time>2021-03-11T14:11:57Z</time>
      </trkpt>
      <trkpt lat="43.32046" lon="2.69214">
        <ele>88.1</ele>
        <time>2021-03-11T14:11:58Z</time>
      </trkpt>
      <trkpt lat="43.32047" lon="2.69215">
        <ele>88.1</ele>
        <time>2021-03-11T14:11:59Z</time>
      </trkpt>
      <trkpt lat="43.32046" lon="2.69222">
        <ele>89.54</ele>
        <time>2021-03-11T14:12:11Z</time>
      </trkpt>
      <trkpt lat="43.32048" lon="2.69226">
        <ele>90.5</ele>
        <time>2021-03-11T14:12:24Z</time>
      </trkpt>
      <trkpt lat="43.3205" lon="2.69221">
        <ele>89.06</ele>
        <time>2021-03-11T14:12:39Z</time>
      </trkpt>
      <trkpt lat="43.3205" lon="2.69219">
        <ele>89.06</ele>
        <time>2021-03-11T14:12:40Z</time>
      </trkpt>
      <trkpt lat="43.32048" lon="2.69213">
        <ele>88.58</ele>
        <time>2021-03-11T14:12:46Z</time>
      </trkpt>
      <trkpt lat="43.32048" lon="2.69211">
        <ele>88.58</ele>
        <time>2021-03-11T14:12:47Z</time>
      </trkpt>
      <trkpt lat="43.32048" lon="2.69209">
        <ele>88.1</ele>
        <time>2021-03-11T14:12:48Z</time>
      </trkpt>
      <trkpt lat="43.32048" lon="2.69208">
        <ele>88.1</ele>
        <time>2021-03-11T14:12:49Z</time>
      </trkpt>
      <trkpt lat="43.32048" lon="2.69207">
        <ele>88.1</ele>
        <time>2021-03-11T14:13:03Z</time>
      </trkpt>
      <trkpt lat="43.32047" lon="2.6921">
        <ele>88.1</ele>
        <time>2021-03-11T14:13:13Z</time>
      </trkpt>
      <trkpt lat="43.32045" lon="2.6921">
        <ele>87.62</ele>
        <time>2021-03-11T14:13:14Z</time>
      </trkpt>
      <trkpt lat="43.32044" lon="2.6921">
        <ele>87.62</ele>
        <time>2021-03-11T14:13:15Z</time>
      </trkpt>
      <trkpt lat="43.32037" lon="2.69212">
        <ele>87.62</ele>
        <time>2021-03-11T14:13:27Z</time>
      </trkpt>
      <trkpt lat="43.32034" lon="2.69213">
        <ele>87.62</ele>
        <time>2021-03-11T14:13:42Z</time>
      </trkpt>
      <trkpt lat="43.32034" lon="2.69211">
        <ele>87.62</ele>
        <time>2021-03-11T14:14:13Z</time>
      </trkpt>
      <trkpt lat="43.32035" lon="2.69208">
        <ele>87.62</ele>
        <time>2021-03-11T14:14:39Z</time>
      </trkpt>
      <trkpt lat="43.3203" lon="2.6921">
        <ele>87.62</ele>
        <time>2021-03-11T14:15:13Z</time>
      </trkpt>
      <trkpt lat="43.32029" lon="2.69209">
        <ele>89.06</ele>
        <time>2021-03-11T14:15:36Z</time>
      </trkpt>
      <trkpt lat="43.32029" lon="2.69211">
        <ele>89.06</ele>
        <time>2021-03-11T14:15:48Z</time>
      </trkpt>
      <trkpt lat="43.32027" lon="2.69211">
        <ele>89.06</ele>
        <time>2021-03-11T14:15:50Z</time>
      </trkpt>
      <trkpt lat="43.32023" lon="2.69211">
        <ele>87.62</ele>
        <time>2021-03-11T14:15:53Z</time>
      </trkpt>
      <trkpt lat="43.32004" lon="2.6921">
        <ele>85.69</ele>
        <time>2021-03-11T14:16:09Z</time>
      </trkpt>
      <trkpt lat="43.31998" lon="2.6921">
        <ele>85.21</ele>
        <time>2021-03-11T14:16:14Z</time>
      </trkpt>
      <trkpt lat="43.31997" lon="2.6921">
        <ele>85.21</ele>
        <time>2021-03-11T14:16:15Z</time>
      </trkpt>
      <trkpt lat="43.31995" lon="2.6921">
        <ele>84.73</ele>
        <time>2021-03-11T14:16:16Z</time>
      </trkpt>
      <trkpt lat="43.31994" lon="2.69211">
        <ele>84.73</ele>
        <time>2021-03-11T14:16:17Z</time>
      </trkpt>
      <trkpt lat="43.31978" lon="2.69224">
        <ele>83.77</ele>
        <time>2021-03-11T14:16:33Z</time>
      </trkpt>
      <trkpt lat="43.31962" lon="2.69242">
        <ele>83.29</ele>
        <time>2021-03-11T14:16:49Z</time>
      </trkpt>
      <trkpt lat="43.31952" lon="2.69257">
        <ele>82.81</ele>
        <time>2021-03-11T14:17:01Z</time>
      </trkpt>
      <trkpt lat="43.31942" lon="2.69271">
        <ele>81.37</ele>
        <time>2021-03-11T14:17:14Z</time>
      </trkpt>
      <trkpt lat="43.31929" lon="2.69282">
        <ele>83.29</ele>
        <time>2021-03-11T14:17:27Z</time>
      </trkpt>
      <trkpt lat="43.31928" lon="2.69283">
        <ele>83.29</ele>
        <time>2021-03-11T14:17:28Z</time>
      </trkpt>
      <trkpt lat="43.31926" lon="2.69284">
        <ele>83.29</ele>
        <time>2021-03-11T14:17:29Z</time>
      </trkpt>
      <trkpt lat="43.31926" lon="2.69286">
        <ele>81.37</ele>
        <time>2021-03-11T14:17:30Z</time>
      </trkpt>
      <trkpt lat="43.31925" lon="2.69288">
        <ele>81.37</ele>
        <time>2021-03-11T14:17:31Z</time>
      </trkpt>
      <trkpt lat="43.31924" lon="2.6929">
        <ele>81.37</ele>
        <time>2021-03-11T14:17:32Z</time>
      </trkpt>
      <trkpt lat="43.31923" lon="2.69292">
        <ele>81.37</ele>
        <time>2021-03-11T14:17:33Z</time>
      </trkpt>
      <trkpt lat="43.31922" lon="2.69294">
        <ele>81.37</ele>
        <time>2021-03-11T14:17:34Z</time>
      </trkpt>
      <trkpt lat="43.31921" lon="2.69295">
        <ele>81.37</ele>
        <time>2021-03-11T14:17:35Z</time>
      </trkpt>
      <trkpt lat="43.31918" lon="2.69298">
        <ele>79.93</ele>
        <time>2021-03-11T14:17:38Z</time>
      </trkpt>
      <trkpt lat="43.31917" lon="2.69299">
        <ele>83.29</ele>
        <time>2021-03-11T14:17:39Z</time>
      </trkpt>
      <trkpt lat="43.31915" lon="2.693">
        <ele>83.29</ele>
        <time>2021-03-11T14:17:40Z</time>
      </trkpt>
      <trkpt lat="43.319" lon="2.69317">
        <ele>81.37</ele>
        <time>2021-03-11T14:17:52Z</time>
      </trkpt>
      <trkpt lat="43.31893" lon="2.69323">
        <ele>80.89</ele>
        <time>2021-03-11T14:18:00Z</time>
      </trkpt>
      <trkpt lat="43.31892" lon="2.69324">
        <ele>80.89</ele>
        <time>2021-03-11T14:18:01Z</time>
      </trkpt>
      <trkpt lat="43.31891" lon="2.69326">
        <ele>80.89</ele>
        <time>2021-03-11T14:18:02Z</time>
      </trkpt>
      <trkpt lat="43.3188" lon="2.69337">
        <ele>80.89</ele>
        <time>2021-03-11T14:18:14Z</time>
      </trkpt>
      <trkpt lat="43.31879" lon="2.69338">
        <ele>80.89</ele>
        <time>2021-03-11T14:18:15Z</time>
      </trkpt>
      <trkpt lat="43.31878" lon="2.69339">
        <ele>80.89</ele>
        <time>2021-03-11T14:18:16Z</time>
      </trkpt>
      <trkpt lat="43.31868" lon="2.69346">
        <ele>80.89</ele>
        <time>2021-03-11T14:18:26Z</time>
      </trkpt>
      <trkpt lat="43.31863" lon="2.69352">
        <ele>80.41</ele>
        <time>2021-03-11T14:18:33Z</time>
      </trkpt>
      <trkpt lat="43.31861" lon="2.69353">
        <ele>80.41</ele>
        <time>2021-03-11T14:18:34Z</time>
      </trkpt>
      <trkpt lat="43.31842" lon="2.69365">
        <ele>79.93</ele>
        <time>2021-03-11T14:18:45Z</time>
      </trkpt>
      <trkpt lat="43.31827" lon="2.69375">
        <ele>79.93</ele>
        <time>2021-03-11T14:18:58Z</time>
      </trkpt>
      <trkpt lat="43.31812" lon="2.69386">
        <ele>79.45</ele>
        <time>2021-03-11T14:19:10Z</time>
      </trkpt>
      <trkpt lat="43.318" lon="2.69392">
        <ele>79.45</ele>
        <time>2021-03-11T14:19:20Z</time>
      </trkpt>
      <trkpt lat="43.31792" lon="2.69395">
        <ele>78.97</ele>
        <time>2021-03-11T14:19:34Z</time>
      </trkpt>
      <trkpt lat="43.3179" lon="2.69396">
        <ele>78.97</ele>
        <time>2021-03-11T14:19:36Z</time>
      </trkpt>
      <trkpt lat="43.31788" lon="2.69398">
        <ele>78.97</ele>
        <time>2021-03-11T14:19:37Z</time>
      </trkpt>
      <trkpt lat="43.31787" lon="2.69399">
        <ele>78.97</ele>
        <time>2021-03-11T14:19:38Z</time>
      </trkpt>
      <trkpt lat="43.31785" lon="2.69399">
        <ele>78.48</ele>
        <time>2021-03-11T14:19:39Z</time>
      </trkpt>
      <trkpt lat="43.31783" lon="2.694">
        <ele>78.48</ele>
        <time>2021-03-11T14:19:40Z</time>
      </trkpt>
      <trkpt lat="43.31781" lon="2.69401">
        <ele>78.48</ele>
        <time>2021-03-11T14:19:41Z</time>
      </trkpt>
      <trkpt lat="43.31779" lon="2.69401">
        <ele>78.48</ele>
        <time>2021-03-11T14:19:42Z</time>
      </trkpt>
      <trkpt lat="43.31778" lon="2.69402">
        <ele>78.48</ele>
        <time>2021-03-11T14:19:43Z</time>
      </trkpt>
      <trkpt lat="43.3176" lon="2.69413">
        <ele>78</ele>
        <time>2021-03-11T14:19:55Z</time>
      </trkpt>
      <trkpt lat="43.31744" lon="2.69423">
        <ele>77.04</ele>
        <time>2021-03-11T14:20:06Z</time>
      </trkpt>
      <trkpt lat="43.31725" lon="2.69434">
        <ele>76.08</ele>
        <time>2021-03-11T14:20:18Z</time>
      </trkpt>
      <trkpt lat="43.31723" lon="2.69434">
        <ele>76.08</ele>
        <time>2021-03-11T14:20:20Z</time>
      </trkpt>
      <trkpt lat="43.31719" lon="2.69437">
        <ele>76.08</ele>
        <time>2021-03-11T14:20:24Z</time>
      </trkpt>
      <trkpt lat="43.31718" lon="2.69437">
        <ele>76.08</ele>
        <time>2021-03-11T14:20:25Z</time>
      </trkpt>
      <trkpt lat="43.31704" lon="2.69446">
        <ele>75.6</ele>
        <time>2021-03-11T14:20:38Z</time>
      </trkpt>
      <trkpt lat="43.31685" lon="2.69454">
        <ele>75.12</ele>
        <time>2021-03-11T14:20:51Z</time>
      </trkpt>
      <trkpt lat="43.31681" lon="2.69455">
        <ele>75.12</ele>
        <time>2021-03-11T14:20:56Z</time>
      </trkpt>
      <trkpt lat="43.3168" lon="2.69456">
        <ele>75.12</ele>
        <time>2021-03-11T14:20:57Z</time>
      </trkpt>
      <trkpt lat="43.31673" lon="2.69463">
        <ele>75.12</ele>
        <time>2021-03-11T14:21:07Z</time>
      </trkpt>
      <trkpt lat="43.31672" lon="2.69464">
        <ele>75.12</ele>
        <time>2021-03-11T14:21:08Z</time>
      </trkpt>
      <trkpt lat="43.3167" lon="2.69464">
        <ele>75.12</ele>
        <time>2021-03-11T14:21:09Z</time>
      </trkpt>
      <trkpt lat="43.31655" lon="2.69483">
        <ele>75.12</ele>
        <time>2021-03-11T14:21:21Z</time>
      </trkpt>
      <trkpt lat="43.31655" lon="2.69485">
        <ele>75.12</ele>
        <time>2021-03-11T14:21:34Z</time>
      </trkpt>
      <trkpt lat="43.31656" lon="2.69498">
        <ele>75.12</ele>
        <time>2021-03-11T14:21:49Z</time>
      </trkpt>
      <trkpt lat="43.31654" lon="2.69525">
        <ele>74.64</ele>
        <time>2021-03-11T14:22:04Z</time>
      </trkpt>
      <trkpt lat="43.31654" lon="2.69541">
        <ele>74.64</ele>
        <time>2021-03-11T14:22:15Z</time>
      </trkpt>
      <trkpt lat="43.31656" lon="2.69558">
        <ele>74.16</ele>
        <time>2021-03-11T14:22:25Z</time>
      </trkpt>
      <trkpt lat="43.31657" lon="2.6956">
        <ele>74.16</ele>
        <time>2021-03-11T14:22:26Z</time>
      </trkpt>
      <trkpt lat="43.31657" lon="2.69562">
        <ele>74.16</ele>
        <time>2021-03-11T14:22:27Z</time>
      </trkpt>
      <trkpt lat="43.31657" lon="2.69565">
        <ele>74.16</ele>
        <time>2021-03-11T14:22:28Z</time>
      </trkpt>
      <trkpt lat="43.31658" lon="2.69567">
        <ele>74.16</ele>
        <time>2021-03-11T14:22:29Z</time>
      </trkpt>
      <trkpt lat="43.31661" lon="2.6958">
        <ele>74.16</ele>
        <time>2021-03-11T14:22:38Z</time>
      </trkpt>
      <trkpt lat="43.31662" lon="2.69582">
        <ele>74.16</ele>
        <time>2021-03-11T14:22:39Z</time>
      </trkpt>
      <trkpt lat="43.31662" lon="2.69584">
        <ele>74.16</ele>
        <time>2021-03-11T14:22:40Z</time>
      </trkpt>
      <trkpt lat="43.31663" lon="2.69587">
        <ele>73.68</ele>
        <time>2021-03-11T14:22:41Z</time>
      </trkpt>
      <trkpt lat="43.31663" lon="2.69589">
        <ele>73.68</ele>
        <time>2021-03-11T14:22:42Z</time>
      </trkpt>
      <trkpt lat="43.31664" lon="2.6961">
        <ele>73.68</ele>
        <time>2021-03-11T14:22:57Z</time>
      </trkpt>
      <trkpt lat="43.31665" lon="2.69611">
        <ele>73.68</ele>
        <time>2021-03-11T14:22:58Z</time>
      </trkpt>
      <trkpt lat="43.31667" lon="2.69614">
        <ele>73.68</ele>
        <time>2021-03-11T14:23:00Z</time>
      </trkpt>
      <trkpt lat="43.31667" lon="2.69623">
        <ele>73.68</ele>
        <time>2021-03-11T14:23:04Z</time>
      </trkpt>
      <trkpt lat="43.31666" lon="2.69625">
        <ele>73.68</ele>
        <time>2021-03-11T14:23:05Z</time>
      </trkpt>
      <trkpt lat="43.31665" lon="2.69628">
        <ele>73.2</ele>
        <time>2021-03-11T14:23:07Z</time>
      </trkpt>
      <trkpt lat="43.31664" lon="2.69631">
        <ele>73.2</ele>
        <time>2021-03-11T14:23:08Z</time>
      </trkpt>
      <trkpt lat="43.31663" lon="2.69633">
        <ele>73.2</ele>
        <time>2021-03-11T14:23:09Z</time>
      </trkpt>
      <trkpt lat="43.31662" lon="2.69636">
        <ele>73.2</ele>
        <time>2021-03-11T14:23:10Z</time>
      </trkpt>
      <trkpt lat="43.31661" lon="2.69638">
        <ele>73.2</ele>
        <time>2021-03-11T14:23:11Z</time>
      </trkpt>
      <trkpt lat="43.31658" lon="2.69655">
        <ele>73.68</ele>
        <time>2021-03-11T14:23:23Z</time>
      </trkpt>
      <trkpt lat="43.31644" lon="2.69671">
        <ele>72.24</ele>
        <time>2021-03-11T14:23:37Z</time>
      </trkpt>
      <trkpt lat="43.31628" lon="2.69676">
        <ele>71.27</ele>
        <time>2021-03-11T14:23:52Z</time>
      </trkpt>
      <trkpt lat="43.31617" lon="2.6968">
        <ele>71.27</ele>
        <time>2021-03-11T14:24:05Z</time>
      </trkpt>
      <trkpt lat="43.31601" lon="2.69692">
        <ele>70.79</ele>
        <time>2021-03-11T14:24:15Z</time>
      </trkpt>
      <trkpt lat="43.31587" lon="2.69706">
        <ele>69.83</ele>
        <time>2021-03-11T14:24:28Z</time>
      </trkpt>
      <trkpt lat="43.31579" lon="2.69716">
        <ele>69.83</ele>
        <time>2021-03-11T14:24:39Z</time>
      </trkpt>
      <trkpt lat="43.31565" lon="2.69734">
        <ele>69.35</ele>
        <time>2021-03-11T14:24:50Z</time>
      </trkpt>
      <trkpt lat="43.31563" lon="2.69737">
        <ele>68.87</ele>
        <time>2021-03-11T14:24:55Z</time>
      </trkpt>
      <trkpt lat="43.31562" lon="2.69739">
        <ele>68.87</ele>
        <time>2021-03-11T14:24:56Z</time>
      </trkpt>
      <trkpt lat="43.3156" lon="2.69741">
        <ele>68.87</ele>
        <time>2021-03-11T14:24:57Z</time>
      </trkpt>
      <trkpt lat="43.31546" lon="2.69758">
        <ele>68.39</ele>
        <time>2021-03-11T14:25:08Z</time>
      </trkpt>
      <trkpt lat="43.31534" lon="2.69771">
        <ele>67.91</ele>
        <time>2021-03-11T14:25:21Z</time>
      </trkpt>
      <trkpt lat="43.31525" lon="2.69783">
        <ele>67.43</ele>
        <time>2021-03-11T14:25:33Z</time>
      </trkpt>
      <trkpt lat="43.31515" lon="2.69794">
        <ele>67.43</ele>
        <time>2021-03-11T14:25:43Z</time>
      </trkpt>
      <trkpt lat="43.31513" lon="2.69797">
        <ele>66.95</ele>
        <time>2021-03-11T14:25:46Z</time>
      </trkpt>
      <trkpt lat="43.31512" lon="2.69798">
        <ele>66.95</ele>
        <time>2021-03-11T14:25:47Z</time>
      </trkpt>
      <trkpt lat="43.31497" lon="2.69817">
        <ele>66.95</ele>
        <time>2021-03-11T14:25:58Z</time>
      </trkpt>
      <trkpt lat="43.31496" lon="2.69818">
        <ele>66.47</ele>
        <time>2021-03-11T14:26:03Z</time>
      </trkpt>
      <trkpt lat="43.31495" lon="2.6982">
        <ele>66.47</ele>
        <time>2021-03-11T14:26:04Z</time>
      </trkpt>
      <trkpt lat="43.31495" lon="2.69821">
        <ele>66.47</ele>
        <time>2021-03-11T14:26:05Z</time>
      </trkpt>
      <trkpt lat="43.31493" lon="2.69823">
        <ele>66.47</ele>
        <time>2021-03-11T14:26:06Z</time>
      </trkpt>
      <trkpt lat="43.31492" lon="2.69825">
        <ele>66.47</ele>
        <time>2021-03-11T14:26:07Z</time>
      </trkpt>
      <trkpt lat="43.3149" lon="2.69827">
        <ele>66.47</ele>
        <time>2021-03-11T14:26:08Z</time>
      </trkpt>
      <trkpt lat="43.31488" lon="2.69828">
        <ele>66.47</ele>
        <time>2021-03-11T14:26:09Z</time>
      </trkpt>
      <trkpt lat="43.31486" lon="2.69829">
        <ele>66.47</ele>
        <time>2021-03-11T14:26:10Z</time>
      </trkpt>
      <trkpt lat="43.31483" lon="2.69833">
        <ele>65.99</ele>
        <time>2021-03-11T14:26:18Z</time>
      </trkpt>
      <trkpt lat="43.31482" lon="2.69835">
        <ele>65.99</ele>
        <time>2021-03-11T14:26:19Z</time>
      </trkpt>
      <trkpt lat="43.31471" lon="2.69851">
        <ele>65.51</ele>
        <time>2021-03-11T14:26:30Z</time>
      </trkpt>
      <trkpt lat="43.3147" lon="2.69855">
        <ele>65.51</ele>
        <time>2021-03-11T14:26:33Z</time>
      </trkpt>
      <trkpt lat="43.31469" lon="2.69857">
        <ele>65.51</ele>
        <time>2021-03-11T14:26:34Z</time>
      </trkpt>
      <trkpt lat="43.31459" lon="2.69877">
        <ele>65.51</ele>
        <time>2021-03-11T14:26:45Z</time>
      </trkpt>
      <trkpt lat="43.31455" lon="2.69895">
        <ele>65.03</ele>
        <time>2021-03-11T14:26:59Z</time>
      </trkpt>
      <trkpt lat="43.31455" lon="2.69896">
        <ele>65.03</ele>
        <time>2021-03-11T14:27:00Z</time>
      </trkpt>
      <trkpt lat="43.31443" lon="2.69925">
        <ele>65.03</ele>
        <time>2021-03-11T14:27:12Z</time>
      </trkpt>
      <trkpt lat="43.3144" lon="2.69934">
        <ele>65.03</ele>
        <time>2021-03-11T14:27:19Z</time>
      </trkpt>
      <trkpt lat="43.3144" lon="2.69936">
        <ele>65.03</ele>
        <time>2021-03-11T14:27:20Z</time>
      </trkpt>
      <trkpt lat="43.3144" lon="2.69941">
        <ele>64.55</ele>
        <time>2021-03-11T14:27:24Z</time>
      </trkpt>
      <trkpt lat="43.31439" lon="2.69943">
        <ele>64.55</ele>
        <time>2021-03-11T14:27:25Z</time>
      </trkpt>
      <trkpt lat="43.31439" lon="2.69945">
        <ele>64.55</ele>
        <time>2021-03-11T14:27:26Z</time>
      </trkpt>
      <trkpt lat="43.31438" lon="2.69946">
        <ele>64.55</ele>
        <time>2021-03-11T14:27:27Z</time>
      </trkpt>
      <trkpt lat="43.31438" lon="2.69948">
        <ele>64.55</ele>
        <time>2021-03-11T14:27:28Z</time>
      </trkpt>
      <trkpt lat="43.31437" lon="2.6995">
        <ele>64.55</ele>
        <time>2021-03-11T14:27:29Z</time>
      </trkpt>
      <trkpt lat="43.31437" lon="2.69952">
        <ele>64.55</ele>
        <time>2021-03-11T14:27:30Z</time>
      </trkpt>
      <trkpt lat="43.31436" lon="2.69954">
        <ele>64.55</ele>
        <time>2021-03-11T14:27:31Z</time>
      </trkpt>
      <trkpt lat="43.31435" lon="2.69956">
        <ele>64.55</ele>
        <time>2021-03-11T14:27:32Z</time>
      </trkpt>
      <trkpt lat="43.31435" lon="2.69957">
        <ele>64.55</ele>
        <time>2021-03-11T14:27:33Z</time>
      </trkpt>
      <trkpt lat="43.31429" lon="2.69974">
        <ele>64.07</ele>
        <time>2021-03-11T14:27:45Z</time>
      </trkpt>
      <trkpt lat="43.31427" lon="2.69981">
        <ele>64.07</ele>
        <time>2021-03-11T14:27:48Z</time>
      </trkpt>
      <trkpt lat="43.31427" lon="2.69983">
        <ele>64.07</ele>
        <time>2021-03-11T14:27:49Z</time>
      </trkpt>
      <trkpt lat="43.31427" lon="2.69984">
        <ele>64.07</ele>
        <time>2021-03-11T14:27:50Z</time>
      </trkpt>
      <trkpt lat="43.31427" lon="2.69986">
        <ele>64.07</ele>
        <time>2021-03-11T14:27:51Z</time>
      </trkpt>
      <trkpt lat="43.31427" lon="2.69987">
        <ele>64.07</ele>
        <time>2021-03-11T14:27:52Z</time>
      </trkpt>
      <trkpt lat="43.31424" lon="2.69992">
        <ele>63.58</ele>
        <time>2021-03-11T14:27:58Z</time>
      </trkpt>
      <trkpt lat="43.31423" lon="2.69993">
        <ele>63.58</ele>
        <time>2021-03-11T14:27:59Z</time>
      </trkpt>
      <trkpt lat="43.31421" lon="2.69995">
        <ele>63.58</ele>
        <time>2021-03-11T14:28:00Z</time>
      </trkpt>
      <trkpt lat="43.31415" lon="2.70002">
        <ele>63.58</ele>
        <time>2021-03-11T14:28:04Z</time>
      </trkpt>
      <trkpt lat="43.31414" lon="2.70003">
        <ele>63.58</ele>
        <time>2021-03-11T14:28:05Z</time>
      </trkpt>
      <trkpt lat="43.31412" lon="2.70004">
        <ele>63.58</ele>
        <time>2021-03-11T14:28:06Z</time>
      </trkpt>
      <trkpt lat="43.31401" lon="2.70012">
        <ele>63.1</ele>
        <time>2021-03-11T14:28:17Z</time>
      </trkpt>
      <trkpt lat="43.314" lon="2.70012">
        <ele>63.1</ele>
        <time>2021-03-11T14:28:18Z</time>
      </trkpt>
      <trkpt lat="43.31384" lon="2.70017">
        <ele>63.1</ele>
        <time>2021-03-11T14:28:30Z</time>
      </trkpt>
      <trkpt lat="43.31369" lon="2.70028">
        <ele>63.1</ele>
        <time>2021-03-11T14:28:43Z</time>
      </trkpt>
      <trkpt lat="43.31354" lon="2.70041">
        <ele>63.1</ele>
        <time>2021-03-11T14:28:56Z</time>
      </trkpt>
      <trkpt lat="43.31339" lon="2.70049">
        <ele>63.1</ele>
        <time>2021-03-11T14:29:10Z</time>
      </trkpt>
      <trkpt lat="43.31338" lon="2.7005">
        <ele>63.1</ele>
        <time>2021-03-11T14:29:11Z</time>
      </trkpt>
      <trkpt lat="43.31337" lon="2.70051">
        <ele>63.1</ele>
        <time>2021-03-11T14:29:12Z</time>
      </trkpt>
      <trkpt lat="43.31336" lon="2.70052">
        <ele>63.1</ele>
        <time>2021-03-11T14:29:13Z</time>
      </trkpt>
      <trkpt lat="43.31334" lon="2.70053">
        <ele>63.1</ele>
        <time>2021-03-11T14:29:14Z</time>
      </trkpt>
      <trkpt lat="43.31333" lon="2.70054">
        <ele>63.1</ele>
        <time>2021-03-11T14:29:15Z</time>
      </trkpt>
      <trkpt lat="43.31331" lon="2.70055">
        <ele>63.1</ele>
        <time>2021-03-11T14:29:16Z</time>
      </trkpt>
      <trkpt lat="43.31315" lon="2.70065">
        <ele>62.62</ele>
        <time>2021-03-11T14:29:30Z</time>
      </trkpt>
      <trkpt lat="43.31297" lon="2.70077">
        <ele>62.62</ele>
        <time>2021-03-11T14:29:41Z</time>
      </trkpt>
      <trkpt lat="43.31284" lon="2.70085">
        <ele>62.62</ele>
        <time>2021-03-11T14:29:54Z</time>
      </trkpt>
      <trkpt lat="43.31276" lon="2.70088">
        <ele>62.62</ele>
        <time>2021-03-11T14:30:01Z</time>
      </trkpt>
      <trkpt lat="43.31275" lon="2.70089">
        <ele>62.14</ele>
        <time>2021-03-11T14:30:02Z</time>
      </trkpt>
      <trkpt lat="43.31274" lon="2.7009">
        <ele>62.14</ele>
        <time>2021-03-11T14:30:03Z</time>
      </trkpt>
      <trkpt lat="43.31273" lon="2.70091">
        <ele>62.14</ele>
        <time>2021-03-11T14:30:04Z</time>
      </trkpt>
      <trkpt lat="43.31271" lon="2.70091">
        <ele>62.14</ele>
        <time>2021-03-11T14:30:05Z</time>
      </trkpt>
      <trkpt lat="43.3127" lon="2.70092">
        <ele>62.14</ele>
        <time>2021-03-11T14:30:06Z</time>
      </trkpt>
      <trkpt lat="43.31268" lon="2.70093">
        <ele>62.14</ele>
        <time>2021-03-11T14:30:07Z</time>
      </trkpt>
      <trkpt lat="43.31267" lon="2.70094">
        <ele>61.66</ele>
        <time>2021-03-11T14:30:08Z</time>
      </trkpt>
      <trkpt lat="43.31252" lon="2.70103">
        <ele>62.14</ele>
        <time>2021-03-11T14:30:19Z</time>
      </trkpt>
      <trkpt lat="43.31238" lon="2.70112">
        <ele>62.14</ele>
        <time>2021-03-11T14:30:31Z</time>
      </trkpt>
      <trkpt lat="43.31233" lon="2.70118">
        <ele>61.66</ele>
        <time>2021-03-11T14:30:37Z</time>
      </trkpt>
      <trkpt lat="43.31232" lon="2.70119">
        <ele>61.66</ele>
        <time>2021-03-11T14:30:38Z</time>
      </trkpt>
      <trkpt lat="43.31222" lon="2.70125">
        <ele>61.66</ele>
        <time>2021-03-11T14:30:51Z</time>
      </trkpt>
      <trkpt lat="43.31218" lon="2.70127">
        <ele>61.66</ele>
        <time>2021-03-11T14:30:54Z</time>
      </trkpt>
      <trkpt lat="43.3121" lon="2.70132">
        <ele>61.66</ele>
        <time>2021-03-11T14:31:02Z</time>
      </trkpt>
      <trkpt lat="43.31208" lon="2.70133">
        <ele>61.66</ele>
        <time>2021-03-11T14:31:03Z</time>
      </trkpt>
      <trkpt lat="43.31206" lon="2.70134">
        <ele>61.66</ele>
        <time>2021-03-11T14:31:04Z</time>
      </trkpt>
      <trkpt lat="43.31204" lon="2.70135">
        <ele>61.66</ele>
        <time>2021-03-11T14:31:05Z</time>
      </trkpt>
      <trkpt lat="43.31203" lon="2.70136">
        <ele>61.66</ele>
        <time>2021-03-11T14:31:06Z</time>
      </trkpt>
      <trkpt lat="43.31201" lon="2.70137">
        <ele>61.66</ele>
        <time>2021-03-11T14:31:07Z</time>
      </trkpt>
      <trkpt lat="43.31195" lon="2.70142">
        <ele>61.66</ele>
        <time>2021-03-11T14:31:13Z</time>
      </trkpt>
      <trkpt lat="43.31176" lon="2.70152">
        <ele>62.62</ele>
        <time>2021-03-11T14:31:24Z</time>
      </trkpt>
      <trkpt lat="43.31175" lon="2.70153">
        <ele>61.18</ele>
        <time>2021-03-11T14:31:25Z</time>
      </trkpt>
      <trkpt lat="43.31173" lon="2.70154">
        <ele>61.18</ele>
        <time>2021-03-11T14:31:26Z</time>
      </trkpt>
      <trkpt lat="43.31172" lon="2.70155">
        <ele>61.18</ele>
        <time>2021-03-11T14:31:27Z</time>
      </trkpt>
      <trkpt lat="43.3117" lon="2.70156">
        <ele>61.18</ele>
        <time>2021-03-11T14:31:28Z</time>
      </trkpt>
      <trkpt lat="43.31166" lon="2.70163">
        <ele>61.18</ele>
        <time>2021-03-11T14:31:39Z</time>
      </trkpt>
      <trkpt lat="43.31163" lon="2.70164">
        <ele>61.18</ele>
        <time>2021-03-11T14:31:41Z</time>
      </trkpt>
      <trkpt lat="43.31161" lon="2.70164">
        <ele>61.18</ele>
        <time>2021-03-11T14:31:42Z</time>
      </trkpt>
      <trkpt lat="43.31139" lon="2.70175">
        <ele>61.18</ele>
        <time>2021-03-11T14:31:55Z</time>
      </trkpt>
      <trkpt lat="43.31134" lon="2.70183">
        <ele>60.7</ele>
        <time>2021-03-11T14:32:06Z</time>
      </trkpt>
      <trkpt lat="43.3112" lon="2.70192">
        <ele>60.7</ele>
        <time>2021-03-11T14:32:14Z</time>
      </trkpt>
      <trkpt lat="43.31115" lon="2.70197">
        <ele>60.7</ele>
        <time>2021-03-11T14:32:22Z</time>
      </trkpt>
      <trkpt lat="43.31114" lon="2.70198">
        <ele>60.7</ele>
        <time>2021-03-11T14:32:23Z</time>
      </trkpt>
      <trkpt lat="43.31113" lon="2.70199">
        <ele>60.7</ele>
        <time>2021-03-11T14:32:24Z</time>
      </trkpt>
      <trkpt lat="43.31088" lon="2.70218">
        <ele>59.74</ele>
        <time>2021-03-11T14:32:43Z</time>
      </trkpt>
      <trkpt lat="43.31075" lon="2.70227">
        <ele>61.18</ele>
        <time>2021-03-11T14:32:52Z</time>
      </trkpt>
      <trkpt lat="43.31074" lon="2.70228">
        <ele>61.18</ele>
        <time>2021-03-11T14:32:53Z</time>
      </trkpt>
      <trkpt lat="43.31073" lon="2.70229">
        <ele>61.18</ele>
        <time>2021-03-11T14:32:54Z</time>
      </trkpt>
      <trkpt lat="43.31072" lon="2.7023">
        <ele>61.18</ele>
        <time>2021-03-11T14:32:55Z</time>
      </trkpt>
      <trkpt lat="43.31071" lon="2.70231">
        <ele>61.18</ele>
        <time>2021-03-11T14:32:56Z</time>
      </trkpt>
      <trkpt lat="43.3107" lon="2.70238">
        <ele>61.18</ele>
        <time>2021-03-11T14:33:02Z</time>
      </trkpt>
      <trkpt lat="43.3107" lon="2.7024">
        <ele>61.18</ele>
        <time>2021-03-11T14:33:03Z</time>
      </trkpt>
      <trkpt lat="43.3107" lon="2.70242">
        <ele>61.18</ele>
        <time>2021-03-11T14:33:04Z</time>
      </trkpt>
      <trkpt lat="43.31071" lon="2.70244">
        <ele>61.18</ele>
        <time>2021-03-11T14:33:05Z</time>
      </trkpt>
      <trkpt lat="43.31072" lon="2.70245">
        <ele>61.18</ele>
        <time>2021-03-11T14:33:06Z</time>
      </trkpt>
      <trkpt lat="43.31072" lon="2.70247">
        <ele>61.18</ele>
        <time>2021-03-11T14:33:07Z</time>
      </trkpt>
      <trkpt lat="43.31073" lon="2.70248">
        <ele>61.18</ele>
        <time>2021-03-11T14:33:08Z</time>
      </trkpt>
      <trkpt lat="43.31074" lon="2.7025">
        <ele>61.18</ele>
        <time>2021-03-11T14:33:09Z</time>
      </trkpt>
      <trkpt lat="43.31075" lon="2.70253">
        <ele>61.18</ele>
        <time>2021-03-11T14:33:10Z</time>
      </trkpt>
      <trkpt lat="43.31075" lon="2.70254">
        <ele>61.18</ele>
        <time>2021-03-11T14:33:11Z</time>
      </trkpt>
      <trkpt lat="43.31081" lon="2.70268">
        <ele>61.18</ele>
        <time>2021-03-11T14:33:24Z</time>
      </trkpt>
      <trkpt lat="43.31088" lon="2.7028">
        <ele>61.18</ele>
        <time>2021-03-11T14:33:33Z</time>
      </trkpt>
      <trkpt lat="43.31089" lon="2.70282">
        <ele>61.18</ele>
        <time>2021-03-11T14:33:34Z</time>
      </trkpt>
      <trkpt lat="43.31101" lon="2.703">
        <ele>61.18</ele>
        <time>2021-03-11T14:33:48Z</time>
      </trkpt>
      <trkpt lat="43.31111" lon="2.70318">
        <ele>60.7</ele>
        <time>2021-03-11T14:33:59Z</time>
      </trkpt>
      <trkpt lat="43.3112" lon="2.70331">
        <ele>60.7</ele>
        <time>2021-03-11T14:34:12Z</time>
      </trkpt>
      <trkpt lat="43.31132" lon="2.70355">
        <ele>60.7</ele>
        <time>2021-03-11T14:34:23Z</time>
      </trkpt>
      <trkpt lat="43.31142" lon="2.70373">
        <ele>60.7</ele>
        <time>2021-03-11T14:34:36Z</time>
      </trkpt>
      <trkpt lat="43.31147" lon="2.70384">
        <ele>60.7</ele>
        <time>2021-03-11T14:34:48Z</time>
      </trkpt>
      <trkpt lat="43.31148" lon="2.70387">
        <ele>60.7</ele>
        <time>2021-03-11T14:34:49Z</time>
      </trkpt>
      <trkpt lat="43.31149" lon="2.70389">
        <ele>60.7</ele>
        <time>2021-03-11T14:34:50Z</time>
      </trkpt>
      <trkpt lat="43.31158" lon="2.70408">
        <ele>60.7</ele>
        <time>2021-03-11T14:35:03Z</time>
      </trkpt>
      <trkpt lat="43.31169" lon="2.7043">
        <ele>60.22</ele>
        <time>2021-03-11T14:35:15Z</time>
      </trkpt>
      <trkpt lat="43.31176" lon="2.70442">
        <ele>60.22</ele>
        <time>2021-03-11T14:35:26Z</time>
      </trkpt>
      <trkpt lat="43.31179" lon="2.70448">
        <ele>60.22</ele>
        <time>2021-03-11T14:35:30Z</time>
      </trkpt>
      <trkpt lat="43.31183" lon="2.70459">
        <ele>60.22</ele>
        <time>2021-03-11T14:35:36Z</time>
      </trkpt>
      <trkpt lat="43.31184" lon="2.70461">
        <ele>59.26</ele>
        <time>2021-03-11T14:35:37Z</time>
      </trkpt>
      <trkpt lat="43.31185" lon="2.70464">
        <ele>59.26</ele>
        <time>2021-03-11T14:35:38Z</time>
      </trkpt>
      <trkpt lat="43.31196" lon="2.70481">
        <ele>59.26</ele>
        <time>2021-03-11T14:35:51Z</time>
      </trkpt>
      <trkpt lat="43.31207" lon="2.70509">
        <ele>59.26</ele>
        <time>2021-03-11T14:36:04Z</time>
      </trkpt>
      <trkpt lat="43.31215" lon="2.70528">
        <ele>58.3</ele>
        <time>2021-03-11T14:36:17Z</time>
      </trkpt>
      <trkpt lat="43.31223" lon="2.70546">
        <ele>59.26</ele>
        <time>2021-03-11T14:36:29Z</time>
      </trkpt>
      <trkpt lat="43.31229" lon="2.70559">
        <ele>59.26</ele>
        <time>2021-03-11T14:36:40Z</time>
      </trkpt>
      <trkpt lat="43.3123" lon="2.7056">
        <ele>59.26</ele>
        <time>2021-03-11T14:36:41Z</time>
      </trkpt>
      <trkpt lat="43.3124" lon="2.7058">
        <ele>59.26</ele>
        <time>2021-03-11T14:36:52Z</time>
      </trkpt>
      <trkpt lat="43.31241" lon="2.70581">
        <ele>59.26</ele>
        <time>2021-03-11T14:36:53Z</time>
      </trkpt>
      <trkpt lat="43.31241" lon="2.70583">
        <ele>59.26</ele>
        <time>2021-03-11T14:36:54Z</time>
      </trkpt>
      <trkpt lat="43.31242" lon="2.70585">
        <ele>59.26</ele>
        <time>2021-03-11T14:36:55Z</time>
      </trkpt>
      <trkpt lat="43.31242" lon="2.70586">
        <ele>59.26</ele>
        <time>2021-03-11T14:36:56Z</time>
      </trkpt>
      <trkpt lat="43.31242" lon="2.70587">
        <ele>59.26</ele>
        <time>2021-03-11T14:36:57Z</time>
      </trkpt>
      <trkpt lat="43.31242" lon="2.70588">
        <ele>59.26</ele>
        <time>2021-03-11T14:36:58Z</time>
      </trkpt>
      <trkpt lat="43.31242" lon="2.7059">
        <ele>59.26</ele>
        <time>2021-03-11T14:36:59Z</time>
      </trkpt>
      <trkpt lat="43.31242" lon="2.70592">
        <ele>59.26</ele>
        <time>2021-03-11T14:37:01Z</time>
      </trkpt>
      <trkpt lat="43.31249" lon="2.70602">
        <ele>59.26</ele>
        <time>2021-03-11T14:37:12Z</time>
      </trkpt>
      <trkpt lat="43.31252" lon="2.70609">
        <ele>59.26</ele>
        <time>2021-03-11T14:37:22Z</time>
      </trkpt>
      <trkpt lat="43.31253" lon="2.70612">
        <ele>59.26</ele>
        <time>2021-03-11T14:37:23Z</time>
      </trkpt>
      <trkpt lat="43.31254" lon="2.70615">
        <ele>59.26</ele>
        <time>2021-03-11T14:37:24Z</time>
      </trkpt>
      <trkpt lat="43.31255" lon="2.70618">
        <ele>59.26</ele>
        <time>2021-03-11T14:37:25Z</time>
      </trkpt>
      <trkpt lat="43.31256" lon="2.7062">
        <ele>59.26</ele>
        <time>2021-03-11T14:37:26Z</time>
      </trkpt>
      <trkpt lat="43.31264" lon="2.70633">
        <ele>59.26</ele>
        <time>2021-03-11T14:37:38Z</time>
      </trkpt>
      <trkpt lat="43.31278" lon="2.70663">
        <ele>59.26</ele>
        <time>2021-03-11T14:37:50Z</time>
      </trkpt>
      <trkpt lat="43.31284" lon="2.70673">
        <ele>59.26</ele>
        <time>2021-03-11T14:38:02Z</time>
      </trkpt>
      <trkpt lat="43.31289" lon="2.70684">
        <ele>59.26</ele>
        <time>2021-03-11T14:38:12Z</time>
      </trkpt>
      <trkpt lat="43.3129" lon="2.70687">
        <ele>59.26</ele>
        <time>2021-03-11T14:38:13Z</time>
      </trkpt>
      <trkpt lat="43.31298" lon="2.70717">
        <ele>59.26</ele>
        <time>2021-03-11T14:38:25Z</time>
      </trkpt>
      <trkpt lat="43.31303" lon="2.70736">
        <ele>59.26</ele>
        <time>2021-03-11T14:38:36Z</time>
      </trkpt>
      <trkpt lat="43.31312" lon="2.7076">
        <ele>59.26</ele>
        <time>2021-03-11T14:38:47Z</time>
      </trkpt>
      <trkpt lat="43.31319" lon="2.70778">
        <ele>59.26</ele>
        <time>2021-03-11T14:39:02Z</time>
      </trkpt>
      <trkpt lat="43.31328" lon="2.70793">
        <ele>59.26</ele>
        <time>2021-03-11T14:39:14Z</time>
      </trkpt>
      <trkpt lat="43.3133" lon="2.70795">
        <ele>59.26</ele>
        <time>2021-03-11T14:39:15Z</time>
      </trkpt>
      <trkpt lat="43.31343" lon="2.70815">
        <ele>59.26</ele>
        <time>2021-03-11T14:39:26Z</time>
      </trkpt>
      <trkpt lat="43.3135" lon="2.70834">
        <ele>59.26</ele>
        <time>2021-03-11T14:39:40Z</time>
      </trkpt>
      <trkpt lat="43.31363" lon="2.70855">
        <ele>59.26</ele>
        <time>2021-03-11T14:39:53Z</time>
      </trkpt>
      <trkpt lat="43.31374" lon="2.70876">
        <ele>59.26</ele>
        <time>2021-03-11T14:40:09Z</time>
      </trkpt>
      <trkpt lat="43.31383" lon="2.70893">
        <ele>59.26</ele>
        <time>2021-03-11T14:40:21Z</time>
      </trkpt>
      <trkpt lat="43.31387" lon="2.70899">
        <ele>59.26</ele>
        <time>2021-03-11T14:40:28Z</time>
      </trkpt>
      <trkpt lat="43.31388" lon="2.70901">
        <ele>59.26</ele>
        <time>2021-03-11T14:40:29Z</time>
      </trkpt>
      <trkpt lat="43.31389" lon="2.70902">
        <ele>59.26</ele>
        <time>2021-03-11T14:40:30Z</time>
      </trkpt>
      <trkpt lat="43.31395" lon="2.70911">
        <ele>60.22</ele>
        <time>2021-03-11T14:40:35Z</time>
      </trkpt>
      <trkpt lat="43.31401" lon="2.7093">
        <ele>60.22</ele>
        <time>2021-03-11T14:40:48Z</time>
      </trkpt>
      <trkpt lat="43.31404" lon="2.7094">
        <ele>60.7</ele>
        <time>2021-03-11T14:40:53Z</time>
      </trkpt>
      <trkpt lat="43.31413" lon="2.70965">
        <ele>60.7</ele>
        <time>2021-03-11T14:41:05Z</time>
      </trkpt>
      <trkpt lat="43.31421" lon="2.70996">
        <ele>61.66</ele>
        <time>2021-03-11T14:41:21Z</time>
      </trkpt>
      <trkpt lat="43.3143" lon="2.71011">
        <ele>61.18</ele>
        <time>2021-03-11T14:41:32Z</time>
      </trkpt>
      <trkpt lat="43.31438" lon="2.71031">
        <ele>61.18</ele>
        <time>2021-03-11T14:41:45Z</time>
      </trkpt>
      <trkpt lat="43.31448" lon="2.71052">
        <ele>61.18</ele>
        <time>2021-03-11T14:41:58Z</time>
      </trkpt>
      <trkpt lat="43.31455" lon="2.71064">
        <ele>61.18</ele>
        <time>2021-03-11T14:42:04Z</time>
      </trkpt>
      <trkpt lat="43.31455" lon="2.71065">
        <ele>61.18</ele>
        <time>2021-03-11T14:42:05Z</time>
      </trkpt>
      <trkpt lat="43.31456" lon="2.71068">
        <ele>61.18</ele>
        <time>2021-03-11T14:42:06Z</time>
      </trkpt>
      <trkpt lat="43.31456" lon="2.7107">
        <ele>61.18</ele>
        <time>2021-03-11T14:42:07Z</time>
      </trkpt>
      <trkpt lat="43.31457" lon="2.71072">
        <ele>61.18</ele>
        <time>2021-03-11T14:42:08Z</time>
      </trkpt>
      <trkpt lat="43.31462" lon="2.71092">
        <ele>61.18</ele>
        <time>2021-03-11T14:42:23Z</time>
      </trkpt>
      <trkpt lat="43.31466" lon="2.71111">
        <ele>61.18</ele>
        <time>2021-03-11T14:42:35Z</time>
      </trkpt>
      <trkpt lat="43.3147" lon="2.71129">
        <ele>60.7</ele>
        <time>2021-03-11T14:42:46Z</time>
      </trkpt>
      <trkpt lat="43.31471" lon="2.71131">
        <ele>60.7</ele>
        <time>2021-03-11T14:42:47Z</time>
      </trkpt>
      <trkpt lat="43.31479" lon="2.71167">
        <ele>60.7</ele>
        <time>2021-03-11T14:43:07Z</time>
      </trkpt>
      <trkpt lat="43.31485" lon="2.71192">
        <ele>60.7</ele>
        <time>2021-03-11T14:43:21Z</time>
      </trkpt>
      <trkpt lat="43.31489" lon="2.71211">
        <ele>60.22</ele>
        <time>2021-03-11T14:43:31Z</time>
      </trkpt>
      <trkpt lat="43.31489" lon="2.71213">
        <ele>60.22</ele>
        <time>2021-03-11T14:43:34Z</time>
      </trkpt>
      <trkpt lat="43.3149" lon="2.71215">
        <ele>60.22</ele>
        <time>2021-03-11T14:43:35Z</time>
      </trkpt>
      <trkpt lat="43.3149" lon="2.71217">
        <ele>60.22</ele>
        <time>2021-03-11T14:43:36Z</time>
      </trkpt>
      <trkpt lat="43.31491" lon="2.71219">
        <ele>60.22</ele>
        <time>2021-03-11T14:43:37Z</time>
      </trkpt>
      <trkpt lat="43.31491" lon="2.71221">
        <ele>60.22</ele>
        <time>2021-03-11T14:43:38Z</time>
      </trkpt>
      <trkpt lat="43.31498" lon="2.71245">
        <ele>60.22</ele>
        <time>2021-03-11T14:43:50Z</time>
      </trkpt>
      <trkpt lat="43.31501" lon="2.71254">
        <ele>60.22</ele>
        <time>2021-03-11T14:44:01Z</time>
      </trkpt>
      <trkpt lat="43.31501" lon="2.71255">
        <ele>60.22</ele>
        <time>2021-03-11T14:44:05Z</time>
      </trkpt>
      <trkpt lat="43.31501" lon="2.71257">
        <ele>60.22</ele>
        <time>2021-03-11T14:44:06Z</time>
      </trkpt>
      <trkpt lat="43.31501" lon="2.7126">
        <ele>60.22</ele>
        <time>2021-03-11T14:44:07Z</time>
      </trkpt>
      <trkpt lat="43.31502" lon="2.71262">
        <ele>60.22</ele>
        <time>2021-03-11T14:44:08Z</time>
      </trkpt>
      <trkpt lat="43.31503" lon="2.71264">
        <ele>60.22</ele>
        <time>2021-03-11T14:44:09Z</time>
      </trkpt>
      <trkpt lat="43.31503" lon="2.71266">
        <ele>60.22</ele>
        <time>2021-03-11T14:44:10Z</time>
      </trkpt>
      <trkpt lat="43.31503" lon="2.71268">
        <ele>60.22</ele>
        <time>2021-03-11T14:44:11Z</time>
      </trkpt>
      <trkpt lat="43.31504" lon="2.7127">
        <ele>60.22</ele>
        <time>2021-03-11T14:44:12Z</time>
      </trkpt>
      <trkpt lat="43.31506" lon="2.71298">
        <ele>60.22</ele>
        <time>2021-03-11T14:44:28Z</time>
      </trkpt>
      <trkpt lat="43.31503" lon="2.7131">
        <ele>59.74</ele>
        <time>2021-03-11T14:44:36Z</time>
      </trkpt>
      <trkpt lat="43.31503" lon="2.71311">
        <ele>59.74</ele>
        <time>2021-03-11T14:44:37Z</time>
      </trkpt>
      <trkpt lat="43.31503" lon="2.71313">
        <ele>59.74</ele>
        <time>2021-03-11T14:44:38Z</time>
      </trkpt>
      <trkpt lat="43.31502" lon="2.71315">
        <ele>59.74</ele>
        <time>2021-03-11T14:44:39Z</time>
      </trkpt>
      <trkpt lat="43.31502" lon="2.71316">
        <ele>59.74</ele>
        <time>2021-03-11T14:44:40Z</time>
      </trkpt>
      <trkpt lat="43.31498" lon="2.71351">
        <ele>59.74</ele>
        <time>2021-03-11T14:44:59Z</time>
      </trkpt>
      <trkpt lat="43.31497" lon="2.71355">
        <ele>60.7</ele>
        <time>2021-03-11T14:45:02Z</time>
      </trkpt>
      <trkpt lat="43.31497" lon="2.7137">
        <ele>60.7</ele>
        <time>2021-03-11T14:45:11Z</time>
      </trkpt>
      <trkpt lat="43.31496" lon="2.71372">
        <ele>59.26</ele>
        <time>2021-03-11T14:45:12Z</time>
      </trkpt>
      <trkpt lat="43.31496" lon="2.71374">
        <ele>60.7</ele>
        <time>2021-03-11T14:45:13Z</time>
      </trkpt>
      <trkpt lat="43.31494" lon="2.71394">
        <ele>60.7</ele>
        <time>2021-03-11T14:45:24Z</time>
      </trkpt>
      <trkpt lat="43.31495" lon="2.71424">
        <ele>60.7</ele>
        <time>2021-03-11T14:45:38Z</time>
      </trkpt>
      <trkpt lat="43.31496" lon="2.71449">
        <ele>60.7</ele>
        <time>2021-03-11T14:45:52Z</time>
      </trkpt>
      <trkpt lat="43.315" lon="2.71478">
        <ele>60.7</ele>
        <time>2021-03-11T14:46:07Z</time>
      </trkpt>
      <trkpt lat="43.31503" lon="2.71507">
        <ele>57.82</ele>
        <time>2021-03-11T14:46:29Z</time>
      </trkpt>
      <trkpt lat="43.31502" lon="2.71507">
        <ele>62.14</ele>
        <time>2021-03-11T14:46:30Z</time>
      </trkpt>
      <trkpt lat="43.31502" lon="2.71507">
        <ele>61.66</ele>
        <time>2021-03-11T14:46:38Z</time>
      </trkpt>
      <trkpt lat="43.31502" lon="2.71507">
        <ele>60.22</ele>
        <time>2021-03-11T14:46:40Z</time>
      </trkpt>
      <trkpt lat="43.31503" lon="2.71506">
        <ele>61.18</ele>
        <time>2021-03-11T14:47:11Z</time>
      </trkpt>
      <trkpt lat="43.31503" lon="2.71505">
        <ele>59.74</ele>
        <time>2021-03-11T14:47:25Z</time>
      </trkpt>
      <trkpt lat="43.31501" lon="2.71505">
        <ele>56.37</ele>
        <time>2021-03-11T14:47:36Z</time>
      </trkpt>
      <trkpt lat="43.315" lon="2.71505">
        <ele>63.1</ele>
        <time>2021-03-11T14:47:37Z</time>
      </trkpt>
      <trkpt lat="43.31503" lon="2.71507">
        <ele>58.78</ele>
        <time>2021-03-11T14:47:54Z</time>
      </trkpt>
      <trkpt lat="43.31503" lon="2.71508">
        <ele>63.58</ele>
        <time>2021-03-11T14:47:55Z</time>
      </trkpt>
      <trkpt lat="43.31503" lon="2.71508">
        <ele>60.22</ele>
        <time>2021-03-11T14:47:58Z</time>
      </trkpt>
      <trkpt lat="43.31509" lon="2.71523">
        <ele>60.22</ele>
        <time>2021-03-11T14:48:12Z</time>
      </trkpt>
      <trkpt lat="43.3151" lon="2.71527">
        <ele>60.22</ele>
        <time>2021-03-11T14:48:18Z</time>
      </trkpt>
      <trkpt lat="43.31511" lon="2.71529">
        <ele>60.22</ele>
        <time>2021-03-11T14:48:19Z</time>
      </trkpt>
      <trkpt lat="43.31511" lon="2.71531">
        <ele>60.22</ele>
        <time>2021-03-11T14:48:20Z</time>
      </trkpt>
      <trkpt lat="43.31511" lon="2.71532">
        <ele>60.22</ele>
        <time>2021-03-11T14:48:21Z</time>
      </trkpt>
      <trkpt lat="43.31511" lon="2.71534">
        <ele>60.22</ele>
        <time>2021-03-11T14:48:22Z</time>
      </trkpt>
      <trkpt lat="43.31511" lon="2.71536">
        <ele>60.22</ele>
        <time>2021-03-11T14:48:23Z</time>
      </trkpt>
      <trkpt lat="43.31512" lon="2.71538">
        <ele>58.78</ele>
        <time>2021-03-11T14:48:24Z</time>
      </trkpt>
      <trkpt lat="43.31513" lon="2.71543">
        <ele>62.62</ele>
        <time>2021-03-11T14:48:27Z</time>
      </trkpt>
      <trkpt lat="43.31514" lon="2.71548">
        <ele>60.22</ele>
        <time>2021-03-11T14:48:30Z</time>
      </trkpt>
      <trkpt lat="43.31515" lon="2.71555">
        <ele>61.66</ele>
        <time>2021-03-11T14:48:34Z</time>
      </trkpt>
      <trkpt lat="43.31522" lon="2.71588">
        <ele>61.18</ele>
        <time>2021-03-11T14:48:51Z</time>
      </trkpt>
      <trkpt lat="43.31528" lon="2.71623">
        <ele>61.18</ele>
        <time>2021-03-11T14:49:10Z</time>
      </trkpt>
      <trkpt lat="43.31531" lon="2.71655">
        <ele>61.18</ele>
        <time>2021-03-11T14:49:26Z</time>
      </trkpt>
      <trkpt lat="43.31533" lon="2.71663">
        <ele>62.14</ele>
        <time>2021-03-11T14:49:30Z</time>
      </trkpt>
      <trkpt lat="43.31533" lon="2.71666">
        <ele>60.7</ele>
        <time>2021-03-11T14:49:33Z</time>
      </trkpt>
      <trkpt lat="43.31536" lon="2.71675">
        <ele>60.7</ele>
        <time>2021-03-11T14:49:40Z</time>
      </trkpt>
      <trkpt lat="43.31537" lon="2.71677">
        <ele>60.7</ele>
        <time>2021-03-11T14:49:41Z</time>
      </trkpt>
      <trkpt lat="43.31539" lon="2.71687">
        <ele>60.7</ele>
        <time>2021-03-11T14:49:47Z</time>
      </trkpt>
      <trkpt lat="43.31539" lon="2.7169">
        <ele>60.7</ele>
        <time>2021-03-11T14:49:48Z</time>
      </trkpt>
      <trkpt lat="43.31539" lon="2.71692">
        <ele>60.7</ele>
        <time>2021-03-11T14:49:49Z</time>
      </trkpt>
      <trkpt lat="43.31539" lon="2.71695">
        <ele>60.22</ele>
        <time>2021-03-11T14:49:50Z</time>
      </trkpt>
      <trkpt lat="43.3154" lon="2.71698">
        <ele>60.22</ele>
        <time>2021-03-11T14:49:51Z</time>
      </trkpt>
      <trkpt lat="43.31541" lon="2.71701">
        <ele>60.22</ele>
        <time>2021-03-11T14:49:52Z</time>
      </trkpt>
      <trkpt lat="43.31545" lon="2.71727">
        <ele>60.22</ele>
        <time>2021-03-11T14:50:07Z</time>
      </trkpt>
      <trkpt lat="43.31554" lon="2.71755">
        <ele>60.22</ele>
        <time>2021-03-11T14:50:25Z</time>
      </trkpt>
      <trkpt lat="43.31563" lon="2.71772">
        <ele>61.66</ele>
        <time>2021-03-11T14:50:39Z</time>
      </trkpt>
      <trkpt lat="43.31564" lon="2.71776">
        <ele>61.66</ele>
        <time>2021-03-11T14:50:52Z</time>
      </trkpt>
      <trkpt lat="43.31571" lon="2.71789">
        <ele>61.66</ele>
        <time>2021-03-11T14:51:00Z</time>
      </trkpt>
      <trkpt lat="43.31578" lon="2.71801">
        <ele>62.62</ele>
        <time>2021-03-11T14:51:11Z</time>
      </trkpt>
      <trkpt lat="43.31587" lon="2.71821">
        <ele>62.62</ele>
        <time>2021-03-11T14:51:25Z</time>
      </trkpt>
      <trkpt lat="43.31594" lon="2.71835">
        <ele>62.62</ele>
        <time>2021-03-11T14:51:35Z</time>
      </trkpt>
      <trkpt lat="43.31607" lon="2.71858">
        <ele>62.62</ele>
        <time>2021-03-11T14:51:48Z</time>
      </trkpt>
      <trkpt lat="43.31614" lon="2.71874">
        <ele>63.1</ele>
        <time>2021-03-11T14:52:01Z</time>
      </trkpt>
      <trkpt lat="43.31623" lon="2.71891">
        <ele>63.1</ele>
        <time>2021-03-11T14:52:14Z</time>
      </trkpt>
      <trkpt lat="43.31624" lon="2.71894">
        <ele>63.1</ele>
        <time>2021-03-11T14:52:16Z</time>
      </trkpt>
      <trkpt lat="43.31625" lon="2.71896">
        <ele>63.1</ele>
        <time>2021-03-11T14:52:17Z</time>
      </trkpt>
      <trkpt lat="43.31627" lon="2.719">
        <ele>63.58</ele>
        <time>2021-03-11T14:52:20Z</time>
      </trkpt>
      <trkpt lat="43.31629" lon="2.71901">
        <ele>63.58</ele>
        <time>2021-03-11T14:52:21Z</time>
      </trkpt>
      <trkpt lat="43.3163" lon="2.71904">
        <ele>63.58</ele>
        <time>2021-03-11T14:52:22Z</time>
      </trkpt>
      <trkpt lat="43.3164" lon="2.71926">
        <ele>64.07</ele>
        <time>2021-03-11T14:52:38Z</time>
      </trkpt>
      <trkpt lat="43.31648" lon="2.71945">
        <ele>64.07</ele>
        <time>2021-03-11T14:52:51Z</time>
      </trkpt>
      <trkpt lat="43.31656" lon="2.71966">
        <ele>64.07</ele>
        <time>2021-03-11T14:53:02Z</time>
      </trkpt>
      <trkpt lat="43.31663" lon="2.71983">
        <ele>65.03</ele>
        <time>2021-03-11T14:53:14Z</time>
      </trkpt>
      <trkpt lat="43.31667" lon="2.71999">
        <ele>65.03</ele>
        <time>2021-03-11T14:53:26Z</time>
      </trkpt>
      <trkpt lat="43.31668" lon="2.72008">
        <ele>65.03</ele>
        <time>2021-03-11T14:53:32Z</time>
      </trkpt>
      <trkpt lat="43.31668" lon="2.7201">
        <ele>65.03</ele>
        <time>2021-03-11T14:53:33Z</time>
      </trkpt>
      <trkpt lat="43.31669" lon="2.72012">
        <ele>65.03</ele>
        <time>2021-03-11T14:53:34Z</time>
      </trkpt>
      <trkpt lat="43.3167" lon="2.72015">
        <ele>65.03</ele>
        <time>2021-03-11T14:53:35Z</time>
      </trkpt>
      <trkpt lat="43.31671" lon="2.72017">
        <ele>65.03</ele>
        <time>2021-03-11T14:53:36Z</time>
      </trkpt>
      <trkpt lat="43.31675" lon="2.7203">
        <ele>63.58</ele>
        <time>2021-03-11T14:53:43Z</time>
      </trkpt>
      <trkpt lat="43.31676" lon="2.72032">
        <ele>63.58</ele>
        <time>2021-03-11T14:53:44Z</time>
      </trkpt>
      <trkpt lat="43.31676" lon="2.72034">
        <ele>63.58</ele>
        <time>2021-03-11T14:53:45Z</time>
      </trkpt>
      <trkpt lat="43.31682" lon="2.72065">
        <ele>63.58</ele>
        <time>2021-03-11T14:53:58Z</time>
      </trkpt>
      <trkpt lat="43.31681" lon="2.72085">
        <ele>63.58</ele>
        <time>2021-03-11T14:54:13Z</time>
      </trkpt>
      <trkpt lat="43.31682" lon="2.72117">
        <ele>63.1</ele>
        <time>2021-03-11T14:54:27Z</time>
      </trkpt>
      <trkpt lat="43.31682" lon="2.72141">
        <ele>63.1</ele>
        <time>2021-03-11T14:54:39Z</time>
      </trkpt>
      <trkpt lat="43.31682" lon="2.72143">
        <ele>63.1</ele>
        <time>2021-03-11T14:54:40Z</time>
      </trkpt>
      <trkpt lat="43.31684" lon="2.72162">
        <ele>63.1</ele>
        <time>2021-03-11T14:54:52Z</time>
      </trkpt>
      <trkpt lat="43.31686" lon="2.72186">
        <ele>63.1</ele>
        <time>2021-03-11T14:55:06Z</time>
      </trkpt>
      <trkpt lat="43.31688" lon="2.72219">
        <ele>63.1</ele>
        <time>2021-03-11T14:55:19Z</time>
      </trkpt>
      <trkpt lat="43.31692" lon="2.72243">
        <ele>63.1</ele>
        <time>2021-03-11T14:55:35Z</time>
      </trkpt>
      <trkpt lat="43.31695" lon="2.72268">
        <ele>63.1</ele>
        <time>2021-03-11T14:55:46Z</time>
      </trkpt>
      <trkpt lat="43.31696" lon="2.72269">
        <ele>64.55</ele>
        <time>2021-03-11T14:55:47Z</time>
      </trkpt>
      <trkpt lat="43.31696" lon="2.7227">
        <ele>64.55</ele>
        <time>2021-03-11T14:55:48Z</time>
      </trkpt>
      <trkpt lat="43.31697" lon="2.72272">
        <ele>64.55</ele>
        <time>2021-03-11T14:55:49Z</time>
      </trkpt>
      <trkpt lat="43.31697" lon="2.72274">
        <ele>64.55</ele>
        <time>2021-03-11T14:55:50Z</time>
      </trkpt>
      <trkpt lat="43.31698" lon="2.72276">
        <ele>64.55</ele>
        <time>2021-03-11T14:55:51Z</time>
      </trkpt>
      <trkpt lat="43.317" lon="2.72305">
        <ele>64.55</ele>
        <time>2021-03-11T14:56:01Z</time>
      </trkpt>
      <trkpt lat="43.317" lon="2.7232">
        <ele>64.55</ele>
        <time>2021-03-11T14:56:16Z</time>
      </trkpt>
      <trkpt lat="43.31699" lon="2.72326">
        <ele>64.55</ele>
        <time>2021-03-11T14:56:19Z</time>
      </trkpt>
      <trkpt lat="43.31699" lon="2.72329">
        <ele>64.55</ele>
        <time>2021-03-11T14:56:20Z</time>
      </trkpt>
      <trkpt lat="43.31698" lon="2.7235">
        <ele>64.55</ele>
        <time>2021-03-11T14:56:31Z</time>
      </trkpt>
      <trkpt lat="43.31698" lon="2.72351">
        <ele>64.55</ele>
        <time>2021-03-11T14:56:32Z</time>
      </trkpt>
      <trkpt lat="43.31698" lon="2.72353">
        <ele>64.55</ele>
        <time>2021-03-11T14:56:33Z</time>
      </trkpt>
      <trkpt lat="43.31698" lon="2.72357">
        <ele>64.55</ele>
        <time>2021-03-11T14:56:37Z</time>
      </trkpt>
      <trkpt lat="43.31698" lon="2.72359">
        <ele>64.55</ele>
        <time>2021-03-11T14:56:38Z</time>
      </trkpt>
      <trkpt lat="43.31699" lon="2.72361">
        <ele>64.55</ele>
        <time>2021-03-11T14:56:39Z</time>
      </trkpt>
      <trkpt lat="43.31699" lon="2.72363">
        <ele>64.55</ele>
        <time>2021-03-11T14:56:40Z</time>
      </trkpt>
      <trkpt lat="43.31699" lon="2.72364">
        <ele>64.55</ele>
        <time>2021-03-11T14:56:41Z</time>
      </trkpt>
      <trkpt lat="43.31699" lon="2.72366">
        <ele>64.55</ele>
        <time>2021-03-11T14:56:42Z</time>
      </trkpt>
      <trkpt lat="43.31702" lon="2.72395">
        <ele>65.03</ele>
        <time>2021-03-11T14:56:59Z</time>
      </trkpt>
      <trkpt lat="43.31703" lon="2.72398">
        <ele>65.03</ele>
        <time>2021-03-11T14:57:02Z</time>
      </trkpt>
      <trkpt lat="43.31703" lon="2.72401">
        <ele>65.03</ele>
        <time>2021-03-11T14:57:04Z</time>
      </trkpt>
      <trkpt lat="43.31708" lon="2.72435">
        <ele>65.51</ele>
        <time>2021-03-11T14:57:17Z</time>
      </trkpt>
      <trkpt lat="43.31711" lon="2.7245">
        <ele>65.99</ele>
        <time>2021-03-11T14:57:28Z</time>
      </trkpt>
      <trkpt lat="43.31715" lon="2.72479">
        <ele>66.47</ele>
        <time>2021-03-11T14:57:41Z</time>
      </trkpt>
      <trkpt lat="43.31719" lon="2.72497">
        <ele>67.43</ele>
        <time>2021-03-11T14:57:54Z</time>
      </trkpt>
      <trkpt lat="43.31718" lon="2.72519">
        <ele>66.47</ele>
        <time>2021-03-11T14:58:06Z</time>
      </trkpt>
      <trkpt lat="43.3172" lon="2.7254">
        <ele>65.99</ele>
        <time>2021-03-11T14:58:19Z</time>
      </trkpt>
      <trkpt lat="43.3172" lon="2.72541">
        <ele>65.99</ele>
        <time>2021-03-11T14:58:21Z</time>
      </trkpt>
      <trkpt lat="43.3172" lon="2.72542">
        <ele>65.99</ele>
        <time>2021-03-11T14:58:22Z</time>
      </trkpt>
      <trkpt lat="43.31721" lon="2.72564">
        <ele>65.99</ele>
        <time>2021-03-11T14:58:35Z</time>
      </trkpt>
      <trkpt lat="43.31722" lon="2.72576">
        <ele>65.99</ele>
        <time>2021-03-11T14:58:48Z</time>
      </trkpt>
      <trkpt lat="43.31723" lon="2.72584">
        <ele>65.51</ele>
        <time>2021-03-11T14:58:52Z</time>
      </trkpt>
      <trkpt lat="43.31727" lon="2.72596">
        <ele>65.51</ele>
        <time>2021-03-11T14:59:00Z</time>
      </trkpt>
      <trkpt lat="43.31728" lon="2.72598">
        <ele>65.51</ele>
        <time>2021-03-11T14:59:01Z</time>
      </trkpt>
      <trkpt lat="43.31742" lon="2.72639">
        <ele>65.51</ele>
        <time>2021-03-11T14:59:18Z</time>
      </trkpt>
      <trkpt lat="43.3175" lon="2.72661">
        <ele>65.51</ele>
        <time>2021-03-11T14:59:32Z</time>
      </trkpt>
      <trkpt lat="43.31752" lon="2.72662">
        <ele>65.51</ele>
        <time>2021-03-11T14:59:35Z</time>
      </trkpt>
      <trkpt lat="43.31756" lon="2.72666">
        <ele>65.51</ele>
        <time>2021-03-11T14:59:41Z</time>
      </trkpt>
      <trkpt lat="43.31758" lon="2.72668">
        <ele>65.51</ele>
        <time>2021-03-11T14:59:43Z</time>
      </trkpt>
      <trkpt lat="43.31759" lon="2.7267">
        <ele>65.51</ele>
        <time>2021-03-11T14:59:44Z</time>
      </trkpt>
      <trkpt lat="43.31773" lon="2.7269">
        <ele>65.51</ele>
        <time>2021-03-11T15:00:00Z</time>
      </trkpt>
      <trkpt lat="43.31778" lon="2.72699">
        <ele>65.51</ele>
        <time>2021-03-11T15:00:06Z</time>
      </trkpt>
      <trkpt lat="43.31779" lon="2.72701">
        <ele>65.51</ele>
        <time>2021-03-11T15:00:07Z</time>
      </trkpt>
      <trkpt lat="43.31779" lon="2.72703">
        <ele>65.51</ele>
        <time>2021-03-11T15:00:08Z</time>
      </trkpt>
      <trkpt lat="43.3178" lon="2.72705">
        <ele>65.51</ele>
        <time>2021-03-11T15:00:09Z</time>
      </trkpt>
      <trkpt lat="43.31781" lon="2.72706">
        <ele>65.51</ele>
        <time>2021-03-11T15:00:10Z</time>
      </trkpt>
      <trkpt lat="43.31782" lon="2.72708">
        <ele>65.51</ele>
        <time>2021-03-11T15:00:11Z</time>
      </trkpt>
      <trkpt lat="43.31783" lon="2.72709">
        <ele>65.51</ele>
        <time>2021-03-11T15:00:12Z</time>
      </trkpt>
      <trkpt lat="43.31785" lon="2.72712">
        <ele>65.51</ele>
        <time>2021-03-11T15:00:16Z</time>
      </trkpt>
      <trkpt lat="43.31786" lon="2.72713">
        <ele>65.51</ele>
        <time>2021-03-11T15:00:17Z</time>
      </trkpt>
      <trkpt lat="43.31796" lon="2.72731">
        <ele>65.51</ele>
        <time>2021-03-11T15:00:31Z</time>
      </trkpt>
      <trkpt lat="43.31798" lon="2.72734">
        <ele>66.47</ele>
        <time>2021-03-11T15:00:33Z</time>
      </trkpt>
      <trkpt lat="43.31802" lon="2.72744">
        <ele>66.47</ele>
        <time>2021-03-11T15:00:40Z</time>
      </trkpt>
      <trkpt lat="43.31814" lon="2.72769">
        <ele>66.95</ele>
        <time>2021-03-11T15:00:53Z</time>
      </trkpt>
      <trkpt lat="43.31826" lon="2.72794">
        <ele>67.43</ele>
        <time>2021-03-11T15:01:08Z</time>
      </trkpt>
      <trkpt lat="43.31836" lon="2.72815">
        <ele>67.91</ele>
        <time>2021-03-11T15:01:23Z</time>
      </trkpt>
      <trkpt lat="43.31846" lon="2.72826">
        <ele>67.91</ele>
        <time>2021-03-11T15:01:35Z</time>
      </trkpt>
      <trkpt lat="43.3186" lon="2.72846">
        <ele>67.91</ele>
        <time>2021-03-11T15:01:51Z</time>
      </trkpt>
      <trkpt lat="43.31867" lon="2.72866">
        <ele>68.87</ele>
        <time>2021-03-11T15:02:04Z</time>
      </trkpt>
      <trkpt lat="43.31868" lon="2.72868">
        <ele>68.87</ele>
        <time>2021-03-11T15:02:05Z</time>
      </trkpt>
      <trkpt lat="43.31869" lon="2.7287">
        <ele>68.87</ele>
        <time>2021-03-11T15:02:06Z</time>
      </trkpt>
      <trkpt lat="43.3187" lon="2.72873">
        <ele>68.87</ele>
        <time>2021-03-11T15:02:07Z</time>
      </trkpt>
      <trkpt lat="43.31871" lon="2.72875">
        <ele>68.87</ele>
        <time>2021-03-11T15:02:08Z</time>
      </trkpt>
      <trkpt lat="43.3188" lon="2.72896">
        <ele>68.87</ele>
        <time>2021-03-11T15:02:22Z</time>
      </trkpt>
      <trkpt lat="43.31889" lon="2.72916">
        <ele>68.87</ele>
        <time>2021-03-11T15:02:35Z</time>
      </trkpt>
      <trkpt lat="43.31894" lon="2.72926">
        <ele>68.87</ele>
        <time>2021-03-11T15:02:42Z</time>
      </trkpt>
      <trkpt lat="43.31896" lon="2.7293">
        <ele>68.87</ele>
        <time>2021-03-11T15:02:52Z</time>
      </trkpt>
      <trkpt lat="43.31896" lon="2.72932">
        <ele>68.87</ele>
        <time>2021-03-11T15:02:53Z</time>
      </trkpt>
      <trkpt lat="43.31896" lon="2.72934">
        <ele>68.87</ele>
        <time>2021-03-11T15:02:54Z</time>
      </trkpt>
      <trkpt lat="43.31898" lon="2.72939">
        <ele>68.87</ele>
        <time>2021-03-11T15:03:00Z</time>
      </trkpt>
      <trkpt lat="43.31899" lon="2.72945">
        <ele>68.87</ele>
        <time>2021-03-11T15:03:04Z</time>
      </trkpt>
      <trkpt lat="43.319" lon="2.72948">
        <ele>68.87</ele>
        <time>2021-03-11T15:03:05Z</time>
      </trkpt>
      <trkpt lat="43.31908" lon="2.72975">
        <ele>69.35</ele>
        <time>2021-03-11T15:03:18Z</time>
      </trkpt>
      <trkpt lat="43.31917" lon="2.72997">
        <ele>70.31</ele>
        <time>2021-03-11T15:03:31Z</time>
      </trkpt>
      <trkpt lat="43.3193" lon="2.73022">
        <ele>71.27</ele>
        <time>2021-03-11T15:03:43Z</time>
      </trkpt>
      <trkpt lat="43.31941" lon="2.73044">
        <ele>72.24</ele>
        <time>2021-03-11T15:03:57Z</time>
      </trkpt>
      <trkpt lat="43.31953" lon="2.73057">
        <ele>73.2</ele>
        <time>2021-03-11T15:04:10Z</time>
      </trkpt>
      <trkpt lat="43.31962" lon="2.73067">
        <ele>74.16</ele>
        <time>2021-03-11T15:04:22Z</time>
      </trkpt>
      <trkpt lat="43.31965" lon="2.7307">
        <ele>74.16</ele>
        <time>2021-03-11T15:04:25Z</time>
      </trkpt>
      <trkpt lat="43.31972" lon="2.73076">
        <ele>74.64</ele>
        <time>2021-03-11T15:04:34Z</time>
      </trkpt>
      <trkpt lat="43.31973" lon="2.73077">
        <ele>75.6</ele>
        <time>2021-03-11T15:04:35Z</time>
      </trkpt>
      <trkpt lat="43.31985" lon="2.73088">
        <ele>76.56</ele>
        <time>2021-03-11T15:04:46Z</time>
      </trkpt>
      <trkpt lat="43.3199" lon="2.73093">
        <ele>76.56</ele>
        <time>2021-03-11T15:04:52Z</time>
      </trkpt>
      <trkpt lat="43.31992" lon="2.73094">
        <ele>76.56</ele>
        <time>2021-03-11T15:04:53Z</time>
      </trkpt>
      <trkpt lat="43.31993" lon="2.73096">
        <ele>77.04</ele>
        <time>2021-03-11T15:04:54Z</time>
      </trkpt>
      <trkpt lat="43.32" lon="2.73106">
        <ele>78</ele>
        <time>2021-03-11T15:05:03Z</time>
      </trkpt>
      <trkpt lat="43.32001" lon="2.73107">
        <ele>78</ele>
        <time>2021-03-11T15:05:04Z</time>
      </trkpt>
      <trkpt lat="43.32003" lon="2.73109">
        <ele>78</ele>
        <time>2021-03-11T15:05:05Z</time>
      </trkpt>
      <trkpt lat="43.32004" lon="2.7311">
        <ele>78.97</ele>
        <time>2021-03-11T15:05:06Z</time>
      </trkpt>
      <trkpt lat="43.3201" lon="2.7312">
        <ele>79.45</ele>
        <time>2021-03-11T15:05:14Z</time>
      </trkpt>
      <trkpt lat="43.32016" lon="2.73129">
        <ele>79.45</ele>
        <time>2021-03-11T15:05:21Z</time>
      </trkpt>
      <trkpt lat="43.3203" lon="2.73147">
        <ele>81.37</ele>
        <time>2021-03-11T15:05:35Z</time>
      </trkpt>
      <trkpt lat="43.32033" lon="2.73154">
        <ele>81.37</ele>
        <time>2021-03-11T15:05:41Z</time>
      </trkpt>
      <trkpt lat="43.32034" lon="2.73156">
        <ele>81.37</ele>
        <time>2021-03-11T15:05:42Z</time>
      </trkpt>
      <trkpt lat="43.32035" lon="2.73157">
        <ele>81.37</ele>
        <time>2021-03-11T15:05:43Z</time>
      </trkpt>
      <trkpt lat="43.32036" lon="2.73159">
        <ele>81.85</ele>
        <time>2021-03-11T15:05:44Z</time>
      </trkpt>
      <trkpt lat="43.32037" lon="2.73161">
        <ele>81.85</ele>
        <time>2021-03-11T15:05:45Z</time>
      </trkpt>
      <trkpt lat="43.32043" lon="2.73174">
        <ele>82.33</ele>
        <time>2021-03-11T15:05:55Z</time>
      </trkpt>
      <trkpt lat="43.32051" lon="2.73191">
        <ele>82.81</ele>
        <time>2021-03-11T15:06:06Z</time>
      </trkpt>
      <trkpt lat="43.3206" lon="2.7321">
        <ele>82.81</ele>
        <time>2021-03-11T15:06:20Z</time>
      </trkpt>
      <trkpt lat="43.32064" lon="2.73219">
        <ele>82.81</ele>
        <time>2021-03-11T15:06:29Z</time>
      </trkpt>
      <trkpt lat="43.32068" lon="2.73224">
        <ele>82.81</ele>
        <time>2021-03-11T15:06:32Z</time>
      </trkpt>
      <trkpt lat="43.32069" lon="2.73225">
        <ele>82.81</ele>
        <time>2021-03-11T15:06:33Z</time>
      </trkpt>
      <trkpt lat="43.32069" lon="2.73226">
        <ele>82.81</ele>
        <time>2021-03-11T15:06:34Z</time>
      </trkpt>
      <trkpt lat="43.32084" lon="2.73251">
        <ele>82.81</ele>
        <time>2021-03-11T15:06:48Z</time>
      </trkpt>
      <trkpt lat="43.3209" lon="2.73262">
        <ele>82.81</ele>
        <time>2021-03-11T15:06:59Z</time>
      </trkpt>
      <trkpt lat="43.32091" lon="2.73264">
        <ele>82.81</ele>
        <time>2021-03-11T15:07:00Z</time>
      </trkpt>
      <trkpt lat="43.32098" lon="2.73284">
        <ele>82.81</ele>
        <time>2021-03-11T15:07:07Z</time>
      </trkpt>
      <trkpt lat="43.32099" lon="2.73286">
        <ele>82.81</ele>
        <time>2021-03-11T15:07:08Z</time>
      </trkpt>
      <trkpt lat="43.321" lon="2.73287">
        <ele>82.81</ele>
        <time>2021-03-11T15:07:09Z</time>
      </trkpt>
      <trkpt lat="43.32109" lon="2.73301">
        <ele>81.37</ele>
        <time>2021-03-11T15:07:21Z</time>
      </trkpt>
      <trkpt lat="43.32113" lon="2.73316">
        <ele>81.37</ele>
        <time>2021-03-11T15:07:33Z</time>
      </trkpt>
      <trkpt lat="43.3212" lon="2.73338">
        <ele>81.37</ele>
        <time>2021-03-11T15:07:47Z</time>
      </trkpt>
      <trkpt lat="43.32128" lon="2.73362">
        <ele>80.89</ele>
        <time>2021-03-11T15:08:00Z</time>
      </trkpt>
      <trkpt lat="43.32132" lon="2.73382">
        <ele>82.33</ele>
        <time>2021-03-11T15:08:10Z</time>
      </trkpt>
      <trkpt lat="43.32134" lon="2.7339">
        <ele>82.33</ele>
        <time>2021-03-11T15:08:17Z</time>
      </trkpt>
      <trkpt lat="43.32135" lon="2.73396">
        <ele>81.85</ele>
        <time>2021-03-11T15:08:28Z</time>
      </trkpt>
      <trkpt lat="43.32135" lon="2.73398">
        <ele>81.85</ele>
        <time>2021-03-11T15:08:29Z</time>
      </trkpt>
      <trkpt lat="43.32135" lon="2.73399">
        <ele>81.85</ele>
        <time>2021-03-11T15:08:30Z</time>
      </trkpt>
      <trkpt lat="43.32136" lon="2.734">
        <ele>81.85</ele>
        <time>2021-03-11T15:08:31Z</time>
      </trkpt>
      <trkpt lat="43.32136" lon="2.73402">
        <ele>81.85</ele>
        <time>2021-03-11T15:08:32Z</time>
      </trkpt>
      <trkpt lat="43.32137" lon="2.73405">
        <ele>81.85</ele>
        <time>2021-03-11T15:08:33Z</time>
      </trkpt>
      <trkpt lat="43.32137" lon="2.73407">
        <ele>81.85</ele>
        <time>2021-03-11T15:08:34Z</time>
      </trkpt>
      <trkpt lat="43.32142" lon="2.73431">
        <ele>81.37</ele>
        <time>2021-03-11T15:08:44Z</time>
      </trkpt>
      <trkpt lat="43.32146" lon="2.73455">
        <ele>80.41</ele>
        <time>2021-03-11T15:08:58Z</time>
      </trkpt>
      <trkpt lat="43.32148" lon="2.73458">
        <ele>80.89</ele>
        <time>2021-03-11T15:09:03Z</time>
      </trkpt>
      <trkpt lat="43.32148" lon="2.7346">
        <ele>80.89</ele>
        <time>2021-03-11T15:09:04Z</time>
      </trkpt>
      <trkpt lat="43.32148" lon="2.73462">
        <ele>80.89</ele>
        <time>2021-03-11T15:09:05Z</time>
      </trkpt>
      <trkpt lat="43.32148" lon="2.73465">
        <ele>80.89</ele>
        <time>2021-03-11T15:09:06Z</time>
      </trkpt>
      <trkpt lat="43.32149" lon="2.73467">
        <ele>80.89</ele>
        <time>2021-03-11T15:09:07Z</time>
      </trkpt>
      <trkpt lat="43.32152" lon="2.73492">
        <ele>81.37</ele>
        <time>2021-03-11T15:09:20Z</time>
      </trkpt>
      <trkpt lat="43.32152" lon="2.73505">
        <ele>81.37</ele>
        <time>2021-03-11T15:09:31Z</time>
      </trkpt>
      <trkpt lat="43.32156" lon="2.73527">
        <ele>81.37</ele>
        <time>2021-03-11T15:09:43Z</time>
      </trkpt>
      <trkpt lat="43.32157" lon="2.73533">
        <ele>81.37</ele>
        <time>2021-03-11T15:09:49Z</time>
      </trkpt>
      <trkpt lat="43.32158" lon="2.73536">
        <ele>81.37</ele>
        <time>2021-03-11T15:09:50Z</time>
      </trkpt>
      <trkpt lat="43.32158" lon="2.73537">
        <ele>81.37</ele>
        <time>2021-03-11T15:09:51Z</time>
      </trkpt>
      <trkpt lat="43.32159" lon="2.73539">
        <ele>81.37</ele>
        <time>2021-03-11T15:09:52Z</time>
      </trkpt>
      <trkpt lat="43.32159" lon="2.73541">
        <ele>81.37</ele>
        <time>2021-03-11T15:09:53Z</time>
      </trkpt>
      <trkpt lat="43.32162" lon="2.73563">
        <ele>80.89</ele>
        <time>2021-03-11T15:10:07Z</time>
      </trkpt>
      <trkpt lat="43.32163" lon="2.73572">
        <ele>80.89</ele>
        <time>2021-03-11T15:10:12Z</time>
      </trkpt>
      <trkpt lat="43.32164" lon="2.73574">
        <ele>80.89</ele>
        <time>2021-03-11T15:10:13Z</time>
      </trkpt>
      <trkpt lat="43.32164" lon="2.73576">
        <ele>80.89</ele>
        <time>2021-03-11T15:10:14Z</time>
      </trkpt>
      <trkpt lat="43.32164" lon="2.73578">
        <ele>80.89</ele>
        <time>2021-03-11T15:10:15Z</time>
      </trkpt>
      <trkpt lat="43.32164" lon="2.73581">
        <ele>80.89</ele>
        <time>2021-03-11T15:10:16Z</time>
      </trkpt>
      <trkpt lat="43.32162" lon="2.73606">
        <ele>80.89</ele>
        <time>2021-03-11T15:10:28Z</time>
      </trkpt>
      <trkpt lat="43.32165" lon="2.7362">
        <ele>82.33</ele>
        <time>2021-03-11T15:10:36Z</time>
      </trkpt>
      <trkpt lat="43.32169" lon="2.73623">
        <ele>82.81</ele>
        <time>2021-03-11T15:10:42Z</time>
      </trkpt>
      <trkpt lat="43.32171" lon="2.73624">
        <ele>82.81</ele>
        <time>2021-03-11T15:10:43Z</time>
      </trkpt>
      <trkpt lat="43.32185" lon="2.73634">
        <ele>83.29</ele>
        <time>2021-03-11T15:10:53Z</time>
      </trkpt>
      <trkpt lat="43.32189" lon="2.73634">
        <ele>83.77</ele>
        <time>2021-03-11T15:10:57Z</time>
      </trkpt>
      <trkpt lat="43.32203" lon="2.73621">
        <ele>83.77</ele>
        <time>2021-03-11T15:11:08Z</time>
      </trkpt>
      <trkpt lat="43.32206" lon="2.73617">
        <ele>83.77</ele>
        <time>2021-03-11T15:11:14Z</time>
      </trkpt>
      <trkpt lat="43.32207" lon="2.73616">
        <ele>83.77</ele>
        <time>2021-03-11T15:11:15Z</time>
      </trkpt>
      <trkpt lat="43.32209" lon="2.73615">
        <ele>83.77</ele>
        <time>2021-03-11T15:11:16Z</time>
      </trkpt>
      <trkpt lat="43.32218" lon="2.73601">
        <ele>84.25</ele>
        <time>2021-03-11T15:11:29Z</time>
      </trkpt>
      <trkpt lat="43.3222" lon="2.73598">
        <ele>84.25</ele>
        <time>2021-03-11T15:11:32Z</time>
      </trkpt>
      <trkpt lat="43.3222" lon="2.73595">
        <ele>84.25</ele>
        <time>2021-03-11T15:11:33Z</time>
      </trkpt>
      <trkpt lat="43.32222" lon="2.73593">
        <ele>84.25</ele>
        <time>2021-03-11T15:11:34Z</time>
      </trkpt>
      <trkpt lat="43.32229" lon="2.73583">
        <ele>84.25</ele>
        <time>2021-03-11T15:11:43Z</time>
      </trkpt>
      <trkpt lat="43.3223" lon="2.73582">
        <ele>84.25</ele>
        <time>2021-03-11T15:11:44Z</time>
      </trkpt>
      <trkpt lat="43.32231" lon="2.73581">
        <ele>84.25</ele>
        <time>2021-03-11T15:11:45Z</time>
      </trkpt>
      <trkpt lat="43.32232" lon="2.73579">
        <ele>84.25</ele>
        <time>2021-03-11T15:11:46Z</time>
      </trkpt>
      <trkpt lat="43.32234" lon="2.73578">
        <ele>84.25</ele>
        <time>2021-03-11T15:11:47Z</time>
      </trkpt>
      <trkpt lat="43.32249" lon="2.73564">
        <ele>84.25</ele>
        <time>2021-03-11T15:12:00Z</time>
      </trkpt>
      <trkpt lat="43.32251" lon="2.73561">
        <ele>84.25</ele>
        <time>2021-03-11T15:12:03Z</time>
      </trkpt>
      <trkpt lat="43.32251" lon="2.73559">
        <ele>84.25</ele>
        <time>2021-03-11T15:12:04Z</time>
      </trkpt>
      <trkpt lat="43.32252" lon="2.73557">
        <ele>84.25</ele>
        <time>2021-03-11T15:12:05Z</time>
      </trkpt>
      <trkpt lat="43.32258" lon="2.73538">
        <ele>84.25</ele>
        <time>2021-03-11T15:12:17Z</time>
      </trkpt>
      <trkpt lat="43.32258" lon="2.7353">
        <ele>84.25</ele>
        <time>2021-03-11T15:12:20Z</time>
      </trkpt>
      <trkpt lat="43.32258" lon="2.73527">
        <ele>84.25</ele>
        <time>2021-03-11T15:12:21Z</time>
      </trkpt>
      <trkpt lat="43.32259" lon="2.73524">
        <ele>84.25</ele>
        <time>2021-03-11T15:12:22Z</time>
      </trkpt>
      <trkpt lat="43.32259" lon="2.73521">
        <ele>84.25</ele>
        <time>2021-03-11T15:12:23Z</time>
      </trkpt>
      <trkpt lat="43.32258" lon="2.7352">
        <ele>84.25</ele>
        <time>2021-03-11T15:12:24Z</time>
      </trkpt>
      <trkpt lat="43.32258" lon="2.73518">
        <ele>84.25</ele>
        <time>2021-03-11T15:12:25Z</time>
      </trkpt>
      <trkpt lat="43.32257" lon="2.73512">
        <ele>85.69</ele>
        <time>2021-03-11T15:12:36Z</time>
      </trkpt>
      <trkpt lat="43.32256" lon="2.73512">
        <ele>85.69</ele>
        <time>2021-03-11T15:12:55Z</time>
      </trkpt>
      <trkpt lat="43.32255" lon="2.73511">
        <ele>85.69</ele>
        <time>2021-03-11T15:13:14Z</time>
      </trkpt>
      <trkpt lat="43.32254" lon="2.73511">
        <ele>85.69</ele>
        <time>2021-03-11T15:13:26Z</time>
      </trkpt>
      <trkpt lat="43.32252" lon="2.73509">
        <ele>85.69</ele>
        <time>2021-03-11T15:13:46Z</time>
      </trkpt>
    </trkseg>
  </trk>
</gpx>